<?xml version="1.0" encoding="UTF-8" standalone="no" ?>
<gpx xmlns="http://www.topografix.com/GPX/1/1" xmlns:xsi="http://www.w3.org/2001/XMLSchema-instance" xsi:schemaLocation="http://www.topografix.com/GPX/1/1 http://www.topografix.com/GPX/1/1/gpx.xsd" version="1.1" creator="VisuGPX - https://www.visugpx.com">
  <metadata>
    <name>PFO - Randonnée Pommiers</name>
    <desc><![CDATA[Randonnée Pommiers 2015 - Parcours 35 km]]></desc>
  </metadata>
  <trk>
    <name><![CDATA[13-SEP-15 12:40:11]]></name>
    <trkseg>
      <trkpt lat="45.95124" lon="4.68406">
        <ele>333.71</ele>
        <time>2015-09-13T06:43:51Z</time>
      </trkpt>
      <trkpt lat="45.95122" lon="4.68413">
        <ele>336.6</ele>
        <time>2015-09-13T06:44:12Z</time>
      </trkpt>
      <trkpt lat="45.95122" lon="4.68406">
        <ele>329.39</ele>
        <time>2015-09-13T06:44:41Z</time>
      </trkpt>
      <trkpt lat="45.9512" lon="4.68407">
        <ele>328.91</ele>
        <time>2015-09-13T06:44:46Z</time>
      </trkpt>
      <trkpt lat="45.95098" lon="4.68406">
        <ele>323.14</ele>
        <time>2015-09-13T06:44:58Z</time>
      </trkpt>
      <trkpt lat="45.95064" lon="4.68397">
        <ele>318.33</ele>
        <time>2015-09-13T06:45:12Z</time>
      </trkpt>
      <trkpt lat="45.95038" lon="4.68384">
        <ele>315.93</ele>
        <time>2015-09-13T06:45:25Z</time>
      </trkpt>
      <trkpt lat="45.95027" lon="4.68361">
        <ele>313.53</ele>
        <time>2015-09-13T06:45:35Z</time>
      </trkpt>
      <trkpt lat="45.95004" lon="4.68351">
        <ele>311.6</ele>
        <time>2015-09-13T06:45:46Z</time>
      </trkpt>
      <trkpt lat="45.9497" lon="4.68339">
        <ele>311.6</ele>
        <time>2015-09-13T06:45:58Z</time>
      </trkpt>
      <trkpt lat="45.9496" lon="4.68337">
        <ele>311.12</ele>
        <time>2015-09-13T06:46:04Z</time>
      </trkpt>
      <trkpt lat="45.94956" lon="4.68314">
        <ele>310.16</ele>
        <time>2015-09-13T06:46:14Z</time>
      </trkpt>
      <trkpt lat="45.9495" lon="4.6831">
        <ele>309.2</ele>
        <time>2015-09-13T06:46:21Z</time>
      </trkpt>
      <trkpt lat="45.94938" lon="4.68308">
        <ele>309.68</ele>
        <time>2015-09-13T06:46:29Z</time>
      </trkpt>
      <trkpt lat="45.94937" lon="4.68296">
        <ele>309.2</ele>
        <time>2015-09-13T06:46:33Z</time>
      </trkpt>
      <trkpt lat="45.94933" lon="4.68275">
        <ele>306.8</ele>
        <time>2015-09-13T06:46:39Z</time>
      </trkpt>
      <trkpt lat="45.94942" lon="4.68234">
        <ele>302.95</ele>
        <time>2015-09-13T06:46:51Z</time>
      </trkpt>
      <trkpt lat="45.94949" lon="4.68233">
        <ele>301.51</ele>
        <time>2015-09-13T06:46:55Z</time>
      </trkpt>
      <trkpt lat="45.9496" lon="4.6821">
        <ele>299.59</ele>
        <time>2015-09-13T06:47:04Z</time>
      </trkpt>
      <trkpt lat="45.94965" lon="4.68213">
        <ele>299.11</ele>
        <time>2015-09-13T06:47:08Z</time>
      </trkpt>
      <trkpt lat="45.94961" lon="4.68197">
        <ele>298.63</ele>
        <time>2015-09-13T06:47:17Z</time>
      </trkpt>
      <trkpt lat="45.94957" lon="4.68172">
        <ele>297.18</ele>
        <time>2015-09-13T06:47:23Z</time>
      </trkpt>
      <trkpt lat="45.94977" lon="4.68129">
        <ele>289.49</ele>
        <time>2015-09-13T06:47:31Z</time>
      </trkpt>
      <trkpt lat="45.9499" lon="4.68101">
        <ele>285.17</ele>
        <time>2015-09-13T06:47:37Z</time>
      </trkpt>
      <trkpt lat="45.95029" lon="4.68107">
        <ele>284.21</ele>
        <time>2015-09-13T06:47:48Z</time>
      </trkpt>
      <trkpt lat="45.95041" lon="4.68101">
        <ele>282.77</ele>
        <time>2015-09-13T06:47:53Z</time>
      </trkpt>
      <trkpt lat="45.95051" lon="4.68103">
        <ele>280.36</ele>
        <time>2015-09-13T06:47:58Z</time>
      </trkpt>
      <trkpt lat="45.95063" lon="4.68098">
        <ele>277</ele>
        <time>2015-09-13T06:48:04Z</time>
      </trkpt>
      <trkpt lat="45.95087" lon="4.68111">
        <ele>280.84</ele>
        <time>2015-09-13T06:48:17Z</time>
      </trkpt>
      <trkpt lat="45.95088" lon="4.68111">
        <ele>281.32</ele>
        <time>2015-09-13T06:48:19Z</time>
      </trkpt>
      <trkpt lat="45.95095" lon="4.68091">
        <ele>281.32</ele>
        <time>2015-09-13T06:48:27Z</time>
      </trkpt>
      <trkpt lat="45.95133" lon="4.68078">
        <ele>280.84</ele>
        <time>2015-09-13T06:48:40Z</time>
      </trkpt>
      <trkpt lat="45.95172" lon="4.68081">
        <ele>280.36</ele>
        <time>2015-09-13T06:48:52Z</time>
      </trkpt>
      <trkpt lat="45.95209" lon="4.68075">
        <ele>276.52</ele>
        <time>2015-09-13T06:49:00Z</time>
      </trkpt>
      <trkpt lat="45.95214" lon="4.68023">
        <ele>271.23</ele>
        <time>2015-09-13T06:49:09Z</time>
      </trkpt>
      <trkpt lat="45.95212" lon="4.68009">
        <ele>269.31</ele>
        <time>2015-09-13T06:49:12Z</time>
      </trkpt>
      <trkpt lat="45.95169" lon="4.67976">
        <ele>264.02</ele>
        <time>2015-09-13T06:49:23Z</time>
      </trkpt>
      <trkpt lat="45.95134" lon="4.67956">
        <ele>261.62</ele>
        <time>2015-09-13T06:49:30Z</time>
      </trkpt>
      <trkpt lat="45.95088" lon="4.6795">
        <ele>257.29</ele>
        <time>2015-09-13T06:49:41Z</time>
      </trkpt>
      <trkpt lat="45.95079" lon="4.67949">
        <ele>256.81</ele>
        <time>2015-09-13T06:49:43Z</time>
      </trkpt>
      <trkpt lat="45.95074" lon="4.67948">
        <ele>256.81</ele>
        <time>2015-09-13T06:49:44Z</time>
      </trkpt>
      <trkpt lat="45.95069" lon="4.67948">
        <ele>256.33</ele>
        <time>2015-09-13T06:49:45Z</time>
      </trkpt>
      <trkpt lat="45.95065" lon="4.67949">
        <ele>255.85</ele>
        <time>2015-09-13T06:49:46Z</time>
      </trkpt>
      <trkpt lat="45.95061" lon="4.67948">
        <ele>255.85</ele>
        <time>2015-09-13T06:49:47Z</time>
      </trkpt>
      <trkpt lat="45.95058" lon="4.67948">
        <ele>255.37</ele>
        <time>2015-09-13T06:49:48Z</time>
      </trkpt>
      <trkpt lat="45.95046" lon="4.67946">
        <ele>252.96</ele>
        <time>2015-09-13T06:49:53Z</time>
      </trkpt>
      <trkpt lat="45.95044" lon="4.67946">
        <ele>252.48</ele>
        <time>2015-09-13T06:49:54Z</time>
      </trkpt>
      <trkpt lat="45.95041" lon="4.67946">
        <ele>252</ele>
        <time>2015-09-13T06:49:55Z</time>
      </trkpt>
      <trkpt lat="45.9504" lon="4.67946">
        <ele>251.04</ele>
        <time>2015-09-13T06:49:56Z</time>
      </trkpt>
      <trkpt lat="45.95038" lon="4.67945">
        <ele>250.56</ele>
        <time>2015-09-13T06:49:57Z</time>
      </trkpt>
      <trkpt lat="45.95036" lon="4.67944">
        <ele>250.56</ele>
        <time>2015-09-13T06:49:58Z</time>
      </trkpt>
      <trkpt lat="45.9501" lon="4.67936">
        <ele>245.75</ele>
        <time>2015-09-13T06:50:11Z</time>
      </trkpt>
      <trkpt lat="45.94979" lon="4.6792">
        <ele>247.68</ele>
        <time>2015-09-13T06:50:25Z</time>
      </trkpt>
      <trkpt lat="45.94973" lon="4.67918">
        <ele>248.16</ele>
        <time>2015-09-13T06:50:28Z</time>
      </trkpt>
      <trkpt lat="45.94971" lon="4.67917">
        <ele>248.16</ele>
        <time>2015-09-13T06:50:29Z</time>
      </trkpt>
      <trkpt lat="45.94941" lon="4.67906">
        <ele>252</ele>
        <time>2015-09-13T06:50:43Z</time>
      </trkpt>
      <trkpt lat="45.9491" lon="4.67899">
        <ele>258.73</ele>
        <time>2015-09-13T06:50:55Z</time>
      </trkpt>
      <trkpt lat="45.94879" lon="4.67907">
        <ele>265.46</ele>
        <time>2015-09-13T06:51:08Z</time>
      </trkpt>
      <trkpt lat="45.94854" lon="4.67913">
        <ele>268.35</ele>
        <time>2015-09-13T06:51:20Z</time>
      </trkpt>
      <trkpt lat="45.94836" lon="4.67923">
        <ele>270.27</ele>
        <time>2015-09-13T06:51:32Z</time>
      </trkpt>
      <trkpt lat="45.94831" lon="4.67926">
        <ele>270.75</ele>
        <time>2015-09-13T06:51:37Z</time>
      </trkpt>
      <trkpt lat="45.94819" lon="4.67933">
        <ele>270.27</ele>
        <time>2015-09-13T06:51:50Z</time>
      </trkpt>
      <trkpt lat="45.94814" lon="4.67933">
        <ele>270.27</ele>
        <time>2015-09-13T06:51:56Z</time>
      </trkpt>
      <trkpt lat="45.948" lon="4.67933">
        <ele>269.31</ele>
        <time>2015-09-13T06:52:05Z</time>
      </trkpt>
      <trkpt lat="45.94792" lon="4.67932">
        <ele>268.83</ele>
        <time>2015-09-13T06:52:10Z</time>
      </trkpt>
      <trkpt lat="45.94785" lon="4.67935">
        <ele>268.83</ele>
        <time>2015-09-13T06:52:14Z</time>
      </trkpt>
      <trkpt lat="45.94775" lon="4.6793">
        <ele>269.31</ele>
        <time>2015-09-13T06:52:18Z</time>
      </trkpt>
      <trkpt lat="45.94757" lon="4.67918">
        <ele>271.23</ele>
        <time>2015-09-13T06:52:24Z</time>
      </trkpt>
      <trkpt lat="45.94739" lon="4.67922">
        <ele>270.27</ele>
        <time>2015-09-13T06:52:33Z</time>
      </trkpt>
      <trkpt lat="45.94714" lon="4.67931">
        <ele>269.79</ele>
        <time>2015-09-13T06:52:46Z</time>
      </trkpt>
      <trkpt lat="45.94692" lon="4.67944">
        <ele>268.35</ele>
        <time>2015-09-13T06:52:58Z</time>
      </trkpt>
      <trkpt lat="45.94678" lon="4.67952">
        <ele>268.35</ele>
        <time>2015-09-13T06:53:08Z</time>
      </trkpt>
      <trkpt lat="45.94661" lon="4.6796">
        <ele>270.75</ele>
        <time>2015-09-13T06:53:18Z</time>
      </trkpt>
      <trkpt lat="45.94645" lon="4.67974">
        <ele>272.19</ele>
        <time>2015-09-13T06:53:29Z</time>
      </trkpt>
      <trkpt lat="45.94629" lon="4.67998">
        <ele>275.07</ele>
        <time>2015-09-13T06:53:41Z</time>
      </trkpt>
      <trkpt lat="45.9461" lon="4.6804">
        <ele>284.69</ele>
        <time>2015-09-13T06:53:54Z</time>
      </trkpt>
      <trkpt lat="45.94601" lon="4.68066">
        <ele>288.05</ele>
        <time>2015-09-13T06:54:05Z</time>
      </trkpt>
      <trkpt lat="45.94592" lon="4.68094">
        <ele>289.01</ele>
        <time>2015-09-13T06:54:17Z</time>
      </trkpt>
      <trkpt lat="45.94584" lon="4.68123">
        <ele>290.46</ele>
        <time>2015-09-13T06:54:30Z</time>
      </trkpt>
      <trkpt lat="45.94583" lon="4.68128">
        <ele>290.94</ele>
        <time>2015-09-13T06:54:32Z</time>
      </trkpt>
      <trkpt lat="45.94575" lon="4.68158">
        <ele>294.78</ele>
        <time>2015-09-13T06:54:49Z</time>
      </trkpt>
      <trkpt lat="45.94576" lon="4.68157">
        <ele>296.7</ele>
        <time>2015-09-13T06:55:12Z</time>
      </trkpt>
      <trkpt lat="45.94576" lon="4.68157">
        <ele>297.18</ele>
        <time>2015-09-13T06:55:37Z</time>
      </trkpt>
      <trkpt lat="45.94576" lon="4.68157">
        <ele>296.7</ele>
        <time>2015-09-13T06:56:06Z</time>
      </trkpt>
      <trkpt lat="45.94575" lon="4.68158">
        <ele>295.74</ele>
        <time>2015-09-13T06:56:31Z</time>
      </trkpt>
      <trkpt lat="45.94569" lon="4.68165">
        <ele>295.26</ele>
        <time>2015-09-13T06:56:36Z</time>
      </trkpt>
      <trkpt lat="45.94552" lon="4.682">
        <ele>296.7</ele>
        <time>2015-09-13T06:56:53Z</time>
      </trkpt>
      <trkpt lat="45.94527" lon="4.6825">
        <ele>298.63</ele>
        <time>2015-09-13T06:57:11Z</time>
      </trkpt>
      <trkpt lat="45.94517" lon="4.68269">
        <ele>298.63</ele>
        <time>2015-09-13T06:57:18Z</time>
      </trkpt>
      <trkpt lat="45.94504" lon="4.68266">
        <ele>299.11</ele>
        <time>2015-09-13T06:57:23Z</time>
      </trkpt>
      <trkpt lat="45.94494" lon="4.68261">
        <ele>297.67</ele>
        <time>2015-09-13T06:57:26Z</time>
      </trkpt>
      <trkpt lat="45.94434" lon="4.68231">
        <ele>294.3</ele>
        <time>2015-09-13T06:57:40Z</time>
      </trkpt>
      <trkpt lat="45.94426" lon="4.68228">
        <ele>294.3</ele>
        <time>2015-09-13T06:57:42Z</time>
      </trkpt>
      <trkpt lat="45.94422" lon="4.68227">
        <ele>294.3</ele>
        <time>2015-09-13T06:57:43Z</time>
      </trkpt>
      <trkpt lat="45.94417" lon="4.68227">
        <ele>294.3</ele>
        <time>2015-09-13T06:57:44Z</time>
      </trkpt>
      <trkpt lat="45.94413" lon="4.68227">
        <ele>294.3</ele>
        <time>2015-09-13T06:57:45Z</time>
      </trkpt>
      <trkpt lat="45.94408" lon="4.68227">
        <ele>294.3</ele>
        <time>2015-09-13T06:57:46Z</time>
      </trkpt>
      <trkpt lat="45.94353" lon="4.68233">
        <ele>291.42</ele>
        <time>2015-09-13T06:57:56Z</time>
      </trkpt>
      <trkpt lat="45.94332" lon="4.68231">
        <ele>291.42</ele>
        <time>2015-09-13T06:58:03Z</time>
      </trkpt>
      <trkpt lat="45.9433" lon="4.68229">
        <ele>291.42</ele>
        <time>2015-09-13T06:58:04Z</time>
      </trkpt>
      <trkpt lat="45.94329" lon="4.68227">
        <ele>291.42</ele>
        <time>2015-09-13T06:58:05Z</time>
      </trkpt>
      <trkpt lat="45.94323" lon="4.68187">
        <ele>289.49</ele>
        <time>2015-09-13T06:58:15Z</time>
      </trkpt>
      <trkpt lat="45.94323" lon="4.68117">
        <ele>286.13</ele>
        <time>2015-09-13T06:58:24Z</time>
      </trkpt>
      <trkpt lat="45.94325" lon="4.68109">
        <ele>285.65</ele>
        <time>2015-09-13T06:58:25Z</time>
      </trkpt>
      <trkpt lat="45.94347" lon="4.68046">
        <ele>279.4</ele>
        <time>2015-09-13T06:58:31Z</time>
      </trkpt>
      <trkpt lat="45.94357" lon="4.6802">
        <ele>276.52</ele>
        <time>2015-09-13T06:58:33Z</time>
      </trkpt>
      <trkpt lat="45.94362" lon="4.68005">
        <ele>275.07</ele>
        <time>2015-09-13T06:58:34Z</time>
      </trkpt>
      <trkpt lat="45.94366" lon="4.6799">
        <ele>273.63</ele>
        <time>2015-09-13T06:58:35Z</time>
      </trkpt>
      <trkpt lat="45.94375" lon="4.6794">
        <ele>268.83</ele>
        <time>2015-09-13T06:58:38Z</time>
      </trkpt>
      <trkpt lat="45.9438" lon="4.67925">
        <ele>267.38</ele>
        <time>2015-09-13T06:58:39Z</time>
      </trkpt>
      <trkpt lat="45.94386" lon="4.67912">
        <ele>265.94</ele>
        <time>2015-09-13T06:58:40Z</time>
      </trkpt>
      <trkpt lat="45.94413" lon="4.67851">
        <ele>260.65</ele>
        <time>2015-09-13T06:58:47Z</time>
      </trkpt>
      <trkpt lat="45.94418" lon="4.6784">
        <ele>259.21</ele>
        <time>2015-09-13T06:58:50Z</time>
      </trkpt>
      <trkpt lat="45.94417" lon="4.67837">
        <ele>259.21</ele>
        <time>2015-09-13T06:58:51Z</time>
      </trkpt>
      <trkpt lat="45.94416" lon="4.67835">
        <ele>258.73</ele>
        <time>2015-09-13T06:58:52Z</time>
      </trkpt>
      <trkpt lat="45.94415" lon="4.67834">
        <ele>258.25</ele>
        <time>2015-09-13T06:58:53Z</time>
      </trkpt>
      <trkpt lat="45.94413" lon="4.67833">
        <ele>257.77</ele>
        <time>2015-09-13T06:58:54Z</time>
      </trkpt>
      <trkpt lat="45.94398" lon="4.67829">
        <ele>252.96</ele>
        <time>2015-09-13T06:59:04Z</time>
      </trkpt>
      <trkpt lat="45.94373" lon="4.67834">
        <ele>249.12</ele>
        <time>2015-09-13T06:59:16Z</time>
      </trkpt>
      <trkpt lat="45.94344" lon="4.67838">
        <ele>245.27</ele>
        <time>2015-09-13T06:59:28Z</time>
      </trkpt>
      <trkpt lat="45.94313" lon="4.67847">
        <ele>248.64</ele>
        <time>2015-09-13T06:59:40Z</time>
      </trkpt>
      <trkpt lat="45.94307" lon="4.6785">
        <ele>252.96</ele>
        <time>2015-09-13T06:59:53Z</time>
      </trkpt>
      <trkpt lat="45.94305" lon="4.67849">
        <ele>253.44</ele>
        <time>2015-09-13T07:00:00Z</time>
      </trkpt>
      <trkpt lat="45.94301" lon="4.67848">
        <ele>252.48</ele>
        <time>2015-09-13T07:00:06Z</time>
      </trkpt>
      <trkpt lat="45.94298" lon="4.67849">
        <ele>252</ele>
        <time>2015-09-13T07:00:09Z</time>
      </trkpt>
      <trkpt lat="45.94293" lon="4.67851">
        <ele>251.52</ele>
        <time>2015-09-13T07:00:14Z</time>
      </trkpt>
      <trkpt lat="45.94284" lon="4.67853">
        <ele>251.52</ele>
        <time>2015-09-13T07:00:18Z</time>
      </trkpt>
      <trkpt lat="45.94275" lon="4.67855">
        <ele>252</ele>
        <time>2015-09-13T07:00:22Z</time>
      </trkpt>
      <trkpt lat="45.94269" lon="4.67855">
        <ele>252</ele>
        <time>2015-09-13T07:00:25Z</time>
      </trkpt>
      <trkpt lat="45.94254" lon="4.67859">
        <ele>253.93</ele>
        <time>2015-09-13T07:00:33Z</time>
      </trkpt>
      <trkpt lat="45.94232" lon="4.67856">
        <ele>256.81</ele>
        <time>2015-09-13T07:00:44Z</time>
      </trkpt>
      <trkpt lat="45.94213" lon="4.67854">
        <ele>259.21</ele>
        <time>2015-09-13T07:00:53Z</time>
      </trkpt>
      <trkpt lat="45.94185" lon="4.67858">
        <ele>261.62</ele>
        <time>2015-09-13T07:01:03Z</time>
      </trkpt>
      <trkpt lat="45.94174" lon="4.67858">
        <ele>263.54</ele>
        <time>2015-09-13T07:01:07Z</time>
      </trkpt>
      <trkpt lat="45.94152" lon="4.67857">
        <ele>265.94</ele>
        <time>2015-09-13T07:01:15Z</time>
      </trkpt>
      <trkpt lat="45.9414" lon="4.67848">
        <ele>270.27</ele>
        <time>2015-09-13T07:01:28Z</time>
      </trkpt>
      <trkpt lat="45.94141" lon="4.67837">
        <ele>270.75</ele>
        <time>2015-09-13T07:01:34Z</time>
      </trkpt>
      <trkpt lat="45.94142" lon="4.67813">
        <ele>273.15</ele>
        <time>2015-09-13T07:01:46Z</time>
      </trkpt>
      <trkpt lat="45.94145" lon="4.67784">
        <ele>272.67</ele>
        <time>2015-09-13T07:02:00Z</time>
      </trkpt>
      <trkpt lat="45.94146" lon="4.67777">
        <ele>272.67</ele>
        <time>2015-09-13T07:02:04Z</time>
      </trkpt>
      <trkpt lat="45.94142" lon="4.67756">
        <ele>276.04</ele>
        <time>2015-09-13T07:02:15Z</time>
      </trkpt>
      <trkpt lat="45.94146" lon="4.67731">
        <ele>280.36</ele>
        <time>2015-09-13T07:02:30Z</time>
      </trkpt>
      <trkpt lat="45.94147" lon="4.67703">
        <ele>282.77</ele>
        <time>2015-09-13T07:02:43Z</time>
      </trkpt>
      <trkpt lat="45.94147" lon="4.67689">
        <ele>285.17</ele>
        <time>2015-09-13T07:02:50Z</time>
      </trkpt>
      <trkpt lat="45.94145" lon="4.67658">
        <ele>288.05</ele>
        <time>2015-09-13T07:03:04Z</time>
      </trkpt>
      <trkpt lat="45.94143" lon="4.6765">
        <ele>287.57</ele>
        <time>2015-09-13T07:03:08Z</time>
      </trkpt>
      <trkpt lat="45.94138" lon="4.67629">
        <ele>286.61</ele>
        <time>2015-09-13T07:03:19Z</time>
      </trkpt>
      <trkpt lat="45.94138" lon="4.67614">
        <ele>287.57</ele>
        <time>2015-09-13T07:03:24Z</time>
      </trkpt>
      <trkpt lat="45.94136" lon="4.67593">
        <ele>289.01</ele>
        <time>2015-09-13T07:03:34Z</time>
      </trkpt>
      <trkpt lat="45.94136" lon="4.67575">
        <ele>289.97</ele>
        <time>2015-09-13T07:03:41Z</time>
      </trkpt>
      <trkpt lat="45.9413" lon="4.67574">
        <ele>291.42</ele>
        <time>2015-09-13T07:03:45Z</time>
      </trkpt>
      <trkpt lat="45.94108" lon="4.67591">
        <ele>287.09</ele>
        <time>2015-09-13T07:03:57Z</time>
      </trkpt>
      <trkpt lat="45.94072" lon="4.67609">
        <ele>286.13</ele>
        <time>2015-09-13T07:04:10Z</time>
      </trkpt>
      <trkpt lat="45.94035" lon="4.67622">
        <ele>287.09</ele>
        <time>2015-09-13T07:04:22Z</time>
      </trkpt>
      <trkpt lat="45.93985" lon="4.67629">
        <ele>288.05</ele>
        <time>2015-09-13T07:04:37Z</time>
      </trkpt>
      <trkpt lat="45.93929" lon="4.6764">
        <ele>287.57</ele>
        <time>2015-09-13T07:04:53Z</time>
      </trkpt>
      <trkpt lat="45.93884" lon="4.67651">
        <ele>287.09</ele>
        <time>2015-09-13T07:05:06Z</time>
      </trkpt>
      <trkpt lat="45.93839" lon="4.67661">
        <ele>284.69</ele>
        <time>2015-09-13T07:05:19Z</time>
      </trkpt>
      <trkpt lat="45.93795" lon="4.67679">
        <ele>283.73</ele>
        <time>2015-09-13T07:05:31Z</time>
      </trkpt>
      <trkpt lat="45.93778" lon="4.6768">
        <ele>283.25</ele>
        <time>2015-09-13T07:05:35Z</time>
      </trkpt>
      <trkpt lat="45.93765" lon="4.67685">
        <ele>282.77</ele>
        <time>2015-09-13T07:05:38Z</time>
      </trkpt>
      <trkpt lat="45.93761" lon="4.67687">
        <ele>282.77</ele>
        <time>2015-09-13T07:05:39Z</time>
      </trkpt>
      <trkpt lat="45.93752" lon="4.67692">
        <ele>282.77</ele>
        <time>2015-09-13T07:05:41Z</time>
      </trkpt>
      <trkpt lat="45.93748" lon="4.67695">
        <ele>282.77</ele>
        <time>2015-09-13T07:05:42Z</time>
      </trkpt>
      <trkpt lat="45.93724" lon="4.67709">
        <ele>281.32</ele>
        <time>2015-09-13T07:05:47Z</time>
      </trkpt>
      <trkpt lat="45.93719" lon="4.67713">
        <ele>280.84</ele>
        <time>2015-09-13T07:05:48Z</time>
      </trkpt>
      <trkpt lat="45.93713" lon="4.67717">
        <ele>280.84</ele>
        <time>2015-09-13T07:05:49Z</time>
      </trkpt>
      <trkpt lat="45.93686" lon="4.67736">
        <ele>278.44</ele>
        <time>2015-09-13T07:05:54Z</time>
      </trkpt>
      <trkpt lat="45.93649" lon="4.67749">
        <ele>277.48</ele>
        <time>2015-09-13T07:06:02Z</time>
      </trkpt>
      <trkpt lat="45.93626" lon="4.67723">
        <ele>276.52</ele>
        <time>2015-09-13T07:06:12Z</time>
      </trkpt>
      <trkpt lat="45.93594" lon="4.67722">
        <ele>278.92</ele>
        <time>2015-09-13T07:06:23Z</time>
      </trkpt>
      <trkpt lat="45.93561" lon="4.67716">
        <ele>280.84</ele>
        <time>2015-09-13T07:06:33Z</time>
      </trkpt>
      <trkpt lat="45.93525" lon="4.67692">
        <ele>283.25</ele>
        <time>2015-09-13T07:06:45Z</time>
      </trkpt>
      <trkpt lat="45.93491" lon="4.67673">
        <ele>283.25</ele>
        <time>2015-09-13T07:06:56Z</time>
      </trkpt>
      <trkpt lat="45.93459" lon="4.67657">
        <ele>283.25</ele>
        <time>2015-09-13T07:07:06Z</time>
      </trkpt>
      <trkpt lat="45.93424" lon="4.67638">
        <ele>282.28</ele>
        <time>2015-09-13T07:07:18Z</time>
      </trkpt>
      <trkpt lat="45.9339" lon="4.67617">
        <ele>281.32</ele>
        <time>2015-09-13T07:07:30Z</time>
      </trkpt>
      <trkpt lat="45.93373" lon="4.67595">
        <ele>280.84</ele>
        <time>2015-09-13T07:07:38Z</time>
      </trkpt>
      <trkpt lat="45.9337" lon="4.67594">
        <ele>280.84</ele>
        <time>2015-09-13T07:07:39Z</time>
      </trkpt>
      <trkpt lat="45.93368" lon="4.67594">
        <ele>281.32</ele>
        <time>2015-09-13T07:07:40Z</time>
      </trkpt>
      <trkpt lat="45.93365" lon="4.67592">
        <ele>281.32</ele>
        <time>2015-09-13T07:07:41Z</time>
      </trkpt>
      <trkpt lat="45.93363" lon="4.6759">
        <ele>281.32</ele>
        <time>2015-09-13T07:07:42Z</time>
      </trkpt>
      <trkpt lat="45.9334" lon="4.67576">
        <ele>278.92</ele>
        <time>2015-09-13T07:07:53Z</time>
      </trkpt>
      <trkpt lat="45.93317" lon="4.67562">
        <ele>274.59</ele>
        <time>2015-09-13T07:08:05Z</time>
      </trkpt>
      <trkpt lat="45.93293" lon="4.67547">
        <ele>273.63</ele>
        <time>2015-09-13T07:08:17Z</time>
      </trkpt>
      <trkpt lat="45.93253" lon="4.6753">
        <ele>281.32</ele>
        <time>2015-09-13T07:08:29Z</time>
      </trkpt>
      <trkpt lat="45.93214" lon="4.67512">
        <ele>284.21</ele>
        <time>2015-09-13T07:08:42Z</time>
      </trkpt>
      <trkpt lat="45.93178" lon="4.67501">
        <ele>284.69</ele>
        <time>2015-09-13T07:08:54Z</time>
      </trkpt>
      <trkpt lat="45.93148" lon="4.67491">
        <ele>287.09</ele>
        <time>2015-09-13T07:09:04Z</time>
      </trkpt>
      <trkpt lat="45.93121" lon="4.67486">
        <ele>289.49</ele>
        <time>2015-09-13T07:09:16Z</time>
      </trkpt>
      <trkpt lat="45.9312" lon="4.67484">
        <ele>289.97</ele>
        <time>2015-09-13T07:09:17Z</time>
      </trkpt>
      <trkpt lat="45.93119" lon="4.67482">
        <ele>290.46</ele>
        <time>2015-09-13T07:09:18Z</time>
      </trkpt>
      <trkpt lat="45.93118" lon="4.67481">
        <ele>290.46</ele>
        <time>2015-09-13T07:09:19Z</time>
      </trkpt>
      <trkpt lat="45.93116" lon="4.6748">
        <ele>290.94</ele>
        <time>2015-09-13T07:09:20Z</time>
      </trkpt>
      <trkpt lat="45.93115" lon="4.6748">
        <ele>290.94</ele>
        <time>2015-09-13T07:09:21Z</time>
      </trkpt>
      <trkpt lat="45.93113" lon="4.67478">
        <ele>290.94</ele>
        <time>2015-09-13T07:09:22Z</time>
      </trkpt>
      <trkpt lat="45.93112" lon="4.67477">
        <ele>290.94</ele>
        <time>2015-09-13T07:09:23Z</time>
      </trkpt>
      <trkpt lat="45.9311" lon="4.67476">
        <ele>291.42</ele>
        <time>2015-09-13T07:09:24Z</time>
      </trkpt>
      <trkpt lat="45.93109" lon="4.67475">
        <ele>291.42</ele>
        <time>2015-09-13T07:09:25Z</time>
      </trkpt>
      <trkpt lat="45.93108" lon="4.67473">
        <ele>291.42</ele>
        <time>2015-09-13T07:09:26Z</time>
      </trkpt>
      <trkpt lat="45.93106" lon="4.67472">
        <ele>291.42</ele>
        <time>2015-09-13T07:09:27Z</time>
      </trkpt>
      <trkpt lat="45.93105" lon="4.6747">
        <ele>291.42</ele>
        <time>2015-09-13T07:09:28Z</time>
      </trkpt>
      <trkpt lat="45.93089" lon="4.67449">
        <ele>293.82</ele>
        <time>2015-09-13T07:09:41Z</time>
      </trkpt>
      <trkpt lat="45.93084" lon="4.6744">
        <ele>294.78</ele>
        <time>2015-09-13T07:09:46Z</time>
      </trkpt>
      <trkpt lat="45.93083" lon="4.67438">
        <ele>295.26</ele>
        <time>2015-09-13T07:09:47Z</time>
      </trkpt>
      <trkpt lat="45.93083" lon="4.67437">
        <ele>295.26</ele>
        <time>2015-09-13T07:09:48Z</time>
      </trkpt>
      <trkpt lat="45.93082" lon="4.67436">
        <ele>295.26</ele>
        <time>2015-09-13T07:09:49Z</time>
      </trkpt>
      <trkpt lat="45.93081" lon="4.67434">
        <ele>295.74</ele>
        <time>2015-09-13T07:09:50Z</time>
      </trkpt>
      <trkpt lat="45.93067" lon="4.67409">
        <ele>299.11</ele>
        <time>2015-09-13T07:10:05Z</time>
      </trkpt>
      <trkpt lat="45.93064" lon="4.67403">
        <ele>299.11</ele>
        <time>2015-09-13T07:10:09Z</time>
      </trkpt>
      <trkpt lat="45.93062" lon="4.67402">
        <ele>299.59</ele>
        <time>2015-09-13T07:10:10Z</time>
      </trkpt>
      <trkpt lat="45.93061" lon="4.67401">
        <ele>299.59</ele>
        <time>2015-09-13T07:10:11Z</time>
      </trkpt>
      <trkpt lat="45.9306" lon="4.67399">
        <ele>300.07</ele>
        <time>2015-09-13T07:10:12Z</time>
      </trkpt>
      <trkpt lat="45.93059" lon="4.67397">
        <ele>300.07</ele>
        <time>2015-09-13T07:10:13Z</time>
      </trkpt>
      <trkpt lat="45.93058" lon="4.67396">
        <ele>300.55</ele>
        <time>2015-09-13T07:10:14Z</time>
      </trkpt>
      <trkpt lat="45.93057" lon="4.67395">
        <ele>301.03</ele>
        <time>2015-09-13T07:10:15Z</time>
      </trkpt>
      <trkpt lat="45.93052" lon="4.67387">
        <ele>301.51</ele>
        <time>2015-09-13T07:10:20Z</time>
      </trkpt>
      <trkpt lat="45.93037" lon="4.67375">
        <ele>302.95</ele>
        <time>2015-09-13T07:10:32Z</time>
      </trkpt>
      <trkpt lat="45.9303" lon="4.67369">
        <ele>303.43</ele>
        <time>2015-09-13T07:10:38Z</time>
      </trkpt>
      <trkpt lat="45.93029" lon="4.67368">
        <ele>303.91</ele>
        <time>2015-09-13T07:10:39Z</time>
      </trkpt>
      <trkpt lat="45.93027" lon="4.67367">
        <ele>303.91</ele>
        <time>2015-09-13T07:10:40Z</time>
      </trkpt>
      <trkpt lat="45.93026" lon="4.67366">
        <ele>303.91</ele>
        <time>2015-09-13T07:10:41Z</time>
      </trkpt>
      <trkpt lat="45.93025" lon="4.67365">
        <ele>303.91</ele>
        <time>2015-09-13T07:10:42Z</time>
      </trkpt>
      <trkpt lat="45.93024" lon="4.67364">
        <ele>303.91</ele>
        <time>2015-09-13T07:10:43Z</time>
      </trkpt>
      <trkpt lat="45.93023" lon="4.67363">
        <ele>303.91</ele>
        <time>2015-09-13T07:10:44Z</time>
      </trkpt>
      <trkpt lat="45.93019" lon="4.6736">
        <ele>303.91</ele>
        <time>2015-09-13T07:10:47Z</time>
      </trkpt>
      <trkpt lat="45.93018" lon="4.67359">
        <ele>304.39</ele>
        <time>2015-09-13T07:10:48Z</time>
      </trkpt>
      <trkpt lat="45.93017" lon="4.67359">
        <ele>304.39</ele>
        <time>2015-09-13T07:10:49Z</time>
      </trkpt>
      <trkpt lat="45.93015" lon="4.67358">
        <ele>304.88</ele>
        <time>2015-09-13T07:10:50Z</time>
      </trkpt>
      <trkpt lat="45.93014" lon="4.67357">
        <ele>304.88</ele>
        <time>2015-09-13T07:10:51Z</time>
      </trkpt>
      <trkpt lat="45.93012" lon="4.67356">
        <ele>304.88</ele>
        <time>2015-09-13T07:10:52Z</time>
      </trkpt>
      <trkpt lat="45.92993" lon="4.67345">
        <ele>306.8</ele>
        <time>2015-09-13T07:11:07Z</time>
      </trkpt>
      <trkpt lat="45.92976" lon="4.67334">
        <ele>308.24</ele>
        <time>2015-09-13T07:11:21Z</time>
      </trkpt>
      <trkpt lat="45.92967" lon="4.67328">
        <ele>308.24</ele>
        <time>2015-09-13T07:11:29Z</time>
      </trkpt>
      <trkpt lat="45.92966" lon="4.67327">
        <ele>308.72</ele>
        <time>2015-09-13T07:11:30Z</time>
      </trkpt>
      <trkpt lat="45.92965" lon="4.67326">
        <ele>308.72</ele>
        <time>2015-09-13T07:11:31Z</time>
      </trkpt>
      <trkpt lat="45.92944" lon="4.67307">
        <ele>311.6</ele>
        <time>2015-09-13T07:11:48Z</time>
      </trkpt>
      <trkpt lat="45.92937" lon="4.67293">
        <ele>313.05</ele>
        <time>2015-09-13T07:11:56Z</time>
      </trkpt>
      <trkpt lat="45.92936" lon="4.67291">
        <ele>313.05</ele>
        <time>2015-09-13T07:11:57Z</time>
      </trkpt>
      <trkpt lat="45.92935" lon="4.6729">
        <ele>313.53</ele>
        <time>2015-09-13T07:11:58Z</time>
      </trkpt>
      <trkpt lat="45.92934" lon="4.67288">
        <ele>313.53</ele>
        <time>2015-09-13T07:11:59Z</time>
      </trkpt>
      <trkpt lat="45.92933" lon="4.67286">
        <ele>313.53</ele>
        <time>2015-09-13T07:12:00Z</time>
      </trkpt>
      <trkpt lat="45.92933" lon="4.67284">
        <ele>313.53</ele>
        <time>2015-09-13T07:12:01Z</time>
      </trkpt>
      <trkpt lat="45.92932" lon="4.67282">
        <ele>314.01</ele>
        <time>2015-09-13T07:12:02Z</time>
      </trkpt>
      <trkpt lat="45.92926" lon="4.67256">
        <ele>315.93</ele>
        <time>2015-09-13T07:12:16Z</time>
      </trkpt>
      <trkpt lat="45.92929" lon="4.67229">
        <ele>317.85</ele>
        <time>2015-09-13T07:12:30Z</time>
      </trkpt>
      <trkpt lat="45.92935" lon="4.672">
        <ele>320.26</ele>
        <time>2015-09-13T07:12:45Z</time>
      </trkpt>
      <trkpt lat="45.92934" lon="4.67172">
        <ele>324.1</ele>
        <time>2015-09-13T07:12:59Z</time>
      </trkpt>
      <trkpt lat="45.92934" lon="4.67137">
        <ele>325.54</ele>
        <time>2015-09-13T07:13:16Z</time>
      </trkpt>
      <trkpt lat="45.92938" lon="4.67099">
        <ele>326.99</ele>
        <time>2015-09-13T07:13:33Z</time>
      </trkpt>
      <trkpt lat="45.92947" lon="4.67058">
        <ele>328.91</ele>
        <time>2015-09-13T07:13:50Z</time>
      </trkpt>
      <trkpt lat="45.92955" lon="4.6701">
        <ele>329.87</ele>
        <time>2015-09-13T07:14:08Z</time>
      </trkpt>
      <trkpt lat="45.92957" lon="4.66985">
        <ele>330.83</ele>
        <time>2015-09-13T07:14:16Z</time>
      </trkpt>
      <trkpt lat="45.92956" lon="4.66982">
        <ele>330.83</ele>
        <time>2015-09-13T07:14:17Z</time>
      </trkpt>
      <trkpt lat="45.92956" lon="4.66979">
        <ele>330.83</ele>
        <time>2015-09-13T07:14:18Z</time>
      </trkpt>
      <trkpt lat="45.92955" lon="4.66976">
        <ele>330.83</ele>
        <time>2015-09-13T07:14:19Z</time>
      </trkpt>
      <trkpt lat="45.92954" lon="4.66973">
        <ele>331.31</ele>
        <time>2015-09-13T07:14:20Z</time>
      </trkpt>
      <trkpt lat="45.92944" lon="4.6695">
        <ele>331.31</ele>
        <time>2015-09-13T07:14:29Z</time>
      </trkpt>
      <trkpt lat="45.92933" lon="4.66921">
        <ele>333.23</ele>
        <time>2015-09-13T07:14:39Z</time>
      </trkpt>
      <trkpt lat="45.92932" lon="4.66919">
        <ele>333.23</ele>
        <time>2015-09-13T07:14:40Z</time>
      </trkpt>
      <trkpt lat="45.9292" lon="4.6689">
        <ele>334.2</ele>
        <time>2015-09-13T07:14:50Z</time>
      </trkpt>
      <trkpt lat="45.929" lon="4.66851">
        <ele>332.75</ele>
        <time>2015-09-13T07:15:03Z</time>
      </trkpt>
      <trkpt lat="45.92874" lon="4.6682">
        <ele>330.35</ele>
        <time>2015-09-13T07:15:15Z</time>
      </trkpt>
      <trkpt lat="45.92856" lon="4.66804">
        <ele>327.95</ele>
        <time>2015-09-13T07:15:23Z</time>
      </trkpt>
      <trkpt lat="45.92853" lon="4.66802">
        <ele>327.47</ele>
        <time>2015-09-13T07:15:24Z</time>
      </trkpt>
      <trkpt lat="45.92832" lon="4.6679">
        <ele>324.58</ele>
        <time>2015-09-13T07:15:32Z</time>
      </trkpt>
      <trkpt lat="45.92831" lon="4.66787">
        <ele>324.1</ele>
        <time>2015-09-13T07:15:33Z</time>
      </trkpt>
      <trkpt lat="45.92833" lon="4.66773">
        <ele>322.18</ele>
        <time>2015-09-13T07:15:38Z</time>
      </trkpt>
      <trkpt lat="45.92834" lon="4.66756">
        <ele>321.7</ele>
        <time>2015-09-13T07:15:44Z</time>
      </trkpt>
      <trkpt lat="45.9284" lon="4.66732">
        <ele>323.14</ele>
        <time>2015-09-13T07:15:49Z</time>
      </trkpt>
      <trkpt lat="45.92851" lon="4.66682">
        <ele>326.5</ele>
        <time>2015-09-13T07:15:59Z</time>
      </trkpt>
      <trkpt lat="45.92851" lon="4.66665">
        <ele>326.5</ele>
        <time>2015-09-13T07:16:02Z</time>
      </trkpt>
      <trkpt lat="45.92851" lon="4.66639">
        <ele>326.99</ele>
        <time>2015-09-13T07:16:06Z</time>
      </trkpt>
      <trkpt lat="45.92854" lon="4.66609">
        <ele>327.47</ele>
        <time>2015-09-13T07:16:10Z</time>
      </trkpt>
      <trkpt lat="45.92864" lon="4.66568">
        <ele>328.43</ele>
        <time>2015-09-13T07:16:15Z</time>
      </trkpt>
      <trkpt lat="45.92907" lon="4.66466">
        <ele>326.99</ele>
        <time>2015-09-13T07:16:28Z</time>
      </trkpt>
      <trkpt lat="45.92903" lon="4.66445">
        <ele>326.5</ele>
        <time>2015-09-13T07:16:33Z</time>
      </trkpt>
      <trkpt lat="45.92917" lon="4.66421">
        <ele>324.1</ele>
        <time>2015-09-13T07:16:42Z</time>
      </trkpt>
      <trkpt lat="45.92923" lon="4.6637">
        <ele>318.81</ele>
        <time>2015-09-13T07:16:52Z</time>
      </trkpt>
      <trkpt lat="45.92923" lon="4.66363">
        <ele>317.85</ele>
        <time>2015-09-13T07:16:53Z</time>
      </trkpt>
      <trkpt lat="45.92921" lon="4.66344">
        <ele>315.45</ele>
        <time>2015-09-13T07:16:57Z</time>
      </trkpt>
      <trkpt lat="45.92923" lon="4.66291">
        <ele>310.16</ele>
        <time>2015-09-13T07:17:07Z</time>
      </trkpt>
      <trkpt lat="45.92924" lon="4.66244">
        <ele>306.8</ele>
        <time>2015-09-13T07:17:16Z</time>
      </trkpt>
      <trkpt lat="45.92924" lon="4.66222">
        <ele>305.84</ele>
        <time>2015-09-13T07:17:20Z</time>
      </trkpt>
      <trkpt lat="45.92933" lon="4.66201">
        <ele>303.91</ele>
        <time>2015-09-13T07:17:24Z</time>
      </trkpt>
      <trkpt lat="45.92951" lon="4.66172">
        <ele>304.39</ele>
        <time>2015-09-13T07:17:31Z</time>
      </trkpt>
      <trkpt lat="45.92957" lon="4.66169">
        <ele>304.88</ele>
        <time>2015-09-13T07:17:33Z</time>
      </trkpt>
      <trkpt lat="45.92973" lon="4.66141">
        <ele>304.39</ele>
        <time>2015-09-13T07:17:41Z</time>
      </trkpt>
      <trkpt lat="45.92983" lon="4.66139">
        <ele>304.88</ele>
        <time>2015-09-13T07:17:44Z</time>
      </trkpt>
      <trkpt lat="45.92994" lon="4.66145">
        <ele>306.8</ele>
        <time>2015-09-13T07:17:47Z</time>
      </trkpt>
      <trkpt lat="45.93001" lon="4.66151">
        <ele>307.28</ele>
        <time>2015-09-13T07:17:49Z</time>
      </trkpt>
      <trkpt lat="45.93016" lon="4.66167">
        <ele>308.24</ele>
        <time>2015-09-13T07:17:54Z</time>
      </trkpt>
      <trkpt lat="45.93026" lon="4.66179">
        <ele>309.2</ele>
        <time>2015-09-13T07:17:57Z</time>
      </trkpt>
      <trkpt lat="45.93029" lon="4.66184">
        <ele>309.2</ele>
        <time>2015-09-13T07:17:58Z</time>
      </trkpt>
      <trkpt lat="45.9303" lon="4.66189">
        <ele>309.2</ele>
        <time>2015-09-13T07:17:59Z</time>
      </trkpt>
      <trkpt lat="45.93033" lon="4.66197">
        <ele>309.2</ele>
        <time>2015-09-13T07:18:01Z</time>
      </trkpt>
      <trkpt lat="45.93044" lon="4.66189">
        <ele>308.72</ele>
        <time>2015-09-13T07:18:05Z</time>
      </trkpt>
      <trkpt lat="45.93048" lon="4.66186">
        <ele>308.72</ele>
        <time>2015-09-13T07:18:06Z</time>
      </trkpt>
      <trkpt lat="45.93053" lon="4.66182">
        <ele>308.24</ele>
        <time>2015-09-13T07:18:07Z</time>
      </trkpt>
      <trkpt lat="45.93056" lon="4.66178">
        <ele>307.76</ele>
        <time>2015-09-13T07:18:08Z</time>
      </trkpt>
      <trkpt lat="45.9306" lon="4.66174">
        <ele>307.76</ele>
        <time>2015-09-13T07:18:09Z</time>
      </trkpt>
      <trkpt lat="45.93063" lon="4.66169">
        <ele>307.28</ele>
        <time>2015-09-13T07:18:10Z</time>
      </trkpt>
      <trkpt lat="45.93065" lon="4.66165">
        <ele>306.8</ele>
        <time>2015-09-13T07:18:11Z</time>
      </trkpt>
      <trkpt lat="45.93067" lon="4.66161">
        <ele>306.32</ele>
        <time>2015-09-13T07:18:12Z</time>
      </trkpt>
      <trkpt lat="45.93075" lon="4.66138">
        <ele>306.32</ele>
        <time>2015-09-13T07:18:17Z</time>
      </trkpt>
      <trkpt lat="45.93087" lon="4.6613">
        <ele>307.28</ele>
        <time>2015-09-13T07:18:20Z</time>
      </trkpt>
      <trkpt lat="45.93108" lon="4.66125">
        <ele>308.24</ele>
        <time>2015-09-13T07:18:25Z</time>
      </trkpt>
      <trkpt lat="45.9318" lon="4.66129">
        <ele>308.72</ele>
        <time>2015-09-13T07:18:38Z</time>
      </trkpt>
      <trkpt lat="45.93198" lon="4.6612">
        <ele>308.24</ele>
        <time>2015-09-13T07:18:42Z</time>
      </trkpt>
      <trkpt lat="45.93207" lon="4.66105">
        <ele>307.76</ele>
        <time>2015-09-13T07:18:46Z</time>
      </trkpt>
      <trkpt lat="45.93213" lon="4.66104">
        <ele>307.28</ele>
        <time>2015-09-13T07:18:48Z</time>
      </trkpt>
      <trkpt lat="45.93242" lon="4.66099">
        <ele>305.36</ele>
        <time>2015-09-13T07:18:55Z</time>
      </trkpt>
      <trkpt lat="45.93251" lon="4.66101">
        <ele>304.88</ele>
        <time>2015-09-13T07:18:57Z</time>
      </trkpt>
      <trkpt lat="45.93261" lon="4.66102">
        <ele>304.88</ele>
        <time>2015-09-13T07:18:59Z</time>
      </trkpt>
      <trkpt lat="45.93283" lon="4.6609">
        <ele>304.88</ele>
        <time>2015-09-13T07:19:03Z</time>
      </trkpt>
      <trkpt lat="45.93337" lon="4.66063">
        <ele>304.39</ele>
        <time>2015-09-13T07:19:16Z</time>
      </trkpt>
      <trkpt lat="45.93347" lon="4.66058">
        <ele>303.43</ele>
        <time>2015-09-13T07:19:18Z</time>
      </trkpt>
      <trkpt lat="45.93392" lon="4.66027">
        <ele>302.47</ele>
        <time>2015-09-13T07:19:28Z</time>
      </trkpt>
      <trkpt lat="45.93439" lon="4.65992">
        <ele>300.55</ele>
        <time>2015-09-13T07:19:38Z</time>
      </trkpt>
      <trkpt lat="45.93445" lon="4.65974">
        <ele>300.07</ele>
        <time>2015-09-13T07:19:43Z</time>
      </trkpt>
      <trkpt lat="45.93443" lon="4.65965">
        <ele>299.59</ele>
        <time>2015-09-13T07:19:45Z</time>
      </trkpt>
      <trkpt lat="45.93441" lon="4.65955">
        <ele>299.59</ele>
        <time>2015-09-13T07:19:48Z</time>
      </trkpt>
      <trkpt lat="45.93447" lon="4.65922">
        <ele>297.67</ele>
        <time>2015-09-13T07:19:52Z</time>
      </trkpt>
      <trkpt lat="45.93455" lon="4.6586">
        <ele>300.55</ele>
        <time>2015-09-13T07:20:05Z</time>
      </trkpt>
      <trkpt lat="45.9346" lon="4.65809">
        <ele>302.47</ele>
        <time>2015-09-13T07:20:20Z</time>
      </trkpt>
      <trkpt lat="45.93463" lon="4.65754">
        <ele>306.32</ele>
        <time>2015-09-13T07:20:35Z</time>
      </trkpt>
      <trkpt lat="45.93469" lon="4.65697">
        <ele>305.36</ele>
        <time>2015-09-13T07:20:50Z</time>
      </trkpt>
      <trkpt lat="45.93479" lon="4.65651">
        <ele>305.84</ele>
        <time>2015-09-13T07:21:04Z</time>
      </trkpt>
      <trkpt lat="45.93484" lon="4.65613">
        <ele>306.8</ele>
        <time>2015-09-13T07:21:15Z</time>
      </trkpt>
      <trkpt lat="45.93486" lon="4.65603">
        <ele>307.76</ele>
        <time>2015-09-13T07:21:19Z</time>
      </trkpt>
      <trkpt lat="45.93487" lon="4.65591">
        <ele>307.28</ele>
        <time>2015-09-13T07:21:23Z</time>
      </trkpt>
      <trkpt lat="45.9348" lon="4.65518">
        <ele>306.8</ele>
        <time>2015-09-13T07:21:38Z</time>
      </trkpt>
      <trkpt lat="45.93477" lon="4.65503">
        <ele>307.28</ele>
        <time>2015-09-13T07:21:41Z</time>
      </trkpt>
      <trkpt lat="45.93478" lon="4.6549">
        <ele>306.8</ele>
        <time>2015-09-13T07:21:45Z</time>
      </trkpt>
      <trkpt lat="45.93481" lon="4.65439">
        <ele>305.84</ele>
        <time>2015-09-13T07:21:56Z</time>
      </trkpt>
      <trkpt lat="45.93482" lon="4.65422">
        <ele>305.84</ele>
        <time>2015-09-13T07:21:59Z</time>
      </trkpt>
      <trkpt lat="45.93477" lon="4.65344">
        <ele>306.8</ele>
        <time>2015-09-13T07:22:13Z</time>
      </trkpt>
      <trkpt lat="45.93475" lon="4.65278">
        <ele>308.24</ele>
        <time>2015-09-13T07:22:26Z</time>
      </trkpt>
      <trkpt lat="45.93472" lon="4.65207">
        <ele>307.28</ele>
        <time>2015-09-13T07:22:39Z</time>
      </trkpt>
      <trkpt lat="45.93463" lon="4.65139">
        <ele>305.84</ele>
        <time>2015-09-13T07:22:52Z</time>
      </trkpt>
      <trkpt lat="45.93451" lon="4.65087">
        <ele>305.36</ele>
        <time>2015-09-13T07:23:03Z</time>
      </trkpt>
      <trkpt lat="45.93438" lon="4.65036">
        <ele>305.36</ele>
        <time>2015-09-13T07:23:13Z</time>
      </trkpt>
      <trkpt lat="45.9344" lon="4.6502">
        <ele>305.84</ele>
        <time>2015-09-13T07:23:19Z</time>
      </trkpt>
      <trkpt lat="45.93427" lon="4.64977">
        <ele>305.84</ele>
        <time>2015-09-13T07:23:26Z</time>
      </trkpt>
      <trkpt lat="45.93403" lon="4.64899">
        <ele>306.32</ele>
        <time>2015-09-13T07:23:38Z</time>
      </trkpt>
      <trkpt lat="45.93394" lon="4.64863">
        <ele>305.84</ele>
        <time>2015-09-13T07:23:42Z</time>
      </trkpt>
      <trkpt lat="45.93385" lon="4.64793">
        <ele>306.32</ele>
        <time>2015-09-13T07:23:49Z</time>
      </trkpt>
      <trkpt lat="45.93379" lon="4.64761">
        <ele>306.8</ele>
        <time>2015-09-13T07:23:52Z</time>
      </trkpt>
      <trkpt lat="45.93373" lon="4.64733">
        <ele>306.8</ele>
        <time>2015-09-13T07:23:55Z</time>
      </trkpt>
      <trkpt lat="45.9337" lon="4.64695">
        <ele>307.28</ele>
        <time>2015-09-13T07:23:59Z</time>
      </trkpt>
      <trkpt lat="45.93365" lon="4.64657">
        <ele>307.28</ele>
        <time>2015-09-13T07:24:03Z</time>
      </trkpt>
      <trkpt lat="45.9334" lon="4.64567">
        <ele>303.43</ele>
        <time>2015-09-13T07:24:13Z</time>
      </trkpt>
      <trkpt lat="45.93296" lon="4.64522">
        <ele>299.59</ele>
        <time>2015-09-13T07:24:22Z</time>
      </trkpt>
      <trkpt lat="45.93278" lon="4.64502">
        <ele>298.15</ele>
        <time>2015-09-13T07:24:28Z</time>
      </trkpt>
      <trkpt lat="45.93263" lon="4.64491">
        <ele>297.18</ele>
        <time>2015-09-13T07:24:33Z</time>
      </trkpt>
      <trkpt lat="45.93247" lon="4.64462">
        <ele>295.74</ele>
        <time>2015-09-13T07:24:39Z</time>
      </trkpt>
      <trkpt lat="45.93234" lon="4.64433">
        <ele>294.3</ele>
        <time>2015-09-13T07:24:45Z</time>
      </trkpt>
      <trkpt lat="45.93227" lon="4.64415">
        <ele>294.78</ele>
        <time>2015-09-13T07:24:49Z</time>
      </trkpt>
      <trkpt lat="45.93211" lon="4.64363">
        <ele>296.7</ele>
        <time>2015-09-13T07:24:59Z</time>
      </trkpt>
      <trkpt lat="45.93198" lon="4.64319">
        <ele>297.67</ele>
        <time>2015-09-13T07:25:08Z</time>
      </trkpt>
      <trkpt lat="45.93189" lon="4.64279">
        <ele>298.15</ele>
        <time>2015-09-13T07:25:18Z</time>
      </trkpt>
      <trkpt lat="45.93184" lon="4.64235">
        <ele>298.15</ele>
        <time>2015-09-13T07:25:27Z</time>
      </trkpt>
      <trkpt lat="45.93181" lon="4.64217">
        <ele>298.15</ele>
        <time>2015-09-13T07:25:31Z</time>
      </trkpt>
      <trkpt lat="45.93176" lon="4.6419">
        <ele>296.7</ele>
        <time>2015-09-13T07:25:38Z</time>
      </trkpt>
      <trkpt lat="45.93161" lon="4.64158">
        <ele>292.38</ele>
        <time>2015-09-13T07:25:48Z</time>
      </trkpt>
      <trkpt lat="45.93153" lon="4.64136">
        <ele>290.46</ele>
        <time>2015-09-13T07:25:56Z</time>
      </trkpt>
      <trkpt lat="45.93142" lon="4.64113">
        <ele>289.49</ele>
        <time>2015-09-13T07:26:07Z</time>
      </trkpt>
      <trkpt lat="45.9314" lon="4.6411">
        <ele>290.46</ele>
        <time>2015-09-13T07:26:09Z</time>
      </trkpt>
      <trkpt lat="45.93124" lon="4.64093">
        <ele>292.86</ele>
        <time>2015-09-13T07:26:22Z</time>
      </trkpt>
      <trkpt lat="45.93101" lon="4.64074">
        <ele>296.22</ele>
        <time>2015-09-13T07:26:34Z</time>
      </trkpt>
      <trkpt lat="45.93079" lon="4.64068">
        <ele>295.74</ele>
        <time>2015-09-13T07:26:46Z</time>
      </trkpt>
      <trkpt lat="45.93055" lon="4.64064">
        <ele>294.78</ele>
        <time>2015-09-13T07:27:00Z</time>
      </trkpt>
      <trkpt lat="45.93035" lon="4.64063">
        <ele>299.59</ele>
        <time>2015-09-13T07:27:12Z</time>
      </trkpt>
      <trkpt lat="45.93016" lon="4.64065">
        <ele>300.07</ele>
        <time>2015-09-13T07:27:23Z</time>
      </trkpt>
      <trkpt lat="45.92996" lon="4.64071">
        <ele>300.55</ele>
        <time>2015-09-13T07:27:36Z</time>
      </trkpt>
      <trkpt lat="45.92985" lon="4.64074">
        <ele>303.43</ele>
        <time>2015-09-13T07:27:47Z</time>
      </trkpt>
      <trkpt lat="45.9297" lon="4.64079">
        <ele>304.39</ele>
        <time>2015-09-13T07:27:57Z</time>
      </trkpt>
      <trkpt lat="45.92957" lon="4.64081">
        <ele>305.36</ele>
        <time>2015-09-13T07:28:07Z</time>
      </trkpt>
      <trkpt lat="45.92957" lon="4.64081">
        <ele>305.84</ele>
        <time>2015-09-13T07:28:08Z</time>
      </trkpt>
      <trkpt lat="45.92954" lon="4.64083">
        <ele>305.84</ele>
        <time>2015-09-13T07:28:11Z</time>
      </trkpt>
      <trkpt lat="45.92936" lon="4.64082">
        <ele>309.68</ele>
        <time>2015-09-13T07:28:24Z</time>
      </trkpt>
      <trkpt lat="45.92924" lon="4.64081">
        <ele>313.05</ele>
        <time>2015-09-13T07:28:36Z</time>
      </trkpt>
      <trkpt lat="45.92912" lon="4.64078">
        <ele>313.53</ele>
        <time>2015-09-13T07:28:47Z</time>
      </trkpt>
      <trkpt lat="45.92908" lon="4.64077">
        <ele>314.49</ele>
        <time>2015-09-13T07:28:52Z</time>
      </trkpt>
      <trkpt lat="45.92889" lon="4.64077">
        <ele>315.45</ele>
        <time>2015-09-13T07:29:05Z</time>
      </trkpt>
      <trkpt lat="45.92866" lon="4.64081">
        <ele>320.26</ele>
        <time>2015-09-13T07:29:20Z</time>
      </trkpt>
      <trkpt lat="45.92861" lon="4.64081">
        <ele>321.22</ele>
        <time>2015-09-13T07:29:24Z</time>
      </trkpt>
      <trkpt lat="45.92856" lon="4.6408">
        <ele>322.66</ele>
        <time>2015-09-13T07:29:28Z</time>
      </trkpt>
      <trkpt lat="45.92852" lon="4.64073">
        <ele>323.14</ele>
        <time>2015-09-13T07:29:33Z</time>
      </trkpt>
      <trkpt lat="45.9285" lon="4.6407">
        <ele>323.62</ele>
        <time>2015-09-13T07:29:35Z</time>
      </trkpt>
      <trkpt lat="45.9285" lon="4.64063">
        <ele>324.58</ele>
        <time>2015-09-13T07:29:39Z</time>
      </trkpt>
      <trkpt lat="45.9285" lon="4.64053">
        <ele>324.58</ele>
        <time>2015-09-13T07:29:44Z</time>
      </trkpt>
      <trkpt lat="45.92849" lon="4.64045">
        <ele>325.54</ele>
        <time>2015-09-13T07:29:48Z</time>
      </trkpt>
      <trkpt lat="45.92847" lon="4.64023">
        <ele>327.47</ele>
        <time>2015-09-13T07:30:00Z</time>
      </trkpt>
      <trkpt lat="45.92846" lon="4.64014">
        <ele>328.91</ele>
        <time>2015-09-13T07:30:05Z</time>
      </trkpt>
      <trkpt lat="45.92844" lon="4.64006">
        <ele>328.91</ele>
        <time>2015-09-13T07:30:09Z</time>
      </trkpt>
      <trkpt lat="45.92838" lon="4.63971">
        <ele>331.31</ele>
        <time>2015-09-13T07:30:25Z</time>
      </trkpt>
      <trkpt lat="45.92844" lon="4.63926">
        <ele>332.75</ele>
        <time>2015-09-13T07:30:44Z</time>
      </trkpt>
      <trkpt lat="45.92844" lon="4.63923">
        <ele>332.75</ele>
        <time>2015-09-13T07:30:45Z</time>
      </trkpt>
      <trkpt lat="45.92851" lon="4.63906">
        <ele>332.27</ele>
        <time>2015-09-13T07:30:53Z</time>
      </trkpt>
      <trkpt lat="45.92864" lon="4.63869">
        <ele>332.27</ele>
        <time>2015-09-13T07:31:08Z</time>
      </trkpt>
      <trkpt lat="45.92877" lon="4.63821">
        <ele>330.35</ele>
        <time>2015-09-13T07:31:21Z</time>
      </trkpt>
      <trkpt lat="45.92873" lon="4.63747">
        <ele>328.43</ele>
        <time>2015-09-13T07:31:35Z</time>
      </trkpt>
      <trkpt lat="45.92877" lon="4.63669">
        <ele>330.35</ele>
        <time>2015-09-13T07:31:52Z</time>
      </trkpt>
      <trkpt lat="45.92888" lon="4.63611">
        <ele>329.87</ele>
        <time>2015-09-13T07:32:09Z</time>
      </trkpt>
      <trkpt lat="45.92905" lon="4.63557">
        <ele>330.35</ele>
        <time>2015-09-13T07:32:26Z</time>
      </trkpt>
      <trkpt lat="45.92908" lon="4.63552">
        <ele>330.83</ele>
        <time>2015-09-13T07:32:37Z</time>
      </trkpt>
      <trkpt lat="45.9291" lon="4.63549">
        <ele>331.31</ele>
        <time>2015-09-13T07:33:05Z</time>
      </trkpt>
      <trkpt lat="45.92921" lon="4.63518">
        <ele>333.23</ele>
        <time>2015-09-13T07:33:17Z</time>
      </trkpt>
      <trkpt lat="45.92912" lon="4.63502">
        <ele>333.71</ele>
        <time>2015-09-13T07:33:23Z</time>
      </trkpt>
      <trkpt lat="45.92877" lon="4.63485">
        <ele>335.64</ele>
        <time>2015-09-13T07:33:40Z</time>
      </trkpt>
      <trkpt lat="45.9284" lon="4.63468">
        <ele>337.08</ele>
        <time>2015-09-13T07:33:57Z</time>
      </trkpt>
      <trkpt lat="45.92805" lon="4.63452">
        <ele>337.56</ele>
        <time>2015-09-13T07:34:13Z</time>
      </trkpt>
      <trkpt lat="45.9277" lon="4.63436">
        <ele>338.04</ele>
        <time>2015-09-13T07:34:29Z</time>
      </trkpt>
      <trkpt lat="45.92765" lon="4.63432">
        <ele>338.52</ele>
        <time>2015-09-13T07:34:32Z</time>
      </trkpt>
      <trkpt lat="45.92759" lon="4.63368">
        <ele>339.48</ele>
        <time>2015-09-13T07:34:50Z</time>
      </trkpt>
      <trkpt lat="45.92755" lon="4.63301">
        <ele>339.96</ele>
        <time>2015-09-13T07:35:07Z</time>
      </trkpt>
      <trkpt lat="45.92743" lon="4.63251">
        <ele>340.92</ele>
        <time>2015-09-13T07:35:21Z</time>
      </trkpt>
      <trkpt lat="45.92701" lon="4.63202">
        <ele>340.92</ele>
        <time>2015-09-13T07:35:38Z</time>
      </trkpt>
      <trkpt lat="45.92661" lon="4.63162">
        <ele>338.04</ele>
        <time>2015-09-13T07:35:52Z</time>
      </trkpt>
      <trkpt lat="45.92629" lon="4.63108">
        <ele>338.52</ele>
        <time>2015-09-13T07:36:07Z</time>
      </trkpt>
      <trkpt lat="45.92601" lon="4.63069">
        <ele>339.48</ele>
        <time>2015-09-13T07:36:19Z</time>
      </trkpt>
      <trkpt lat="45.92572" lon="4.63028">
        <ele>339.96</ele>
        <time>2015-09-13T07:36:32Z</time>
      </trkpt>
      <trkpt lat="45.92537" lon="4.62984">
        <ele>340.44</ele>
        <time>2015-09-13T07:36:47Z</time>
      </trkpt>
      <trkpt lat="45.9255" lon="4.62967">
        <ele>341.89</ele>
        <time>2015-09-13T07:36:56Z</time>
      </trkpt>
      <trkpt lat="45.92556" lon="4.62958">
        <ele>342.37</ele>
        <time>2015-09-13T07:37:00Z</time>
      </trkpt>
      <trkpt lat="45.92572" lon="4.62913">
        <ele>344.77</ele>
        <time>2015-09-13T07:37:17Z</time>
      </trkpt>
      <trkpt lat="45.92584" lon="4.62881">
        <ele>347.17</ele>
        <time>2015-09-13T07:37:31Z</time>
      </trkpt>
      <trkpt lat="45.92604" lon="4.62835">
        <ele>350.54</ele>
        <time>2015-09-13T07:37:51Z</time>
      </trkpt>
      <trkpt lat="45.92621" lon="4.62798">
        <ele>351.5</ele>
        <time>2015-09-13T07:38:08Z</time>
      </trkpt>
      <trkpt lat="45.92638" lon="4.62762">
        <ele>354.38</ele>
        <time>2015-09-13T07:38:25Z</time>
      </trkpt>
      <trkpt lat="45.92653" lon="4.62724">
        <ele>355.83</ele>
        <time>2015-09-13T07:38:43Z</time>
      </trkpt>
      <trkpt lat="45.92666" lon="4.62687">
        <ele>358.23</ele>
        <time>2015-09-13T07:39:00Z</time>
      </trkpt>
      <trkpt lat="45.92689" lon="4.62671">
        <ele>360.63</ele>
        <time>2015-09-13T07:39:16Z</time>
      </trkpt>
      <trkpt lat="45.92718" lon="4.62666">
        <ele>361.59</ele>
        <time>2015-09-13T07:39:31Z</time>
      </trkpt>
      <trkpt lat="45.92743" lon="4.6266">
        <ele>363.04</ele>
        <time>2015-09-13T07:39:44Z</time>
      </trkpt>
      <trkpt lat="45.92773" lon="4.62651">
        <ele>364</ele>
        <time>2015-09-13T07:39:58Z</time>
      </trkpt>
      <trkpt lat="45.9281" lon="4.62629">
        <ele>365.44</ele>
        <time>2015-09-13T07:40:16Z</time>
      </trkpt>
      <trkpt lat="45.92843" lon="4.6259">
        <ele>367.36</ele>
        <time>2015-09-13T07:40:34Z</time>
      </trkpt>
      <trkpt lat="45.9287" lon="4.62529">
        <ele>367.84</ele>
        <time>2015-09-13T07:40:51Z</time>
      </trkpt>
      <trkpt lat="45.92885" lon="4.62466">
        <ele>367.84</ele>
        <time>2015-09-13T07:41:06Z</time>
      </trkpt>
      <trkpt lat="45.92906" lon="4.62415">
        <ele>367.84</ele>
        <time>2015-09-13T07:41:18Z</time>
      </trkpt>
      <trkpt lat="45.92924" lon="4.6236">
        <ele>368.8</ele>
        <time>2015-09-13T07:41:32Z</time>
      </trkpt>
      <trkpt lat="45.92927" lon="4.62316">
        <ele>370.73</ele>
        <time>2015-09-13T07:41:43Z</time>
      </trkpt>
      <trkpt lat="45.92933" lon="4.62232">
        <ele>370.73</ele>
        <time>2015-09-13T07:42:00Z</time>
      </trkpt>
      <trkpt lat="45.92949" lon="4.62163">
        <ele>369.76</ele>
        <time>2015-09-13T07:42:15Z</time>
      </trkpt>
      <trkpt lat="45.92972" lon="4.62106">
        <ele>368.8</ele>
        <time>2015-09-13T07:42:27Z</time>
      </trkpt>
      <trkpt lat="45.92995" lon="4.62044">
        <ele>367.36</ele>
        <time>2015-09-13T07:42:40Z</time>
      </trkpt>
      <trkpt lat="45.93006" lon="4.61987">
        <ele>365.92</ele>
        <time>2015-09-13T07:42:52Z</time>
      </trkpt>
      <trkpt lat="45.9302" lon="4.61925">
        <ele>367.36</ele>
        <time>2015-09-13T07:43:07Z</time>
      </trkpt>
      <trkpt lat="45.93034" lon="4.61903">
        <ele>365.92</ele>
        <time>2015-09-13T07:43:12Z</time>
      </trkpt>
      <trkpt lat="45.93056" lon="4.61883">
        <ele>364.48</ele>
        <time>2015-09-13T07:43:17Z</time>
      </trkpt>
      <trkpt lat="45.93073" lon="4.61837">
        <ele>362.07</ele>
        <time>2015-09-13T07:43:27Z</time>
      </trkpt>
      <trkpt lat="45.93066" lon="4.61802">
        <ele>363.52</ele>
        <time>2015-09-13T07:43:40Z</time>
      </trkpt>
      <trkpt lat="45.93061" lon="4.61781">
        <ele>365.44</ele>
        <time>2015-09-13T07:43:55Z</time>
      </trkpt>
      <trkpt lat="45.93051" lon="4.61756">
        <ele>368.8</ele>
        <time>2015-09-13T07:44:08Z</time>
      </trkpt>
      <trkpt lat="45.93048" lon="4.61753">
        <ele>369.28</ele>
        <time>2015-09-13T07:44:10Z</time>
      </trkpt>
      <trkpt lat="45.93043" lon="4.61742">
        <ele>369.28</ele>
        <time>2015-09-13T07:44:15Z</time>
      </trkpt>
      <trkpt lat="45.93051" lon="4.61707">
        <ele>368.8</ele>
        <time>2015-09-13T07:44:29Z</time>
      </trkpt>
      <trkpt lat="45.93054" lon="4.617">
        <ele>368.8</ele>
        <time>2015-09-13T07:44:32Z</time>
      </trkpt>
      <trkpt lat="45.93058" lon="4.61691">
        <ele>369.28</ele>
        <time>2015-09-13T07:44:37Z</time>
      </trkpt>
      <trkpt lat="45.93073" lon="4.6166">
        <ele>370.73</ele>
        <time>2015-09-13T07:44:53Z</time>
      </trkpt>
      <trkpt lat="45.93088" lon="4.61634">
        <ele>372.65</ele>
        <time>2015-09-13T07:45:08Z</time>
      </trkpt>
      <trkpt lat="45.93109" lon="4.61601">
        <ele>377.45</ele>
        <time>2015-09-13T07:45:26Z</time>
      </trkpt>
      <trkpt lat="45.93127" lon="4.61572">
        <ele>379.38</ele>
        <time>2015-09-13T07:45:44Z</time>
      </trkpt>
      <trkpt lat="45.9314" lon="4.61554">
        <ele>377.45</ele>
        <time>2015-09-13T07:45:56Z</time>
      </trkpt>
      <trkpt lat="45.93156" lon="4.61538">
        <ele>376.49</ele>
        <time>2015-09-13T07:46:10Z</time>
      </trkpt>
      <trkpt lat="45.93168" lon="4.61514">
        <ele>381.78</ele>
        <time>2015-09-13T07:46:24Z</time>
      </trkpt>
      <trkpt lat="45.93174" lon="4.61499">
        <ele>388.51</ele>
        <time>2015-09-13T07:46:33Z</time>
      </trkpt>
      <trkpt lat="45.9318" lon="4.61491">
        <ele>389.95</ele>
        <time>2015-09-13T07:46:39Z</time>
      </trkpt>
      <trkpt lat="45.93183" lon="4.61484">
        <ele>390.43</ele>
        <time>2015-09-13T07:46:44Z</time>
      </trkpt>
      <trkpt lat="45.93184" lon="4.61478">
        <ele>390.91</ele>
        <time>2015-09-13T07:46:48Z</time>
      </trkpt>
      <trkpt lat="45.93205" lon="4.61462">
        <ele>391.87</ele>
        <time>2015-09-13T07:47:03Z</time>
      </trkpt>
      <trkpt lat="45.93227" lon="4.61441">
        <ele>394.28</ele>
        <time>2015-09-13T07:47:18Z</time>
      </trkpt>
      <trkpt lat="45.93248" lon="4.61416">
        <ele>396.2</ele>
        <time>2015-09-13T07:47:35Z</time>
      </trkpt>
      <trkpt lat="45.93267" lon="4.61396">
        <ele>396.68</ele>
        <time>2015-09-13T07:47:50Z</time>
      </trkpt>
      <trkpt lat="45.93284" lon="4.61374">
        <ele>398.6</ele>
        <time>2015-09-13T07:48:06Z</time>
      </trkpt>
      <trkpt lat="45.93298" lon="4.61349">
        <ele>401.49</ele>
        <time>2015-09-13T07:48:23Z</time>
      </trkpt>
      <trkpt lat="45.93301" lon="4.6134">
        <ele>401.97</ele>
        <time>2015-09-13T07:48:27Z</time>
      </trkpt>
      <trkpt lat="45.93317" lon="4.61317">
        <ele>405.81</ele>
        <time>2015-09-13T07:48:43Z</time>
      </trkpt>
      <trkpt lat="45.93316" lon="4.61316">
        <ele>405.81</ele>
        <time>2015-09-13T07:48:57Z</time>
      </trkpt>
      <trkpt lat="45.93316" lon="4.61316">
        <ele>405.81</ele>
        <time>2015-09-13T07:49:18Z</time>
      </trkpt>
      <trkpt lat="45.93316" lon="4.61315">
        <ele>407.26</ele>
        <time>2015-09-13T07:50:00Z</time>
      </trkpt>
      <trkpt lat="45.93317" lon="4.61315">
        <ele>406.77</ele>
        <time>2015-09-13T07:50:33Z</time>
      </trkpt>
      <trkpt lat="45.93316" lon="4.61315">
        <ele>406.29</ele>
        <time>2015-09-13T07:51:13Z</time>
      </trkpt>
      <trkpt lat="45.93317" lon="4.61314">
        <ele>405.33</ele>
        <time>2015-09-13T07:51:49Z</time>
      </trkpt>
      <trkpt lat="45.93316" lon="4.61315">
        <ele>405.81</ele>
        <time>2015-09-13T07:52:28Z</time>
      </trkpt>
      <trkpt lat="45.93316" lon="4.61315">
        <ele>405.81</ele>
        <time>2015-09-13T07:53:02Z</time>
      </trkpt>
      <trkpt lat="45.93317" lon="4.61316">
        <ele>405.33</ele>
        <time>2015-09-13T07:53:20Z</time>
      </trkpt>
      <trkpt lat="45.9332" lon="4.61314">
        <ele>405.33</ele>
        <time>2015-09-13T07:53:30Z</time>
      </trkpt>
      <trkpt lat="45.93329" lon="4.61308">
        <ele>405.33</ele>
        <time>2015-09-13T07:53:37Z</time>
      </trkpt>
      <trkpt lat="45.9336" lon="4.61293">
        <ele>405.81</ele>
        <time>2015-09-13T07:53:52Z</time>
      </trkpt>
      <trkpt lat="45.93368" lon="4.61294">
        <ele>405.33</ele>
        <time>2015-09-13T07:53:54Z</time>
      </trkpt>
      <trkpt lat="45.93385" lon="4.6131">
        <ele>402.93</ele>
        <time>2015-09-13T07:53:58Z</time>
      </trkpt>
      <trkpt lat="45.93393" lon="4.61323">
        <ele>401.49</ele>
        <time>2015-09-13T07:54:00Z</time>
      </trkpt>
      <trkpt lat="45.93427" lon="4.6133">
        <ele>397.16</ele>
        <time>2015-09-13T07:54:06Z</time>
      </trkpt>
      <trkpt lat="45.93452" lon="4.61323">
        <ele>393.32</ele>
        <time>2015-09-13T07:54:13Z</time>
      </trkpt>
      <trkpt lat="45.93471" lon="4.61321">
        <ele>390.91</ele>
        <time>2015-09-13T07:54:19Z</time>
      </trkpt>
      <trkpt lat="45.93498" lon="4.61319">
        <ele>387.07</ele>
        <time>2015-09-13T07:54:28Z</time>
      </trkpt>
      <trkpt lat="45.93513" lon="4.61326">
        <ele>384.66</ele>
        <time>2015-09-13T07:54:32Z</time>
      </trkpt>
      <trkpt lat="45.93536" lon="4.61333">
        <ele>380.82</ele>
        <time>2015-09-13T07:54:37Z</time>
      </trkpt>
      <trkpt lat="45.93561" lon="4.61346">
        <ele>376.01</ele>
        <time>2015-09-13T07:54:44Z</time>
      </trkpt>
      <trkpt lat="45.93572" lon="4.61352">
        <ele>376.97</ele>
        <time>2015-09-13T07:54:54Z</time>
      </trkpt>
      <trkpt lat="45.93574" lon="4.6136">
        <ele>377.94</ele>
        <time>2015-09-13T07:55:00Z</time>
      </trkpt>
      <trkpt lat="45.93576" lon="4.61362">
        <ele>378.42</ele>
        <time>2015-09-13T07:55:02Z</time>
      </trkpt>
      <trkpt lat="45.93578" lon="4.61368">
        <ele>379.38</ele>
        <time>2015-09-13T07:55:05Z</time>
      </trkpt>
      <trkpt lat="45.93579" lon="4.61397">
        <ele>383.7</ele>
        <time>2015-09-13T07:55:18Z</time>
      </trkpt>
      <trkpt lat="45.93575" lon="4.61413">
        <ele>386.59</ele>
        <time>2015-09-13T07:55:27Z</time>
      </trkpt>
      <trkpt lat="45.93574" lon="4.61416">
        <ele>387.07</ele>
        <time>2015-09-13T07:55:29Z</time>
      </trkpt>
      <trkpt lat="45.93567" lon="4.61443">
        <ele>391.87</ele>
        <time>2015-09-13T07:55:41Z</time>
      </trkpt>
      <trkpt lat="45.93562" lon="4.61472">
        <ele>391.39</ele>
        <time>2015-09-13T07:55:54Z</time>
      </trkpt>
      <trkpt lat="45.93559" lon="4.61501">
        <ele>389.95</ele>
        <time>2015-09-13T07:56:09Z</time>
      </trkpt>
      <trkpt lat="45.93558" lon="4.61505">
        <ele>390.43</ele>
        <time>2015-09-13T07:56:11Z</time>
      </trkpt>
      <trkpt lat="45.93556" lon="4.61535">
        <ele>393.8</ele>
        <time>2015-09-13T07:56:29Z</time>
      </trkpt>
      <trkpt lat="45.93554" lon="4.61564">
        <ele>396.68</ele>
        <time>2015-09-13T07:56:46Z</time>
      </trkpt>
      <trkpt lat="45.93553" lon="4.61596">
        <ele>400.05</ele>
        <time>2015-09-13T07:57:04Z</time>
      </trkpt>
      <trkpt lat="45.93563" lon="4.61615">
        <ele>402.93</ele>
        <time>2015-09-13T07:57:20Z</time>
      </trkpt>
      <trkpt lat="45.93564" lon="4.61618">
        <ele>403.41</ele>
        <time>2015-09-13T07:57:22Z</time>
      </trkpt>
      <trkpt lat="45.93568" lon="4.61624">
        <ele>404.85</ele>
        <time>2015-09-13T07:57:27Z</time>
      </trkpt>
      <trkpt lat="45.93569" lon="4.61626">
        <ele>405.33</ele>
        <time>2015-09-13T07:57:29Z</time>
      </trkpt>
      <trkpt lat="45.93572" lon="4.61627">
        <ele>406.29</ele>
        <time>2015-09-13T07:57:32Z</time>
      </trkpt>
      <trkpt lat="45.93583" lon="4.61628">
        <ele>407.74</ele>
        <time>2015-09-13T07:57:43Z</time>
      </trkpt>
      <trkpt lat="45.93589" lon="4.61628">
        <ele>408.22</ele>
        <time>2015-09-13T07:57:48Z</time>
      </trkpt>
      <trkpt lat="45.93604" lon="4.61627">
        <ele>409.66</ele>
        <time>2015-09-13T07:58:03Z</time>
      </trkpt>
      <trkpt lat="45.93622" lon="4.61629">
        <ele>412.54</ele>
        <time>2015-09-13T07:58:18Z</time>
      </trkpt>
      <trkpt lat="45.93628" lon="4.61633">
        <ele>413.5</ele>
        <time>2015-09-13T07:58:23Z</time>
      </trkpt>
      <trkpt lat="45.93646" lon="4.61643">
        <ele>415.91</ele>
        <time>2015-09-13T07:58:39Z</time>
      </trkpt>
      <trkpt lat="45.9366" lon="4.61646">
        <ele>417.35</ele>
        <time>2015-09-13T07:58:53Z</time>
      </trkpt>
      <trkpt lat="45.9366" lon="4.61647">
        <ele>417.35</ele>
        <time>2015-09-13T07:59:10Z</time>
      </trkpt>
      <trkpt lat="45.9366" lon="4.61646">
        <ele>417.83</ele>
        <time>2015-09-13T07:59:33Z</time>
      </trkpt>
      <trkpt lat="45.9366" lon="4.61646">
        <ele>417.35</ele>
        <time>2015-09-13T07:59:55Z</time>
      </trkpt>
      <trkpt lat="45.9366" lon="4.61647">
        <ele>417.83</ele>
        <time>2015-09-13T08:00:24Z</time>
      </trkpt>
      <trkpt lat="45.9366" lon="4.61646">
        <ele>417.83</ele>
        <time>2015-09-13T08:00:35Z</time>
      </trkpt>
      <trkpt lat="45.93677" lon="4.6164">
        <ele>419.27</ele>
        <time>2015-09-13T08:00:50Z</time>
      </trkpt>
      <trkpt lat="45.93695" lon="4.61633">
        <ele>421.19</ele>
        <time>2015-09-13T08:01:06Z</time>
      </trkpt>
      <trkpt lat="45.93713" lon="4.61632">
        <ele>422.64</ele>
        <time>2015-09-13T08:01:20Z</time>
      </trkpt>
      <trkpt lat="45.93736" lon="4.61636">
        <ele>426.48</ele>
        <time>2015-09-13T08:01:37Z</time>
      </trkpt>
      <trkpt lat="45.9375" lon="4.61637">
        <ele>428.4</ele>
        <time>2015-09-13T08:01:49Z</time>
      </trkpt>
      <trkpt lat="45.93763" lon="4.61635">
        <ele>429.85</ele>
        <time>2015-09-13T08:02:00Z</time>
      </trkpt>
      <trkpt lat="45.93783" lon="4.61631">
        <ele>432.25</ele>
        <time>2015-09-13T08:02:16Z</time>
      </trkpt>
      <trkpt lat="45.93804" lon="4.61629">
        <ele>435.61</ele>
        <time>2015-09-13T08:02:35Z</time>
      </trkpt>
      <trkpt lat="45.93827" lon="4.61623">
        <ele>439.94</ele>
        <time>2015-09-13T08:02:51Z</time>
      </trkpt>
      <trkpt lat="45.93846" lon="4.61621">
        <ele>443.31</ele>
        <time>2015-09-13T08:03:05Z</time>
      </trkpt>
      <trkpt lat="45.93849" lon="4.61621">
        <ele>443.79</ele>
        <time>2015-09-13T08:03:08Z</time>
      </trkpt>
      <trkpt lat="45.93859" lon="4.61631">
        <ele>445.23</ele>
        <time>2015-09-13T08:03:18Z</time>
      </trkpt>
      <trkpt lat="45.93876" lon="4.61618">
        <ele>449.55</ele>
        <time>2015-09-13T08:03:31Z</time>
      </trkpt>
      <trkpt lat="45.93883" lon="4.61611">
        <ele>451</ele>
        <time>2015-09-13T08:03:37Z</time>
      </trkpt>
      <trkpt lat="45.93907" lon="4.61601">
        <ele>454.36</ele>
        <time>2015-09-13T08:03:55Z</time>
      </trkpt>
      <trkpt lat="45.93921" lon="4.61595">
        <ele>456.28</ele>
        <time>2015-09-13T08:04:08Z</time>
      </trkpt>
      <trkpt lat="45.93926" lon="4.61594">
        <ele>456.28</ele>
        <time>2015-09-13T08:04:14Z</time>
      </trkpt>
      <trkpt lat="45.93947" lon="4.61612">
        <ele>457.72</ele>
        <time>2015-09-13T08:04:33Z</time>
      </trkpt>
      <trkpt lat="45.9396" lon="4.61625">
        <ele>458.21</ele>
        <time>2015-09-13T08:04:47Z</time>
      </trkpt>
      <trkpt lat="45.93962" lon="4.61627">
        <ele>458.21</ele>
        <time>2015-09-13T08:04:49Z</time>
      </trkpt>
      <trkpt lat="45.93966" lon="4.61632">
        <ele>458.21</ele>
        <time>2015-09-13T08:04:53Z</time>
      </trkpt>
      <trkpt lat="45.9398" lon="4.61647">
        <ele>460.61</ele>
        <time>2015-09-13T08:05:10Z</time>
      </trkpt>
      <trkpt lat="45.93992" lon="4.61665">
        <ele>463.97</ele>
        <time>2015-09-13T08:05:25Z</time>
      </trkpt>
      <trkpt lat="45.93993" lon="4.61668">
        <ele>464.45</ele>
        <time>2015-09-13T08:05:27Z</time>
      </trkpt>
      <trkpt lat="45.93993" lon="4.61672">
        <ele>464.93</ele>
        <time>2015-09-13T08:05:29Z</time>
      </trkpt>
      <trkpt lat="45.93996" lon="4.61678">
        <ele>465.42</ele>
        <time>2015-09-13T08:05:33Z</time>
      </trkpt>
      <trkpt lat="45.94001" lon="4.61693">
        <ele>465.9</ele>
        <time>2015-09-13T08:05:41Z</time>
      </trkpt>
      <trkpt lat="45.94013" lon="4.61713">
        <ele>466.86</ele>
        <time>2015-09-13T08:05:55Z</time>
      </trkpt>
      <trkpt lat="45.94015" lon="4.61721">
        <ele>465.42</ele>
        <time>2015-09-13T08:06:00Z</time>
      </trkpt>
      <trkpt lat="45.9404" lon="4.61746">
        <ele>468.3</ele>
        <time>2015-09-13T08:06:17Z</time>
      </trkpt>
      <trkpt lat="45.94046" lon="4.61761">
        <ele>469.26</ele>
        <time>2015-09-13T08:06:24Z</time>
      </trkpt>
      <trkpt lat="45.94063" lon="4.61787">
        <ele>468.3</ele>
        <time>2015-09-13T08:06:35Z</time>
      </trkpt>
      <trkpt lat="45.94079" lon="4.61798">
        <ele>467.34</ele>
        <time>2015-09-13T08:06:39Z</time>
      </trkpt>
      <trkpt lat="45.94107" lon="4.6181">
        <ele>465.9</ele>
        <time>2015-09-13T08:06:45Z</time>
      </trkpt>
      <trkpt lat="45.94114" lon="4.61811">
        <ele>464.93</ele>
        <time>2015-09-13T08:06:55Z</time>
      </trkpt>
      <trkpt lat="45.9412" lon="4.61811">
        <ele>463.97</ele>
        <time>2015-09-13T08:07:11Z</time>
      </trkpt>
      <trkpt lat="45.94125" lon="4.61813">
        <ele>463.49</ele>
        <time>2015-09-13T08:07:25Z</time>
      </trkpt>
      <trkpt lat="45.94124" lon="4.61814">
        <ele>464.93</ele>
        <time>2015-09-13T08:08:06Z</time>
      </trkpt>
      <trkpt lat="45.94124" lon="4.61815">
        <ele>464.45</ele>
        <time>2015-09-13T08:08:49Z</time>
      </trkpt>
      <trkpt lat="45.94124" lon="4.61814">
        <ele>464.45</ele>
        <time>2015-09-13T08:09:32Z</time>
      </trkpt>
      <trkpt lat="45.94124" lon="4.61814">
        <ele>463.49</ele>
        <time>2015-09-13T08:10:15Z</time>
      </trkpt>
      <trkpt lat="45.94125" lon="4.61815">
        <ele>463.01</ele>
        <time>2015-09-13T08:10:49Z</time>
      </trkpt>
      <trkpt lat="45.94124" lon="4.61815">
        <ele>463.01</ele>
        <time>2015-09-13T08:11:32Z</time>
      </trkpt>
      <trkpt lat="45.94125" lon="4.61815">
        <ele>463.49</ele>
        <time>2015-09-13T08:12:08Z</time>
      </trkpt>
      <trkpt lat="45.94125" lon="4.61814">
        <ele>462.53</ele>
        <time>2015-09-13T08:12:54Z</time>
      </trkpt>
      <trkpt lat="45.94125" lon="4.61813">
        <ele>463.97</ele>
        <time>2015-09-13T08:13:35Z</time>
      </trkpt>
      <trkpt lat="45.94126" lon="4.61813">
        <ele>464.45</ele>
        <time>2015-09-13T08:13:57Z</time>
      </trkpt>
      <trkpt lat="45.94126" lon="4.61812">
        <ele>464.45</ele>
        <time>2015-09-13T08:13:58Z</time>
      </trkpt>
      <trkpt lat="45.94127" lon="4.61803">
        <ele>464.45</ele>
        <time>2015-09-13T08:14:03Z</time>
      </trkpt>
      <trkpt lat="45.94128" lon="4.61788">
        <ele>464.93</ele>
        <time>2015-09-13T08:14:08Z</time>
      </trkpt>
      <trkpt lat="45.94137" lon="4.61783">
        <ele>465.9</ele>
        <time>2015-09-13T08:14:15Z</time>
      </trkpt>
      <trkpt lat="45.94139" lon="4.61782">
        <ele>465.9</ele>
        <time>2015-09-13T08:14:17Z</time>
      </trkpt>
      <trkpt lat="45.94171" lon="4.61786">
        <ele>465.9</ele>
        <time>2015-09-13T08:14:34Z</time>
      </trkpt>
      <trkpt lat="45.942" lon="4.61789">
        <ele>466.38</ele>
        <time>2015-09-13T08:14:48Z</time>
      </trkpt>
      <trkpt lat="45.94204" lon="4.61789">
        <ele>466.38</ele>
        <time>2015-09-13T08:14:50Z</time>
      </trkpt>
      <trkpt lat="45.94217" lon="4.61792">
        <ele>466.38</ele>
        <time>2015-09-13T08:14:56Z</time>
      </trkpt>
      <trkpt lat="45.94259" lon="4.61798">
        <ele>467.34</ele>
        <time>2015-09-13T08:15:16Z</time>
      </trkpt>
      <trkpt lat="45.94295" lon="4.61804">
        <ele>467.82</ele>
        <time>2015-09-13T08:15:32Z</time>
      </trkpt>
      <trkpt lat="45.94302" lon="4.61803">
        <ele>467.82</ele>
        <time>2015-09-13T08:15:35Z</time>
      </trkpt>
      <trkpt lat="45.94308" lon="4.61793">
        <ele>467.82</ele>
        <time>2015-09-13T08:15:39Z</time>
      </trkpt>
      <trkpt lat="45.94315" lon="4.61753">
        <ele>471.66</ele>
        <time>2015-09-13T08:15:54Z</time>
      </trkpt>
      <trkpt lat="45.94333" lon="4.61747">
        <ele>473.59</ele>
        <time>2015-09-13T08:16:06Z</time>
      </trkpt>
      <trkpt lat="45.9436" lon="4.61738">
        <ele>478.87</ele>
        <time>2015-09-13T08:16:22Z</time>
      </trkpt>
      <trkpt lat="45.94388" lon="4.61741">
        <ele>480.32</ele>
        <time>2015-09-13T08:16:38Z</time>
      </trkpt>
      <trkpt lat="45.94413" lon="4.61743">
        <ele>482.24</ele>
        <time>2015-09-13T08:16:53Z</time>
      </trkpt>
      <trkpt lat="45.94432" lon="4.61744">
        <ele>485.12</ele>
        <time>2015-09-13T08:17:04Z</time>
      </trkpt>
      <trkpt lat="45.94437" lon="4.61747">
        <ele>485.6</ele>
        <time>2015-09-13T08:17:07Z</time>
      </trkpt>
      <trkpt lat="45.94468" lon="4.61746">
        <ele>487.05</ele>
        <time>2015-09-13T08:17:23Z</time>
      </trkpt>
      <trkpt lat="45.94513" lon="4.61728">
        <ele>484.64</ele>
        <time>2015-09-13T08:17:39Z</time>
      </trkpt>
      <trkpt lat="45.94571" lon="4.61696">
        <ele>479.84</ele>
        <time>2015-09-13T08:17:51Z</time>
      </trkpt>
      <trkpt lat="45.94608" lon="4.61679">
        <ele>477.91</ele>
        <time>2015-09-13T08:17:57Z</time>
      </trkpt>
      <trkpt lat="45.94645" lon="4.61667">
        <ele>474.55</ele>
        <time>2015-09-13T08:18:03Z</time>
      </trkpt>
      <trkpt lat="45.94659" lon="4.61662">
        <ele>473.59</ele>
        <time>2015-09-13T08:18:06Z</time>
      </trkpt>
      <trkpt lat="45.94707" lon="4.61647">
        <ele>469.74</ele>
        <time>2015-09-13T08:18:17Z</time>
      </trkpt>
      <trkpt lat="45.9472" lon="4.61642">
        <ele>469.26</ele>
        <time>2015-09-13T08:18:20Z</time>
      </trkpt>
      <trkpt lat="45.94777" lon="4.61617">
        <ele>470.22</ele>
        <time>2015-09-13T08:18:34Z</time>
      </trkpt>
      <trkpt lat="45.94804" lon="4.61608">
        <ele>472.63</ele>
        <time>2015-09-13T08:18:45Z</time>
      </trkpt>
      <trkpt lat="45.94831" lon="4.61599">
        <ele>476.95</ele>
        <time>2015-09-13T08:18:59Z</time>
      </trkpt>
      <trkpt lat="45.94833" lon="4.61599">
        <ele>477.43</ele>
        <time>2015-09-13T08:19:00Z</time>
      </trkpt>
      <trkpt lat="45.94839" lon="4.61596">
        <ele>478.87</ele>
        <time>2015-09-13T08:19:04Z</time>
      </trkpt>
      <trkpt lat="45.94872" lon="4.61587">
        <ele>483.68</ele>
        <time>2015-09-13T08:19:23Z</time>
      </trkpt>
      <trkpt lat="45.94894" lon="4.61579">
        <ele>488.01</ele>
        <time>2015-09-13T08:19:37Z</time>
      </trkpt>
      <trkpt lat="45.94895" lon="4.61578">
        <ele>488.49</ele>
        <time>2015-09-13T08:19:38Z</time>
      </trkpt>
      <trkpt lat="45.9491" lon="4.61565">
        <ele>491.37</ele>
        <time>2015-09-13T08:19:52Z</time>
      </trkpt>
      <trkpt lat="45.94911" lon="4.61563">
        <ele>491.37</ele>
        <time>2015-09-13T08:19:53Z</time>
      </trkpt>
      <trkpt lat="45.94936" lon="4.61532">
        <ele>490.89</ele>
        <time>2015-09-13T08:20:07Z</time>
      </trkpt>
      <trkpt lat="45.94945" lon="4.61507">
        <ele>492.81</ele>
        <time>2015-09-13T08:20:19Z</time>
      </trkpt>
      <trkpt lat="45.94949" lon="4.6147">
        <ele>495.22</ele>
        <time>2015-09-13T08:20:36Z</time>
      </trkpt>
      <trkpt lat="45.94956" lon="4.61446">
        <ele>496.66</ele>
        <time>2015-09-13T08:20:51Z</time>
      </trkpt>
      <trkpt lat="45.9496" lon="4.61421">
        <ele>502.91</ele>
        <time>2015-09-13T08:21:04Z</time>
      </trkpt>
      <trkpt lat="45.94965" lon="4.61403">
        <ele>505.79</ele>
        <time>2015-09-13T08:21:17Z</time>
      </trkpt>
      <trkpt lat="45.94966" lon="4.61379">
        <ele>511.08</ele>
        <time>2015-09-13T08:21:32Z</time>
      </trkpt>
      <trkpt lat="45.94967" lon="4.61359">
        <ele>513.48</ele>
        <time>2015-09-13T08:21:47Z</time>
      </trkpt>
      <trkpt lat="45.94971" lon="4.61344">
        <ele>512.52</ele>
        <time>2015-09-13T08:21:58Z</time>
      </trkpt>
      <trkpt lat="45.94982" lon="4.6133">
        <ele>512.52</ele>
        <time>2015-09-13T08:22:11Z</time>
      </trkpt>
      <trkpt lat="45.9499" lon="4.61316">
        <ele>510.12</ele>
        <time>2015-09-13T08:22:25Z</time>
      </trkpt>
      <trkpt lat="45.94994" lon="4.61312">
        <ele>510.6</ele>
        <time>2015-09-13T08:22:42Z</time>
      </trkpt>
      <trkpt lat="45.94999" lon="4.61304">
        <ele>512.52</ele>
        <time>2015-09-13T08:22:58Z</time>
      </trkpt>
      <trkpt lat="45.95001" lon="4.61302">
        <ele>513</ele>
        <time>2015-09-13T08:23:18Z</time>
      </trkpt>
      <trkpt lat="45.95003" lon="4.61302">
        <ele>513.96</ele>
        <time>2015-09-13T08:23:43Z</time>
      </trkpt>
      <trkpt lat="45.95004" lon="4.61301">
        <ele>513.96</ele>
        <time>2015-09-13T08:24:15Z</time>
      </trkpt>
      <trkpt lat="45.95006" lon="4.61298">
        <ele>514.92</ele>
        <time>2015-09-13T08:24:30Z</time>
      </trkpt>
      <trkpt lat="45.95011" lon="4.61285">
        <ele>515.88</ele>
        <time>2015-09-13T08:24:44Z</time>
      </trkpt>
      <trkpt lat="45.95023" lon="4.6127">
        <ele>517.81</ele>
        <time>2015-09-13T08:24:59Z</time>
      </trkpt>
      <trkpt lat="45.95025" lon="4.61272">
        <ele>518.77</ele>
        <time>2015-09-13T08:25:12Z</time>
      </trkpt>
      <trkpt lat="45.95027" lon="4.61267">
        <ele>519.73</ele>
        <time>2015-09-13T08:25:25Z</time>
      </trkpt>
      <trkpt lat="45.95028" lon="4.61266">
        <ele>519.73</ele>
        <time>2015-09-13T08:25:29Z</time>
      </trkpt>
      <trkpt lat="45.95029" lon="4.61255">
        <ele>521.65</ele>
        <time>2015-09-13T08:25:41Z</time>
      </trkpt>
      <trkpt lat="45.95027" lon="4.61248">
        <ele>523.58</ele>
        <time>2015-09-13T08:25:55Z</time>
      </trkpt>
      <trkpt lat="45.95024" lon="4.61239">
        <ele>525.02</ele>
        <time>2015-09-13T08:26:07Z</time>
      </trkpt>
      <trkpt lat="45.9502" lon="4.61223">
        <ele>529.34</ele>
        <time>2015-09-13T08:26:23Z</time>
      </trkpt>
      <trkpt lat="45.95019" lon="4.61216">
        <ele>529.82</ele>
        <time>2015-09-13T08:26:38Z</time>
      </trkpt>
      <trkpt lat="45.95012" lon="4.61198">
        <ele>532.71</ele>
        <time>2015-09-13T08:26:53Z</time>
      </trkpt>
      <trkpt lat="45.95008" lon="4.6118">
        <ele>535.59</ele>
        <time>2015-09-13T08:27:08Z</time>
      </trkpt>
      <trkpt lat="45.95004" lon="4.61175">
        <ele>536.55</ele>
        <time>2015-09-13T08:27:14Z</time>
      </trkpt>
      <trkpt lat="45.94998" lon="4.61158">
        <ele>539.92</ele>
        <time>2015-09-13T08:27:29Z</time>
      </trkpt>
      <trkpt lat="45.94993" lon="4.61144">
        <ele>541.84</ele>
        <time>2015-09-13T08:27:43Z</time>
      </trkpt>
      <trkpt lat="45.94991" lon="4.61139">
        <ele>543.28</ele>
        <time>2015-09-13T08:27:55Z</time>
      </trkpt>
      <trkpt lat="45.94989" lon="4.61136">
        <ele>544.72</ele>
        <time>2015-09-13T08:28:07Z</time>
      </trkpt>
      <trkpt lat="45.94986" lon="4.61125">
        <ele>544.72</ele>
        <time>2015-09-13T08:28:12Z</time>
      </trkpt>
      <trkpt lat="45.94978" lon="4.61113">
        <ele>545.2</ele>
        <time>2015-09-13T08:28:22Z</time>
      </trkpt>
      <trkpt lat="45.94973" lon="4.61104">
        <ele>545.2</ele>
        <time>2015-09-13T08:28:39Z</time>
      </trkpt>
      <trkpt lat="45.9497" lon="4.61099">
        <ele>545.2</ele>
        <time>2015-09-13T08:28:57Z</time>
      </trkpt>
      <trkpt lat="45.94966" lon="4.61086">
        <ele>546.17</ele>
        <time>2015-09-13T08:29:13Z</time>
      </trkpt>
      <trkpt lat="45.9496" lon="4.61073">
        <ele>548.57</ele>
        <time>2015-09-13T08:29:27Z</time>
      </trkpt>
      <trkpt lat="45.94956" lon="4.61067">
        <ele>549.53</ele>
        <time>2015-09-13T08:29:34Z</time>
      </trkpt>
      <trkpt lat="45.94948" lon="4.61053">
        <ele>552.9</ele>
        <time>2015-09-13T08:29:47Z</time>
      </trkpt>
      <trkpt lat="45.94944" lon="4.61045">
        <ele>553.86</ele>
        <time>2015-09-13T08:30:06Z</time>
      </trkpt>
      <trkpt lat="45.94935" lon="4.61026">
        <ele>554.34</ele>
        <time>2015-09-13T08:30:20Z</time>
      </trkpt>
      <trkpt lat="45.94934" lon="4.6102">
        <ele>557.22</ele>
        <time>2015-09-13T08:30:31Z</time>
      </trkpt>
      <trkpt lat="45.94933" lon="4.61016">
        <ele>559.14</ele>
        <time>2015-09-13T08:30:46Z</time>
      </trkpt>
      <trkpt lat="45.94933" lon="4.61013">
        <ele>559.62</ele>
        <time>2015-09-13T08:30:48Z</time>
      </trkpt>
      <trkpt lat="45.9493" lon="4.61008">
        <ele>561.07</ele>
        <time>2015-09-13T08:30:52Z</time>
      </trkpt>
      <trkpt lat="45.94924" lon="4.60996">
        <ele>564.43</ele>
        <time>2015-09-13T08:31:01Z</time>
      </trkpt>
      <trkpt lat="45.94915" lon="4.60978">
        <ele>568.28</ele>
        <time>2015-09-13T08:31:15Z</time>
      </trkpt>
      <trkpt lat="45.94908" lon="4.6097">
        <ele>570.2</ele>
        <time>2015-09-13T08:31:23Z</time>
      </trkpt>
      <trkpt lat="45.94903" lon="4.6097">
        <ele>570.68</ele>
        <time>2015-09-13T08:31:34Z</time>
      </trkpt>
      <trkpt lat="45.94898" lon="4.60959">
        <ele>572.12</ele>
        <time>2015-09-13T08:31:48Z</time>
      </trkpt>
      <trkpt lat="45.94895" lon="4.60953">
        <ele>573.08</ele>
        <time>2015-09-13T08:31:56Z</time>
      </trkpt>
      <trkpt lat="45.94887" lon="4.60938">
        <ele>573.08</ele>
        <time>2015-09-13T08:32:10Z</time>
      </trkpt>
      <trkpt lat="45.94877" lon="4.60924">
        <ele>575.49</ele>
        <time>2015-09-13T08:32:26Z</time>
      </trkpt>
      <trkpt lat="45.94877" lon="4.60923">
        <ele>575.97</ele>
        <time>2015-09-13T08:33:08Z</time>
      </trkpt>
      <trkpt lat="45.94876" lon="4.60923">
        <ele>575.97</ele>
        <time>2015-09-13T08:33:32Z</time>
      </trkpt>
      <trkpt lat="45.94874" lon="4.60922">
        <ele>575.97</ele>
        <time>2015-09-13T08:34:31Z</time>
      </trkpt>
      <trkpt lat="45.94875" lon="4.60922">
        <ele>577.41</ele>
        <time>2015-09-13T08:34:56Z</time>
      </trkpt>
      <trkpt lat="45.94875" lon="4.60923">
        <ele>576.93</ele>
        <time>2015-09-13T08:35:25Z</time>
      </trkpt>
      <trkpt lat="45.94874" lon="4.60922">
        <ele>576.93</ele>
        <time>2015-09-13T08:35:45Z</time>
      </trkpt>
      <trkpt lat="45.94875" lon="4.60924">
        <ele>578.37</ele>
        <time>2015-09-13T08:36:32Z</time>
      </trkpt>
      <trkpt lat="45.94874" lon="4.60922">
        <ele>575.01</ele>
        <time>2015-09-13T08:36:58Z</time>
      </trkpt>
      <trkpt lat="45.94874" lon="4.60922">
        <ele>575.49</ele>
        <time>2015-09-13T08:37:21Z</time>
      </trkpt>
      <trkpt lat="45.94873" lon="4.60922">
        <ele>574.04</ele>
        <time>2015-09-13T08:37:44Z</time>
      </trkpt>
      <trkpt lat="45.94876" lon="4.60915">
        <ele>577.41</ele>
        <time>2015-09-13T08:37:58Z</time>
      </trkpt>
      <trkpt lat="45.94874" lon="4.60885">
        <ele>580.29</ele>
        <time>2015-09-13T08:38:12Z</time>
      </trkpt>
      <trkpt lat="45.9487" lon="4.60852">
        <ele>582.22</ele>
        <time>2015-09-13T08:38:22Z</time>
      </trkpt>
      <trkpt lat="45.94864" lon="4.60827">
        <ele>584.14</ele>
        <time>2015-09-13T08:38:28Z</time>
      </trkpt>
      <trkpt lat="45.94853" lon="4.60784">
        <ele>585.1</ele>
        <time>2015-09-13T08:38:39Z</time>
      </trkpt>
      <trkpt lat="45.94852" lon="4.60777">
        <ele>584.62</ele>
        <time>2015-09-13T08:38:41Z</time>
      </trkpt>
      <trkpt lat="45.94839" lon="4.60731">
        <ele>584.62</ele>
        <time>2015-09-13T08:38:56Z</time>
      </trkpt>
      <trkpt lat="45.94822" lon="4.60681">
        <ele>584.14</ele>
        <time>2015-09-13T08:39:10Z</time>
      </trkpt>
      <trkpt lat="45.94813" lon="4.60634">
        <ele>585.1</ele>
        <time>2015-09-13T08:39:23Z</time>
      </trkpt>
      <trkpt lat="45.94819" lon="4.60591">
        <ele>586.54</ele>
        <time>2015-09-13T08:39:37Z</time>
      </trkpt>
      <trkpt lat="45.94828" lon="4.60561">
        <ele>585.58</ele>
        <time>2015-09-13T08:39:47Z</time>
      </trkpt>
      <trkpt lat="45.9484" lon="4.60539">
        <ele>584.14</ele>
        <time>2015-09-13T08:39:51Z</time>
      </trkpt>
      <trkpt lat="45.94853" lon="4.60515">
        <ele>583.18</ele>
        <time>2015-09-13T08:39:55Z</time>
      </trkpt>
      <trkpt lat="45.94864" lon="4.60498">
        <ele>582.22</ele>
        <time>2015-09-13T08:39:58Z</time>
      </trkpt>
      <trkpt lat="45.94878" lon="4.60477">
        <ele>581.25</ele>
        <time>2015-09-13T08:40:02Z</time>
      </trkpt>
      <trkpt lat="45.94932" lon="4.60394">
        <ele>578.85</ele>
        <time>2015-09-13T08:40:18Z</time>
      </trkpt>
      <trkpt lat="45.94975" lon="4.60333">
        <ele>578.37</ele>
        <time>2015-09-13T08:40:32Z</time>
      </trkpt>
      <trkpt lat="45.95012" lon="4.60279">
        <ele>577.41</ele>
        <time>2015-09-13T08:40:47Z</time>
      </trkpt>
      <trkpt lat="45.95043" lon="4.60255">
        <ele>576.45</ele>
        <time>2015-09-13T08:41:01Z</time>
      </trkpt>
      <trkpt lat="45.95071" lon="4.60236">
        <ele>577.89</ele>
        <time>2015-09-13T08:41:15Z</time>
      </trkpt>
      <trkpt lat="45.95085" lon="4.60229">
        <ele>579.81</ele>
        <time>2015-09-13T08:41:24Z</time>
      </trkpt>
      <trkpt lat="45.9509" lon="4.60223">
        <ele>580.77</ele>
        <time>2015-09-13T08:41:29Z</time>
      </trkpt>
      <trkpt lat="45.95102" lon="4.60199">
        <ele>585.1</ele>
        <time>2015-09-13T08:41:44Z</time>
      </trkpt>
      <trkpt lat="45.95112" lon="4.60181">
        <ele>587.02</ele>
        <time>2015-09-13T08:41:58Z</time>
      </trkpt>
      <trkpt lat="45.95118" lon="4.60168">
        <ele>587.98</ele>
        <time>2015-09-13T08:42:07Z</time>
      </trkpt>
      <trkpt lat="45.95123" lon="4.60158">
        <ele>588.95</ele>
        <time>2015-09-13T08:42:14Z</time>
      </trkpt>
      <trkpt lat="45.95127" lon="4.60151">
        <ele>589.43</ele>
        <time>2015-09-13T08:42:19Z</time>
      </trkpt>
      <trkpt lat="45.95132" lon="4.60145">
        <ele>589.43</ele>
        <time>2015-09-13T08:42:24Z</time>
      </trkpt>
      <trkpt lat="45.9514" lon="4.6013">
        <ele>592.79</ele>
        <time>2015-09-13T08:42:36Z</time>
      </trkpt>
      <trkpt lat="45.95149" lon="4.60118">
        <ele>594.23</ele>
        <time>2015-09-13T08:42:49Z</time>
      </trkpt>
      <trkpt lat="45.95152" lon="4.60114">
        <ele>596.64</ele>
        <time>2015-09-13T08:43:02Z</time>
      </trkpt>
      <trkpt lat="45.95152" lon="4.60115">
        <ele>597.6</ele>
        <time>2015-09-13T08:43:25Z</time>
      </trkpt>
      <trkpt lat="45.95152" lon="4.60114">
        <ele>599.04</ele>
        <time>2015-09-13T08:43:55Z</time>
      </trkpt>
      <trkpt lat="45.95152" lon="4.60115">
        <ele>600</ele>
        <time>2015-09-13T08:44:23Z</time>
      </trkpt>
      <trkpt lat="45.95151" lon="4.60115">
        <ele>600.96</ele>
        <time>2015-09-13T08:44:56Z</time>
      </trkpt>
      <trkpt lat="45.95153" lon="4.60114">
        <ele>602.4</ele>
        <time>2015-09-13T08:45:32Z</time>
      </trkpt>
      <trkpt lat="45.95153" lon="4.60113">
        <ele>603.36</ele>
        <time>2015-09-13T08:45:53Z</time>
      </trkpt>
      <trkpt lat="45.95157" lon="4.6011">
        <ele>606.25</ele>
        <time>2015-09-13T08:46:00Z</time>
      </trkpt>
      <trkpt lat="45.95164" lon="4.60092">
        <ele>611.06</ele>
        <time>2015-09-13T08:46:13Z</time>
      </trkpt>
      <trkpt lat="45.95166" lon="4.60086">
        <ele>614.42</ele>
        <time>2015-09-13T08:46:26Z</time>
      </trkpt>
      <trkpt lat="45.95171" lon="4.60074">
        <ele>619.23</ele>
        <time>2015-09-13T08:46:39Z</time>
      </trkpt>
      <trkpt lat="45.95178" lon="4.60064">
        <ele>620.19</ele>
        <time>2015-09-13T08:46:54Z</time>
      </trkpt>
      <trkpt lat="45.95182" lon="4.60054">
        <ele>620.19</ele>
        <time>2015-09-13T08:47:10Z</time>
      </trkpt>
      <trkpt lat="45.95191" lon="4.60042">
        <ele>620.19</ele>
        <time>2015-09-13T08:47:23Z</time>
      </trkpt>
      <trkpt lat="45.95195" lon="4.60039">
        <ele>620.67</ele>
        <time>2015-09-13T08:47:43Z</time>
      </trkpt>
      <trkpt lat="45.95198" lon="4.60031">
        <ele>621.15</ele>
        <time>2015-09-13T08:47:48Z</time>
      </trkpt>
      <trkpt lat="45.95206" lon="4.60014">
        <ele>623.07</ele>
        <time>2015-09-13T08:48:02Z</time>
      </trkpt>
      <trkpt lat="45.95211" lon="4.59996">
        <ele>626.92</ele>
        <time>2015-09-13T08:48:14Z</time>
      </trkpt>
      <trkpt lat="45.95217" lon="4.59976">
        <ele>630.28</ele>
        <time>2015-09-13T08:48:27Z</time>
      </trkpt>
      <trkpt lat="45.95224" lon="4.59954">
        <ele>634.13</ele>
        <time>2015-09-13T08:48:42Z</time>
      </trkpt>
      <trkpt lat="45.95227" lon="4.59936">
        <ele>636.05</ele>
        <time>2015-09-13T08:48:55Z</time>
      </trkpt>
      <trkpt lat="45.9523" lon="4.59918">
        <ele>637.49</ele>
        <time>2015-09-13T08:49:07Z</time>
      </trkpt>
      <trkpt lat="45.95236" lon="4.59894">
        <ele>640.38</ele>
        <time>2015-09-13T08:49:22Z</time>
      </trkpt>
      <trkpt lat="45.95243" lon="4.59875">
        <ele>643.26</ele>
        <time>2015-09-13T08:49:35Z</time>
      </trkpt>
      <trkpt lat="45.95249" lon="4.59855">
        <ele>645.66</ele>
        <time>2015-09-13T08:49:49Z</time>
      </trkpt>
      <trkpt lat="45.9525" lon="4.59841">
        <ele>647.59</ele>
        <time>2015-09-13T08:49:58Z</time>
      </trkpt>
      <trkpt lat="45.95253" lon="4.59816">
        <ele>651.91</ele>
        <time>2015-09-13T08:50:11Z</time>
      </trkpt>
      <trkpt lat="45.95261" lon="4.5979">
        <ele>652.87</ele>
        <time>2015-09-13T08:50:24Z</time>
      </trkpt>
      <trkpt lat="45.9527" lon="4.59768">
        <ele>652.87</ele>
        <time>2015-09-13T08:50:39Z</time>
      </trkpt>
      <trkpt lat="45.95284" lon="4.5974">
        <ele>651.43</ele>
        <time>2015-09-13T08:50:53Z</time>
      </trkpt>
      <trkpt lat="45.95296" lon="4.59708">
        <ele>650.47</ele>
        <time>2015-09-13T08:51:08Z</time>
      </trkpt>
      <trkpt lat="45.95296" lon="4.59706">
        <ele>649.99</ele>
        <time>2015-09-13T08:51:09Z</time>
      </trkpt>
      <trkpt lat="45.95299" lon="4.59695">
        <ele>648.55</ele>
        <time>2015-09-13T08:51:14Z</time>
      </trkpt>
      <trkpt lat="45.95305" lon="4.59684">
        <ele>648.55</ele>
        <time>2015-09-13T08:51:19Z</time>
      </trkpt>
      <trkpt lat="45.95322" lon="4.59667">
        <ele>645.66</ele>
        <time>2015-09-13T08:51:33Z</time>
      </trkpt>
      <trkpt lat="45.95327" lon="4.59658">
        <ele>643.74</ele>
        <time>2015-09-13T08:51:37Z</time>
      </trkpt>
      <trkpt lat="45.95329" lon="4.5965">
        <ele>642.78</ele>
        <time>2015-09-13T08:51:41Z</time>
      </trkpt>
      <trkpt lat="45.95337" lon="4.59631">
        <ele>641.82</ele>
        <time>2015-09-13T08:51:50Z</time>
      </trkpt>
      <trkpt lat="45.95342" lon="4.59622">
        <ele>641.34</ele>
        <time>2015-09-13T08:51:54Z</time>
      </trkpt>
      <trkpt lat="45.95347" lon="4.59613">
        <ele>641.34</ele>
        <time>2015-09-13T08:51:58Z</time>
      </trkpt>
      <trkpt lat="45.95348" lon="4.59604">
        <ele>639.89</ele>
        <time>2015-09-13T08:52:02Z</time>
      </trkpt>
      <trkpt lat="45.95355" lon="4.5959">
        <ele>639.89</ele>
        <time>2015-09-13T08:52:08Z</time>
      </trkpt>
      <trkpt lat="45.95362" lon="4.59575">
        <ele>638.93</ele>
        <time>2015-09-13T08:52:16Z</time>
      </trkpt>
      <trkpt lat="45.95367" lon="4.59565">
        <ele>638.45</ele>
        <time>2015-09-13T08:52:20Z</time>
      </trkpt>
      <trkpt lat="45.95385" lon="4.59527">
        <ele>642.3</ele>
        <time>2015-09-13T08:52:35Z</time>
      </trkpt>
      <trkpt lat="45.95406" lon="4.59504">
        <ele>643.74</ele>
        <time>2015-09-13T08:52:48Z</time>
      </trkpt>
      <trkpt lat="45.95408" lon="4.59503">
        <ele>643.74</ele>
        <time>2015-09-13T08:52:49Z</time>
      </trkpt>
      <trkpt lat="45.95412" lon="4.59498">
        <ele>643.74</ele>
        <time>2015-09-13T08:52:53Z</time>
      </trkpt>
      <trkpt lat="45.95436" lon="4.59475">
        <ele>645.66</ele>
        <time>2015-09-13T08:53:06Z</time>
      </trkpt>
      <trkpt lat="45.95461" lon="4.59449">
        <ele>649.99</ele>
        <time>2015-09-13T08:53:18Z</time>
      </trkpt>
      <trkpt lat="45.95492" lon="4.5942">
        <ele>650.95</ele>
        <time>2015-09-13T08:53:32Z</time>
      </trkpt>
      <trkpt lat="45.95512" lon="4.59403">
        <ele>651.91</ele>
        <time>2015-09-13T08:53:42Z</time>
      </trkpt>
      <trkpt lat="45.95522" lon="4.59395">
        <ele>651.43</ele>
        <time>2015-09-13T08:53:47Z</time>
      </trkpt>
      <trkpt lat="45.95525" lon="4.59392">
        <ele>652.39</ele>
        <time>2015-09-13T08:54:01Z</time>
      </trkpt>
      <trkpt lat="45.95525" lon="4.59391">
        <ele>652.39</ele>
        <time>2015-09-13T08:54:33Z</time>
      </trkpt>
      <trkpt lat="45.95525" lon="4.59391">
        <ele>652.39</ele>
        <time>2015-09-13T08:54:35Z</time>
      </trkpt>
      <trkpt lat="45.95536" lon="4.59385">
        <ele>653.35</ele>
        <time>2015-09-13T08:54:42Z</time>
      </trkpt>
      <trkpt lat="45.95569" lon="4.5936">
        <ele>653.35</ele>
        <time>2015-09-13T08:54:56Z</time>
      </trkpt>
      <trkpt lat="45.9561" lon="4.59341">
        <ele>657.2</ele>
        <time>2015-09-13T08:55:10Z</time>
      </trkpt>
      <trkpt lat="45.95648" lon="4.59324">
        <ele>653.35</ele>
        <time>2015-09-13T08:55:21Z</time>
      </trkpt>
      <trkpt lat="45.95661" lon="4.59317">
        <ele>652.39</ele>
        <time>2015-09-13T08:55:25Z</time>
      </trkpt>
      <trkpt lat="45.95678" lon="4.59309">
        <ele>651.91</ele>
        <time>2015-09-13T08:55:29Z</time>
      </trkpt>
      <trkpt lat="45.95716" lon="4.59292">
        <ele>647.59</ele>
        <time>2015-09-13T08:55:38Z</time>
      </trkpt>
      <trkpt lat="45.95757" lon="4.59268">
        <ele>644.22</ele>
        <time>2015-09-13T08:55:46Z</time>
      </trkpt>
      <trkpt lat="45.95809" lon="4.59243">
        <ele>641.34</ele>
        <time>2015-09-13T08:55:55Z</time>
      </trkpt>
      <trkpt lat="45.95869" lon="4.59224">
        <ele>640.38</ele>
        <time>2015-09-13T08:56:05Z</time>
      </trkpt>
      <trkpt lat="45.95891" lon="4.59211">
        <ele>639.41</ele>
        <time>2015-09-13T08:56:09Z</time>
      </trkpt>
      <trkpt lat="45.95929" lon="4.59169">
        <ele>636.53</ele>
        <time>2015-09-13T08:56:17Z</time>
      </trkpt>
      <trkpt lat="45.95957" lon="4.59162">
        <ele>636.05</ele>
        <time>2015-09-13T08:56:25Z</time>
      </trkpt>
      <trkpt lat="45.95974" lon="4.59179">
        <ele>639.41</ele>
        <time>2015-09-13T08:56:38Z</time>
      </trkpt>
      <trkpt lat="45.95987" lon="4.59194">
        <ele>641.34</ele>
        <time>2015-09-13T08:56:50Z</time>
      </trkpt>
      <trkpt lat="45.95993" lon="4.59205">
        <ele>643.26</ele>
        <time>2015-09-13T08:56:56Z</time>
      </trkpt>
      <trkpt lat="45.95999" lon="4.5921">
        <ele>644.7</ele>
        <time>2015-09-13T08:57:00Z</time>
      </trkpt>
      <trkpt lat="45.96008" lon="4.59219">
        <ele>645.66</ele>
        <time>2015-09-13T08:57:06Z</time>
      </trkpt>
      <trkpt lat="45.96034" lon="4.59242">
        <ele>650.95</ele>
        <time>2015-09-13T08:57:20Z</time>
      </trkpt>
      <trkpt lat="45.9606" lon="4.59254">
        <ele>651.91</ele>
        <time>2015-09-13T08:57:29Z</time>
      </trkpt>
      <trkpt lat="45.96082" lon="4.59261">
        <ele>650.47</ele>
        <time>2015-09-13T08:57:38Z</time>
      </trkpt>
      <trkpt lat="45.96098" lon="4.59262">
        <ele>650.95</ele>
        <time>2015-09-13T08:57:47Z</time>
      </trkpt>
      <trkpt lat="45.96101" lon="4.59262">
        <ele>650.95</ele>
        <time>2015-09-13T08:57:49Z</time>
      </trkpt>
      <trkpt lat="45.96111" lon="4.59266">
        <ele>651.91</ele>
        <time>2015-09-13T08:57:55Z</time>
      </trkpt>
      <trkpt lat="45.96138" lon="4.59272">
        <ele>652.39</ele>
        <time>2015-09-13T08:58:04Z</time>
      </trkpt>
      <trkpt lat="45.96174" lon="4.59289">
        <ele>652.87</ele>
        <time>2015-09-13T08:58:17Z</time>
      </trkpt>
      <trkpt lat="45.96222" lon="4.5932">
        <ele>654.8</ele>
        <time>2015-09-13T08:58:31Z</time>
      </trkpt>
      <trkpt lat="45.96256" lon="4.59341">
        <ele>657.68</ele>
        <time>2015-09-13T08:58:41Z</time>
      </trkpt>
      <trkpt lat="45.96268" lon="4.59351">
        <ele>658.16</ele>
        <time>2015-09-13T08:58:44Z</time>
      </trkpt>
      <trkpt lat="45.96286" lon="4.59373">
        <ele>659.12</ele>
        <time>2015-09-13T08:58:48Z</time>
      </trkpt>
      <trkpt lat="45.96296" lon="4.59384">
        <ele>659.6</ele>
        <time>2015-09-13T08:58:50Z</time>
      </trkpt>
      <trkpt lat="45.96326" lon="4.59405">
        <ele>657.2</ele>
        <time>2015-09-13T08:58:54Z</time>
      </trkpt>
      <trkpt lat="45.9635" lon="4.59418">
        <ele>656.24</ele>
        <time>2015-09-13T08:58:58Z</time>
      </trkpt>
      <trkpt lat="45.96364" lon="4.59426">
        <ele>654.31</ele>
        <time>2015-09-13T08:59:00Z</time>
      </trkpt>
      <trkpt lat="45.96409" lon="4.59457">
        <ele>643.74</ele>
        <time>2015-09-13T08:59:08Z</time>
      </trkpt>
      <trkpt lat="45.96428" lon="4.5947">
        <ele>633.65</ele>
        <time>2015-09-13T08:59:13Z</time>
      </trkpt>
      <trkpt lat="45.96447" lon="4.59487">
        <ele>628.84</ele>
        <time>2015-09-13T08:59:19Z</time>
      </trkpt>
      <trkpt lat="45.96463" lon="4.5951">
        <ele>624.03</ele>
        <time>2015-09-13T08:59:24Z</time>
      </trkpt>
      <trkpt lat="45.96493" lon="4.5954">
        <ele>619.71</ele>
        <time>2015-09-13T08:59:29Z</time>
      </trkpt>
      <trkpt lat="45.96507" lon="4.59557">
        <ele>615.38</ele>
        <time>2015-09-13T08:59:31Z</time>
      </trkpt>
      <trkpt lat="45.96532" lon="4.5961">
        <ele>607.21</ele>
        <time>2015-09-13T08:59:37Z</time>
      </trkpt>
      <trkpt lat="45.96555" lon="4.5968">
        <ele>599.52</ele>
        <time>2015-09-13T08:59:46Z</time>
      </trkpt>
      <trkpt lat="45.96564" lon="4.59699">
        <ele>596.15</ele>
        <time>2015-09-13T08:59:48Z</time>
      </trkpt>
      <trkpt lat="45.96602" lon="4.5976">
        <ele>587.5</ele>
        <time>2015-09-13T08:59:55Z</time>
      </trkpt>
      <trkpt lat="45.96615" lon="4.5978">
        <ele>581.73</ele>
        <time>2015-09-13T09:00:02Z</time>
      </trkpt>
      <trkpt lat="45.96617" lon="4.59783">
        <ele>579.81</ele>
        <time>2015-09-13T09:00:11Z</time>
      </trkpt>
      <trkpt lat="45.96629" lon="4.59801">
        <ele>576.45</ele>
        <time>2015-09-13T09:00:24Z</time>
      </trkpt>
      <trkpt lat="45.96638" lon="4.59824">
        <ele>575.01</ele>
        <time>2015-09-13T09:00:30Z</time>
      </trkpt>
      <trkpt lat="45.96649" lon="4.59858">
        <ele>572.12</ele>
        <time>2015-09-13T09:00:35Z</time>
      </trkpt>
      <trkpt lat="45.96663" lon="4.59875">
        <ele>569.72</ele>
        <time>2015-09-13T09:00:39Z</time>
      </trkpt>
      <trkpt lat="45.96676" lon="4.59887">
        <ele>567.32</ele>
        <time>2015-09-13T09:00:44Z</time>
      </trkpt>
      <trkpt lat="45.96683" lon="4.59893">
        <ele>564.43</ele>
        <time>2015-09-13T09:00:55Z</time>
      </trkpt>
      <trkpt lat="45.96686" lon="4.59894">
        <ele>564.91</ele>
        <time>2015-09-13T09:01:05Z</time>
      </trkpt>
      <trkpt lat="45.96686" lon="4.59895">
        <ele>564.43</ele>
        <time>2015-09-13T09:01:12Z</time>
      </trkpt>
      <trkpt lat="45.96696" lon="4.599">
        <ele>564.91</ele>
        <time>2015-09-13T09:01:19Z</time>
      </trkpt>
      <trkpt lat="45.9671" lon="4.59902">
        <ele>568.28</ele>
        <time>2015-09-13T09:01:31Z</time>
      </trkpt>
      <trkpt lat="45.96727" lon="4.59907">
        <ele>571.64</ele>
        <time>2015-09-13T09:01:45Z</time>
      </trkpt>
      <trkpt lat="45.96736" lon="4.59905">
        <ele>571.16</ele>
        <time>2015-09-13T09:02:05Z</time>
      </trkpt>
      <trkpt lat="45.96737" lon="4.59905">
        <ele>571.16</ele>
        <time>2015-09-13T09:02:07Z</time>
      </trkpt>
      <trkpt lat="45.96755" lon="4.59902">
        <ele>571.16</ele>
        <time>2015-09-13T09:02:18Z</time>
      </trkpt>
      <trkpt lat="45.96761" lon="4.59899">
        <ele>570.2</ele>
        <time>2015-09-13T09:02:21Z</time>
      </trkpt>
      <trkpt lat="45.96769" lon="4.59897">
        <ele>570.2</ele>
        <time>2015-09-13T09:02:24Z</time>
      </trkpt>
      <trkpt lat="45.96782" lon="4.59891">
        <ele>569.24</ele>
        <time>2015-09-13T09:02:32Z</time>
      </trkpt>
      <trkpt lat="45.96803" lon="4.59888">
        <ele>566.83</ele>
        <time>2015-09-13T09:02:43Z</time>
      </trkpt>
      <trkpt lat="45.96816" lon="4.59878">
        <ele>564.43</ele>
        <time>2015-09-13T09:02:54Z</time>
      </trkpt>
      <trkpt lat="45.96839" lon="4.59872">
        <ele>558.18</ele>
        <time>2015-09-13T09:03:02Z</time>
      </trkpt>
      <trkpt lat="45.96847" lon="4.59868">
        <ele>556.74</ele>
        <time>2015-09-13T09:03:04Z</time>
      </trkpt>
      <trkpt lat="45.96861" lon="4.59863">
        <ele>553.86</ele>
        <time>2015-09-13T09:03:07Z</time>
      </trkpt>
      <trkpt lat="45.96876" lon="4.59859">
        <ele>550.97</ele>
        <time>2015-09-13T09:03:10Z</time>
      </trkpt>
      <trkpt lat="45.96896" lon="4.59848">
        <ele>545.69</ele>
        <time>2015-09-13T09:03:15Z</time>
      </trkpt>
      <trkpt lat="45.96916" lon="4.5984">
        <ele>541.36</ele>
        <time>2015-09-13T09:03:19Z</time>
      </trkpt>
      <trkpt lat="45.96959" lon="4.59817">
        <ele>535.11</ele>
        <time>2015-09-13T09:03:26Z</time>
      </trkpt>
      <trkpt lat="45.96997" lon="4.59813">
        <ele>527.42</ele>
        <time>2015-09-13T09:03:31Z</time>
      </trkpt>
      <trkpt lat="45.97028" lon="4.59805">
        <ele>520.21</ele>
        <time>2015-09-13T09:03:39Z</time>
      </trkpt>
      <trkpt lat="45.97029" lon="4.59789">
        <ele>518.29</ele>
        <time>2015-09-13T09:03:45Z</time>
      </trkpt>
      <trkpt lat="45.97002" lon="4.59758">
        <ele>516.37</ele>
        <time>2015-09-13T09:03:59Z</time>
      </trkpt>
      <trkpt lat="45.96986" lon="4.59721">
        <ele>517.81</ele>
        <time>2015-09-13T09:04:13Z</time>
      </trkpt>
      <trkpt lat="45.97001" lon="4.59679">
        <ele>517.81</ele>
        <time>2015-09-13T09:04:26Z</time>
      </trkpt>
      <trkpt lat="45.97034" lon="4.59648">
        <ele>515.4</ele>
        <time>2015-09-13T09:04:37Z</time>
      </trkpt>
      <trkpt lat="45.97064" lon="4.5963">
        <ele>513.96</ele>
        <time>2015-09-13T09:04:44Z</time>
      </trkpt>
      <trkpt lat="45.97106" lon="4.5963">
        <ele>513</ele>
        <time>2015-09-13T09:04:53Z</time>
      </trkpt>
      <trkpt lat="45.97112" lon="4.59626">
        <ele>513</ele>
        <time>2015-09-13T09:04:55Z</time>
      </trkpt>
      <trkpt lat="45.97139" lon="4.59613">
        <ele>515.88</ele>
        <time>2015-09-13T09:05:07Z</time>
      </trkpt>
      <trkpt lat="45.97167" lon="4.59617">
        <ele>517.81</ele>
        <time>2015-09-13T09:05:21Z</time>
      </trkpt>
      <trkpt lat="45.97192" lon="4.59658">
        <ele>517.33</ele>
        <time>2015-09-13T09:05:32Z</time>
      </trkpt>
      <trkpt lat="45.97213" lon="4.59687">
        <ele>517.81</ele>
        <time>2015-09-13T09:05:43Z</time>
      </trkpt>
      <trkpt lat="45.97227" lon="4.59711">
        <ele>516.85</ele>
        <time>2015-09-13T09:05:49Z</time>
      </trkpt>
      <trkpt lat="45.97237" lon="4.59735">
        <ele>515.4</ele>
        <time>2015-09-13T09:05:53Z</time>
      </trkpt>
      <trkpt lat="45.97249" lon="4.59765">
        <ele>513.48</ele>
        <time>2015-09-13T09:05:58Z</time>
      </trkpt>
      <trkpt lat="45.97254" lon="4.5979">
        <ele>512.52</ele>
        <time>2015-09-13T09:06:01Z</time>
      </trkpt>
      <trkpt lat="45.97263" lon="4.59811">
        <ele>511.08</ele>
        <time>2015-09-13T09:06:05Z</time>
      </trkpt>
      <trkpt lat="45.9727" lon="4.59821">
        <ele>510.6</ele>
        <time>2015-09-13T09:06:07Z</time>
      </trkpt>
      <trkpt lat="45.97289" lon="4.59843">
        <ele>510.12</ele>
        <time>2015-09-13T09:06:12Z</time>
      </trkpt>
      <trkpt lat="45.97296" lon="4.59853">
        <ele>509.64</ele>
        <time>2015-09-13T09:06:14Z</time>
      </trkpt>
      <trkpt lat="45.97312" lon="4.59889">
        <ele>511.08</ele>
        <time>2015-09-13T09:06:21Z</time>
      </trkpt>
      <trkpt lat="45.97318" lon="4.59905">
        <ele>512.52</ele>
        <time>2015-09-13T09:06:24Z</time>
      </trkpt>
      <trkpt lat="45.97325" lon="4.59922">
        <ele>513</ele>
        <time>2015-09-13T09:06:27Z</time>
      </trkpt>
      <trkpt lat="45.97349" lon="4.59975">
        <ele>515.4</ele>
        <time>2015-09-13T09:06:40Z</time>
      </trkpt>
      <trkpt lat="45.97369" lon="4.60011">
        <ele>518.77</ele>
        <time>2015-09-13T09:06:52Z</time>
      </trkpt>
      <trkpt lat="45.97371" lon="4.60015">
        <ele>518.29</ele>
        <time>2015-09-13T09:06:53Z</time>
      </trkpt>
      <trkpt lat="45.97387" lon="4.60018">
        <ele>513.96</ele>
        <time>2015-09-13T09:06:58Z</time>
      </trkpt>
      <trkpt lat="45.97396" lon="4.60015">
        <ele>511.08</ele>
        <time>2015-09-13T09:07:01Z</time>
      </trkpt>
      <trkpt lat="45.97397" lon="4.60033">
        <ele>505.31</ele>
        <time>2015-09-13T09:07:07Z</time>
      </trkpt>
      <trkpt lat="45.97395" lon="4.60052">
        <ele>500.98</ele>
        <time>2015-09-13T09:07:10Z</time>
      </trkpt>
      <trkpt lat="45.97388" lon="4.60072">
        <ele>497.14</ele>
        <time>2015-09-13T09:07:13Z</time>
      </trkpt>
      <trkpt lat="45.97382" lon="4.60085">
        <ele>494.74</ele>
        <time>2015-09-13T09:07:15Z</time>
      </trkpt>
      <trkpt lat="45.97372" lon="4.60118">
        <ele>489.45</ele>
        <time>2015-09-13T09:07:20Z</time>
      </trkpt>
      <trkpt lat="45.97363" lon="4.60142">
        <ele>484.64</ele>
        <time>2015-09-13T09:07:24Z</time>
      </trkpt>
      <trkpt lat="45.97363" lon="4.60154">
        <ele>481.76</ele>
        <time>2015-09-13T09:07:27Z</time>
      </trkpt>
      <trkpt lat="45.97381" lon="4.60174">
        <ele>475.51</ele>
        <time>2015-09-13T09:07:36Z</time>
      </trkpt>
      <trkpt lat="45.9739" lon="4.60186">
        <ele>470.7</ele>
        <time>2015-09-13T09:07:42Z</time>
      </trkpt>
      <trkpt lat="45.97428" lon="4.60188">
        <ele>462.53</ele>
        <time>2015-09-13T09:07:53Z</time>
      </trkpt>
      <trkpt lat="45.97465" lon="4.60169">
        <ele>456.76</ele>
        <time>2015-09-13T09:08:01Z</time>
      </trkpt>
      <trkpt lat="45.97477" lon="4.60161">
        <ele>452.92</ele>
        <time>2015-09-13T09:08:10Z</time>
      </trkpt>
      <trkpt lat="45.97482" lon="4.60159">
        <ele>450.52</ele>
        <time>2015-09-13T09:08:24Z</time>
      </trkpt>
      <trkpt lat="45.97487" lon="4.60153">
        <ele>450.52</ele>
        <time>2015-09-13T09:08:36Z</time>
      </trkpt>
      <trkpt lat="45.97492" lon="4.60149">
        <ele>450.03</ele>
        <time>2015-09-13T09:08:47Z</time>
      </trkpt>
      <trkpt lat="45.97492" lon="4.60148">
        <ele>449.55</ele>
        <time>2015-09-13T09:08:51Z</time>
      </trkpt>
      <trkpt lat="45.97492" lon="4.6018">
        <ele>449.07</ele>
        <time>2015-09-13T09:08:59Z</time>
      </trkpt>
      <trkpt lat="45.97489" lon="4.60204">
        <ele>448.11</ele>
        <time>2015-09-13T09:09:03Z</time>
      </trkpt>
      <trkpt lat="45.97457" lon="4.60249">
        <ele>448.11</ele>
        <time>2015-09-13T09:09:16Z</time>
      </trkpt>
      <trkpt lat="45.97427" lon="4.6027">
        <ele>448.59</ele>
        <time>2015-09-13T09:09:28Z</time>
      </trkpt>
      <trkpt lat="45.97396" lon="4.6028">
        <ele>449.55</ele>
        <time>2015-09-13T09:09:43Z</time>
      </trkpt>
      <trkpt lat="45.97367" lon="4.60278">
        <ele>448.59</ele>
        <time>2015-09-13T09:09:56Z</time>
      </trkpt>
      <trkpt lat="45.97361" lon="4.60277">
        <ele>447.63</ele>
        <time>2015-09-13T09:09:58Z</time>
      </trkpt>
      <trkpt lat="45.97343" lon="4.60271">
        <ele>444.75</ele>
        <time>2015-09-13T09:10:02Z</time>
      </trkpt>
      <trkpt lat="45.97295" lon="4.60256">
        <ele>438.02</ele>
        <time>2015-09-13T09:10:09Z</time>
      </trkpt>
      <trkpt lat="45.97271" lon="4.60247">
        <ele>434.17</ele>
        <time>2015-09-13T09:10:12Z</time>
      </trkpt>
      <trkpt lat="45.97243" lon="4.60226">
        <ele>428.4</ele>
        <time>2015-09-13T09:10:16Z</time>
      </trkpt>
      <trkpt lat="45.972" lon="4.60221">
        <ele>422.16</ele>
        <time>2015-09-13T09:10:21Z</time>
      </trkpt>
      <trkpt lat="45.97173" lon="4.60231">
        <ele>419.75</ele>
        <time>2015-09-13T09:10:24Z</time>
      </trkpt>
      <trkpt lat="45.97136" lon="4.60264">
        <ele>416.39</ele>
        <time>2015-09-13T09:10:29Z</time>
      </trkpt>
      <trkpt lat="45.97115" lon="4.60301">
        <ele>414.95</ele>
        <time>2015-09-13T09:10:33Z</time>
      </trkpt>
      <trkpt lat="45.97097" lon="4.60337">
        <ele>413.98</ele>
        <time>2015-09-13T09:10:37Z</time>
      </trkpt>
      <trkpt lat="45.97065" lon="4.60372">
        <ele>414.47</ele>
        <time>2015-09-13T09:10:44Z</time>
      </trkpt>
      <trkpt lat="45.97072" lon="4.60386">
        <ele>415.43</ele>
        <time>2015-09-13T09:10:50Z</time>
      </trkpt>
      <trkpt lat="45.97079" lon="4.60389">
        <ele>415.43</ele>
        <time>2015-09-13T09:10:52Z</time>
      </trkpt>
      <trkpt lat="45.97115" lon="4.60422">
        <ele>412.06</ele>
        <time>2015-09-13T09:11:00Z</time>
      </trkpt>
      <trkpt lat="45.97116" lon="4.60448">
        <ele>409.66</ele>
        <time>2015-09-13T09:11:06Z</time>
      </trkpt>
      <trkpt lat="45.97116" lon="4.60464">
        <ele>408.7</ele>
        <time>2015-09-13T09:11:14Z</time>
      </trkpt>
      <trkpt lat="45.97116" lon="4.60486">
        <ele>407.26</ele>
        <time>2015-09-13T09:11:19Z</time>
      </trkpt>
      <trkpt lat="45.97101" lon="4.60562">
        <ele>407.26</ele>
        <time>2015-09-13T09:11:34Z</time>
      </trkpt>
      <trkpt lat="45.97084" lon="4.60655">
        <ele>405.33</ele>
        <time>2015-09-13T09:11:49Z</time>
      </trkpt>
      <trkpt lat="45.97053" lon="4.60728">
        <ele>403.89</ele>
        <time>2015-09-13T09:12:02Z</time>
      </trkpt>
      <trkpt lat="45.97042" lon="4.60762">
        <ele>404.37</ele>
        <time>2015-09-13T09:12:12Z</time>
      </trkpt>
      <trkpt lat="45.97037" lon="4.60779">
        <ele>403.89</ele>
        <time>2015-09-13T09:12:17Z</time>
      </trkpt>
      <trkpt lat="45.9704" lon="4.60816">
        <ele>398.6</ele>
        <time>2015-09-13T09:12:27Z</time>
      </trkpt>
      <trkpt lat="45.97042" lon="4.60821">
        <ele>398.12</ele>
        <time>2015-09-13T09:12:28Z</time>
      </trkpt>
      <trkpt lat="45.97058" lon="4.60851">
        <ele>395.24</ele>
        <time>2015-09-13T09:12:33Z</time>
      </trkpt>
      <trkpt lat="45.97071" lon="4.60874">
        <ele>389.95</ele>
        <time>2015-09-13T09:12:38Z</time>
      </trkpt>
      <trkpt lat="45.97086" lon="4.60905">
        <ele>382.26</ele>
        <time>2015-09-13T09:12:50Z</time>
      </trkpt>
      <trkpt lat="45.97088" lon="4.60907">
        <ele>382.26</ele>
        <time>2015-09-13T09:12:51Z</time>
      </trkpt>
      <trkpt lat="45.97091" lon="4.60947">
        <ele>380.34</ele>
        <time>2015-09-13T09:13:02Z</time>
      </trkpt>
      <trkpt lat="45.97088" lon="4.60959">
        <ele>379.38</ele>
        <time>2015-09-13T09:13:04Z</time>
      </trkpt>
      <trkpt lat="45.97088" lon="4.60995">
        <ele>376.97</ele>
        <time>2015-09-13T09:13:08Z</time>
      </trkpt>
      <trkpt lat="45.97094" lon="4.61036">
        <ele>374.57</ele>
        <time>2015-09-13T09:13:12Z</time>
      </trkpt>
      <trkpt lat="45.97094" lon="4.611">
        <ele>371.69</ele>
        <time>2015-09-13T09:13:18Z</time>
      </trkpt>
      <trkpt lat="45.97102" lon="4.61142">
        <ele>371.69</ele>
        <time>2015-09-13T09:13:23Z</time>
      </trkpt>
      <trkpt lat="45.97096" lon="4.61222">
        <ele>371.69</ele>
        <time>2015-09-13T09:13:33Z</time>
      </trkpt>
      <trkpt lat="45.97085" lon="4.61294">
        <ele>369.76</ele>
        <time>2015-09-13T09:13:42Z</time>
      </trkpt>
      <trkpt lat="45.97077" lon="4.61349">
        <ele>368.32</ele>
        <time>2015-09-13T09:13:48Z</time>
      </trkpt>
      <trkpt lat="45.97057" lon="4.61427">
        <ele>365.44</ele>
        <time>2015-09-13T09:13:58Z</time>
      </trkpt>
      <trkpt lat="45.9704" lon="4.6149">
        <ele>364</ele>
        <time>2015-09-13T09:14:06Z</time>
      </trkpt>
      <trkpt lat="45.9703" lon="4.6152">
        <ele>363.52</ele>
        <time>2015-09-13T09:14:10Z</time>
      </trkpt>
      <trkpt lat="45.97019" lon="4.61552">
        <ele>363.04</ele>
        <time>2015-09-13T09:14:14Z</time>
      </trkpt>
      <trkpt lat="45.96982" lon="4.61641">
        <ele>362.07</ele>
        <time>2015-09-13T09:14:26Z</time>
      </trkpt>
      <trkpt lat="45.96968" lon="4.61675">
        <ele>361.59</ele>
        <time>2015-09-13T09:14:31Z</time>
      </trkpt>
      <trkpt lat="45.96962" lon="4.61697">
        <ele>361.11</ele>
        <time>2015-09-13T09:14:34Z</time>
      </trkpt>
      <trkpt lat="45.96946" lon="4.6175">
        <ele>359.67</ele>
        <time>2015-09-13T09:14:41Z</time>
      </trkpt>
      <trkpt lat="45.96939" lon="4.61774">
        <ele>358.71</ele>
        <time>2015-09-13T09:14:44Z</time>
      </trkpt>
      <trkpt lat="45.96927" lon="4.61813">
        <ele>357.27</ele>
        <time>2015-09-13T09:14:49Z</time>
      </trkpt>
      <trkpt lat="45.96923" lon="4.61826">
        <ele>356.31</ele>
        <time>2015-09-13T09:14:51Z</time>
      </trkpt>
      <trkpt lat="45.96918" lon="4.61844">
        <ele>354.86</ele>
        <time>2015-09-13T09:14:54Z</time>
      </trkpt>
      <trkpt lat="45.96909" lon="4.61873">
        <ele>352.46</ele>
        <time>2015-09-13T09:14:59Z</time>
      </trkpt>
      <trkpt lat="45.96902" lon="4.61893">
        <ele>350.54</ele>
        <time>2015-09-13T09:15:02Z</time>
      </trkpt>
      <trkpt lat="45.96898" lon="4.61912">
        <ele>349.58</ele>
        <time>2015-09-13T09:15:05Z</time>
      </trkpt>
      <trkpt lat="45.96881" lon="4.61962">
        <ele>346.21</ele>
        <time>2015-09-13T09:15:13Z</time>
      </trkpt>
      <trkpt lat="45.96874" lon="4.6198">
        <ele>344.77</ele>
        <time>2015-09-13T09:15:16Z</time>
      </trkpt>
      <trkpt lat="45.96862" lon="4.6201">
        <ele>342.37</ele>
        <time>2015-09-13T09:15:21Z</time>
      </trkpt>
      <trkpt lat="45.96852" lon="4.62033">
        <ele>341.41</ele>
        <time>2015-09-13T09:15:24Z</time>
      </trkpt>
      <trkpt lat="45.96837" lon="4.62061">
        <ele>339.48</ele>
        <time>2015-09-13T09:15:28Z</time>
      </trkpt>
      <trkpt lat="45.96795" lon="4.62128">
        <ele>337.08</ele>
        <time>2015-09-13T09:15:39Z</time>
      </trkpt>
      <trkpt lat="45.96789" lon="4.62139">
        <ele>336.6</ele>
        <time>2015-09-13T09:15:41Z</time>
      </trkpt>
      <trkpt lat="45.96776" lon="4.62166">
        <ele>335.16</ele>
        <time>2015-09-13T09:15:45Z</time>
      </trkpt>
      <trkpt lat="45.96753" lon="4.62242">
        <ele>333.71</ele>
        <time>2015-09-13T09:15:54Z</time>
      </trkpt>
      <trkpt lat="45.9673" lon="4.62322">
        <ele>331.79</ele>
        <time>2015-09-13T09:16:03Z</time>
      </trkpt>
      <trkpt lat="45.9672" lon="4.6237">
        <ele>330.83</ele>
        <time>2015-09-13T09:16:09Z</time>
      </trkpt>
      <trkpt lat="45.96715" lon="4.62415">
        <ele>331.31</ele>
        <time>2015-09-13T09:16:15Z</time>
      </trkpt>
      <trkpt lat="45.96698" lon="4.62457">
        <ele>330.83</ele>
        <time>2015-09-13T09:16:21Z</time>
      </trkpt>
      <trkpt lat="45.96683" lon="4.6248">
        <ele>331.31</ele>
        <time>2015-09-13T09:16:25Z</time>
      </trkpt>
      <trkpt lat="45.9667" lon="4.62504">
        <ele>331.31</ele>
        <time>2015-09-13T09:16:29Z</time>
      </trkpt>
      <trkpt lat="45.96654" lon="4.62549">
        <ele>329.87</ele>
        <time>2015-09-13T09:16:39Z</time>
      </trkpt>
      <trkpt lat="45.96654" lon="4.62551">
        <ele>329.87</ele>
        <time>2015-09-13T09:16:43Z</time>
      </trkpt>
      <trkpt lat="45.96652" lon="4.62557">
        <ele>331.79</ele>
        <time>2015-09-13T09:16:55Z</time>
      </trkpt>
      <trkpt lat="45.96652" lon="4.62558">
        <ele>331.79</ele>
        <time>2015-09-13T09:17:16Z</time>
      </trkpt>
      <trkpt lat="45.96651" lon="4.62559">
        <ele>331.79</ele>
        <time>2015-09-13T09:17:20Z</time>
      </trkpt>
      <trkpt lat="45.96641" lon="4.62591">
        <ele>329.39</ele>
        <time>2015-09-13T09:17:32Z</time>
      </trkpt>
      <trkpt lat="45.96627" lon="4.62632">
        <ele>326.99</ele>
        <time>2015-09-13T09:17:41Z</time>
      </trkpt>
      <trkpt lat="45.96626" lon="4.62638">
        <ele>326.5</ele>
        <time>2015-09-13T09:17:42Z</time>
      </trkpt>
      <trkpt lat="45.96612" lon="4.62709">
        <ele>325.54</ele>
        <time>2015-09-13T09:17:52Z</time>
      </trkpt>
      <trkpt lat="45.96592" lon="4.62822">
        <ele>322.18</ele>
        <time>2015-09-13T09:18:06Z</time>
      </trkpt>
      <trkpt lat="45.96589" lon="4.62839">
        <ele>321.7</ele>
        <time>2015-09-13T09:18:08Z</time>
      </trkpt>
      <trkpt lat="45.96584" lon="4.62854">
        <ele>321.7</ele>
        <time>2015-09-13T09:18:10Z</time>
      </trkpt>
      <trkpt lat="45.96581" lon="4.62888">
        <ele>320.26</ele>
        <time>2015-09-13T09:18:19Z</time>
      </trkpt>
      <trkpt lat="45.96579" lon="4.62887">
        <ele>320.26</ele>
        <time>2015-09-13T09:18:31Z</time>
      </trkpt>
      <trkpt lat="45.96579" lon="4.62887">
        <ele>320.74</ele>
        <time>2015-09-13T09:18:57Z</time>
      </trkpt>
      <trkpt lat="45.96579" lon="4.62887">
        <ele>319.78</ele>
        <time>2015-09-13T09:19:22Z</time>
      </trkpt>
      <trkpt lat="45.96579" lon="4.62887">
        <ele>321.7</ele>
        <time>2015-09-13T09:19:56Z</time>
      </trkpt>
      <trkpt lat="45.96578" lon="4.62887">
        <ele>321.7</ele>
        <time>2015-09-13T09:20:29Z</time>
      </trkpt>
      <trkpt lat="45.96578" lon="4.62887">
        <ele>322.18</ele>
        <time>2015-09-13T09:21:00Z</time>
      </trkpt>
      <trkpt lat="45.96577" lon="4.62886">
        <ele>322.18</ele>
        <time>2015-09-13T09:21:29Z</time>
      </trkpt>
      <trkpt lat="45.96577" lon="4.62887">
        <ele>323.14</ele>
        <time>2015-09-13T09:22:01Z</time>
      </trkpt>
      <trkpt lat="45.96578" lon="4.62887">
        <ele>323.62</ele>
        <time>2015-09-13T09:22:34Z</time>
      </trkpt>
      <trkpt lat="45.96577" lon="4.62887">
        <ele>323.62</ele>
        <time>2015-09-13T09:23:07Z</time>
      </trkpt>
      <trkpt lat="45.96577" lon="4.62887">
        <ele>324.1</ele>
        <time>2015-09-13T09:23:40Z</time>
      </trkpt>
      <trkpt lat="45.96577" lon="4.62888">
        <ele>323.62</ele>
        <time>2015-09-13T09:24:10Z</time>
      </trkpt>
      <trkpt lat="45.96577" lon="4.62888">
        <ele>323.14</ele>
        <time>2015-09-13T09:24:42Z</time>
      </trkpt>
      <trkpt lat="45.96577" lon="4.62888">
        <ele>323.62</ele>
        <time>2015-09-13T09:25:17Z</time>
      </trkpt>
      <trkpt lat="45.96577" lon="4.62887">
        <ele>323.62</ele>
        <time>2015-09-13T09:25:48Z</time>
      </trkpt>
      <trkpt lat="45.96577" lon="4.62888">
        <ele>323.62</ele>
        <time>2015-09-13T09:26:03Z</time>
      </trkpt>
      <trkpt lat="45.96576" lon="4.62889">
        <ele>324.1</ele>
        <time>2015-09-13T09:26:08Z</time>
      </trkpt>
      <trkpt lat="45.96566" lon="4.62875">
        <ele>323.62</ele>
        <time>2015-09-13T09:26:13Z</time>
      </trkpt>
      <trkpt lat="45.96554" lon="4.62829">
        <ele>319.3</ele>
        <time>2015-09-13T09:26:18Z</time>
      </trkpt>
      <trkpt lat="45.96518" lon="4.62776">
        <ele>309.2</ele>
        <time>2015-09-13T09:26:26Z</time>
      </trkpt>
      <trkpt lat="45.96475" lon="4.62746">
        <ele>301.51</ele>
        <time>2015-09-13T09:26:35Z</time>
      </trkpt>
      <trkpt lat="45.96469" lon="4.62738">
        <ele>299.59</ele>
        <time>2015-09-13T09:26:38Z</time>
      </trkpt>
      <trkpt lat="45.96455" lon="4.6274">
        <ele>296.22</ele>
        <time>2015-09-13T09:26:46Z</time>
      </trkpt>
      <trkpt lat="45.96441" lon="4.62721">
        <ele>290.94</ele>
        <time>2015-09-13T09:27:03Z</time>
      </trkpt>
      <trkpt lat="45.96442" lon="4.6271">
        <ele>293.34</ele>
        <time>2015-09-13T09:27:15Z</time>
      </trkpt>
      <trkpt lat="45.96442" lon="4.62707">
        <ele>295.26</ele>
        <time>2015-09-13T09:27:18Z</time>
      </trkpt>
      <trkpt lat="45.96444" lon="4.627">
        <ele>300.55</ele>
        <time>2015-09-13T09:27:28Z</time>
      </trkpt>
      <trkpt lat="45.96444" lon="4.62693">
        <ele>303.43</ele>
        <time>2015-09-13T09:27:34Z</time>
      </trkpt>
      <trkpt lat="45.9644" lon="4.62694">
        <ele>305.36</ele>
        <time>2015-09-13T09:27:45Z</time>
      </trkpt>
      <trkpt lat="45.96426" lon="4.62706">
        <ele>310.16</ele>
        <time>2015-09-13T09:27:57Z</time>
      </trkpt>
      <trkpt lat="45.96419" lon="4.62709">
        <ele>312.57</ele>
        <time>2015-09-13T09:28:03Z</time>
      </trkpt>
      <trkpt lat="45.96414" lon="4.62713">
        <ele>314.49</ele>
        <time>2015-09-13T09:28:07Z</time>
      </trkpt>
      <trkpt lat="45.96407" lon="4.62717">
        <ele>317.37</ele>
        <time>2015-09-13T09:28:19Z</time>
      </trkpt>
      <trkpt lat="45.96404" lon="4.6271">
        <ele>319.3</ele>
        <time>2015-09-13T09:28:33Z</time>
      </trkpt>
      <trkpt lat="45.96404" lon="4.62709">
        <ele>320.26</ele>
        <time>2015-09-13T09:28:45Z</time>
      </trkpt>
      <trkpt lat="45.96399" lon="4.62712">
        <ele>320.26</ele>
        <time>2015-09-13T09:29:06Z</time>
      </trkpt>
      <trkpt lat="45.96396" lon="4.62716">
        <ele>320.74</ele>
        <time>2015-09-13T09:29:08Z</time>
      </trkpt>
      <trkpt lat="45.96389" lon="4.62723">
        <ele>320.74</ele>
        <time>2015-09-13T09:29:14Z</time>
      </trkpt>
      <trkpt lat="45.96361" lon="4.62736">
        <ele>323.14</ele>
        <time>2015-09-13T09:29:31Z</time>
      </trkpt>
      <trkpt lat="45.96333" lon="4.62724">
        <ele>324.58</ele>
        <time>2015-09-13T09:29:47Z</time>
      </trkpt>
      <trkpt lat="45.96299" lon="4.6271">
        <ele>329.39</ele>
        <time>2015-09-13T09:30:01Z</time>
      </trkpt>
      <trkpt lat="45.96296" lon="4.62709">
        <ele>329.39</ele>
        <time>2015-09-13T09:30:02Z</time>
      </trkpt>
      <trkpt lat="45.96285" lon="4.62715">
        <ele>328.91</ele>
        <time>2015-09-13T09:30:11Z</time>
      </trkpt>
      <trkpt lat="45.96285" lon="4.62716">
        <ele>328.91</ele>
        <time>2015-09-13T09:30:15Z</time>
      </trkpt>
      <trkpt lat="45.9629" lon="4.62719">
        <ele>327.95</ele>
        <time>2015-09-13T09:30:26Z</time>
      </trkpt>
      <trkpt lat="45.96287" lon="4.62728">
        <ele>326.99</ele>
        <time>2015-09-13T09:30:29Z</time>
      </trkpt>
      <trkpt lat="45.9628" lon="4.62833">
        <ele>320.74</ele>
        <time>2015-09-13T09:30:40Z</time>
      </trkpt>
      <trkpt lat="45.96277" lon="4.62872">
        <ele>319.3</ele>
        <time>2015-09-13T09:30:44Z</time>
      </trkpt>
      <trkpt lat="45.96255" lon="4.62917">
        <ele>319.78</ele>
        <time>2015-09-13T09:30:52Z</time>
      </trkpt>
      <trkpt lat="45.96237" lon="4.62943">
        <ele>321.7</ele>
        <time>2015-09-13T09:31:02Z</time>
      </trkpt>
      <trkpt lat="45.96214" lon="4.6297">
        <ele>323.62</ele>
        <time>2015-09-13T09:31:17Z</time>
      </trkpt>
      <trkpt lat="45.96187" lon="4.6299">
        <ele>326.5</ele>
        <time>2015-09-13T09:31:33Z</time>
      </trkpt>
      <trkpt lat="45.96156" lon="4.63">
        <ele>328.91</ele>
        <time>2015-09-13T09:31:51Z</time>
      </trkpt>
      <trkpt lat="45.96134" lon="4.62999">
        <ele>331.31</ele>
        <time>2015-09-13T09:32:04Z</time>
      </trkpt>
      <trkpt lat="45.96114" lon="4.62995">
        <ele>333.23</ele>
        <time>2015-09-13T09:32:17Z</time>
      </trkpt>
      <trkpt lat="45.96109" lon="4.62993">
        <ele>334.2</ele>
        <time>2015-09-13T09:32:21Z</time>
      </trkpt>
      <trkpt lat="45.96096" lon="4.62988">
        <ele>335.16</ele>
        <time>2015-09-13T09:32:31Z</time>
      </trkpt>
      <trkpt lat="45.96077" lon="4.62979">
        <ele>336.12</ele>
        <time>2015-09-13T09:32:45Z</time>
      </trkpt>
      <trkpt lat="45.9606" lon="4.62968">
        <ele>335.64</ele>
        <time>2015-09-13T09:32:58Z</time>
      </trkpt>
      <trkpt lat="45.96039" lon="4.62955">
        <ele>334.68</ele>
        <time>2015-09-13T09:33:12Z</time>
      </trkpt>
      <trkpt lat="45.96029" lon="4.62948">
        <ele>334.68</ele>
        <time>2015-09-13T09:33:20Z</time>
      </trkpt>
      <trkpt lat="45.96004" lon="4.62924">
        <ele>334.2</ele>
        <time>2015-09-13T09:33:35Z</time>
      </trkpt>
      <trkpt lat="45.95988" lon="4.62917">
        <ele>333.71</ele>
        <time>2015-09-13T09:33:39Z</time>
      </trkpt>
      <trkpt lat="45.95952" lon="4.62892">
        <ele>331.31</ele>
        <time>2015-09-13T09:33:46Z</time>
      </trkpt>
      <trkpt lat="45.95924" lon="4.62891">
        <ele>329.39</ele>
        <time>2015-09-13T09:33:50Z</time>
      </trkpt>
      <trkpt lat="45.95889" lon="4.62901">
        <ele>326.02</ele>
        <time>2015-09-13T09:33:55Z</time>
      </trkpt>
      <trkpt lat="45.95847" lon="4.6291">
        <ele>319.3</ele>
        <time>2015-09-13T09:34:02Z</time>
      </trkpt>
      <trkpt lat="45.95817" lon="4.62908">
        <ele>316.41</ele>
        <time>2015-09-13T09:34:07Z</time>
      </trkpt>
      <trkpt lat="45.95788" lon="4.62918">
        <ele>313.05</ele>
        <time>2015-09-13T09:34:11Z</time>
      </trkpt>
      <trkpt lat="45.95752" lon="4.62942">
        <ele>306.8</ele>
        <time>2015-09-13T09:34:16Z</time>
      </trkpt>
      <trkpt lat="45.95735" lon="4.62956">
        <ele>303.43</ele>
        <time>2015-09-13T09:34:18Z</time>
      </trkpt>
      <trkpt lat="45.95699" lon="4.6299">
        <ele>294.3</ele>
        <time>2015-09-13T09:34:25Z</time>
      </trkpt>
      <trkpt lat="45.95696" lon="4.62994">
        <ele>292.38</ele>
        <time>2015-09-13T09:34:29Z</time>
      </trkpt>
      <trkpt lat="45.95711" lon="4.6302">
        <ele>293.34</ele>
        <time>2015-09-13T09:34:43Z</time>
      </trkpt>
      <trkpt lat="45.95719" lon="4.6304">
        <ele>293.34</ele>
        <time>2015-09-13T09:34:53Z</time>
      </trkpt>
      <trkpt lat="45.95742" lon="4.63099">
        <ele>293.82</ele>
        <time>2015-09-13T09:35:09Z</time>
      </trkpt>
      <trkpt lat="45.95745" lon="4.63108">
        <ele>293.82</ele>
        <time>2015-09-13T09:35:12Z</time>
      </trkpt>
      <trkpt lat="45.95737" lon="4.63113">
        <ele>293.34</ele>
        <time>2015-09-13T09:35:16Z</time>
      </trkpt>
      <trkpt lat="45.95702" lon="4.63112">
        <ele>291.42</ele>
        <time>2015-09-13T09:35:22Z</time>
      </trkpt>
      <trkpt lat="45.95669" lon="4.63137">
        <ele>289.49</ele>
        <time>2015-09-13T09:35:30Z</time>
      </trkpt>
      <trkpt lat="45.95659" lon="4.63187">
        <ele>288.53</ele>
        <time>2015-09-13T09:35:43Z</time>
      </trkpt>
      <trkpt lat="45.95649" lon="4.63227">
        <ele>287.09</ele>
        <time>2015-09-13T09:35:55Z</time>
      </trkpt>
      <trkpt lat="45.95635" lon="4.63277">
        <ele>288.53</ele>
        <time>2015-09-13T09:36:08Z</time>
      </trkpt>
      <trkpt lat="45.95632" lon="4.6331">
        <ele>288.05</ele>
        <time>2015-09-13T09:36:18Z</time>
      </trkpt>
      <trkpt lat="45.95621" lon="4.6332">
        <ele>287.57</ele>
        <time>2015-09-13T09:36:30Z</time>
      </trkpt>
      <trkpt lat="45.95616" lon="4.63321">
        <ele>289.01</ele>
        <time>2015-09-13T09:36:34Z</time>
      </trkpt>
      <trkpt lat="45.95609" lon="4.63321">
        <ele>293.34</ele>
        <time>2015-09-13T09:36:47Z</time>
      </trkpt>
      <trkpt lat="45.95603" lon="4.63322">
        <ele>296.22</ele>
        <time>2015-09-13T09:37:00Z</time>
      </trkpt>
      <trkpt lat="45.95602" lon="4.63323">
        <ele>296.22</ele>
        <time>2015-09-13T09:37:10Z</time>
      </trkpt>
      <trkpt lat="45.95597" lon="4.63333">
        <ele>301.03</ele>
        <time>2015-09-13T09:37:26Z</time>
      </trkpt>
      <trkpt lat="45.95592" lon="4.63343">
        <ele>305.36</ele>
        <time>2015-09-13T09:37:41Z</time>
      </trkpt>
      <trkpt lat="45.9559" lon="4.63347">
        <ele>306.32</ele>
        <time>2015-09-13T09:37:54Z</time>
      </trkpt>
      <trkpt lat="45.95586" lon="4.63366">
        <ele>308.72</ele>
        <time>2015-09-13T09:38:06Z</time>
      </trkpt>
      <trkpt lat="45.95583" lon="4.63377">
        <ele>309.2</ele>
        <time>2015-09-13T09:38:12Z</time>
      </trkpt>
      <trkpt lat="45.95581" lon="4.63382">
        <ele>309.2</ele>
        <time>2015-09-13T09:38:16Z</time>
      </trkpt>
      <trkpt lat="45.9557" lon="4.63405">
        <ele>310.16</ele>
        <time>2015-09-13T09:38:31Z</time>
      </trkpt>
      <trkpt lat="45.95559" lon="4.63429">
        <ele>311.6</ele>
        <time>2015-09-13T09:38:47Z</time>
      </trkpt>
      <trkpt lat="45.95551" lon="4.63453">
        <ele>313.53</ele>
        <time>2015-09-13T09:38:59Z</time>
      </trkpt>
      <trkpt lat="45.95539" lon="4.63482">
        <ele>314.97</ele>
        <time>2015-09-13T09:39:12Z</time>
      </trkpt>
      <trkpt lat="45.95528" lon="4.63504">
        <ele>316.41</ele>
        <time>2015-09-13T09:39:23Z</time>
      </trkpt>
      <trkpt lat="45.95504" lon="4.63532">
        <ele>314.97</ele>
        <time>2015-09-13T09:39:36Z</time>
      </trkpt>
      <trkpt lat="45.9549" lon="4.63547">
        <ele>317.85</ele>
        <time>2015-09-13T09:39:47Z</time>
      </trkpt>
      <trkpt lat="45.95489" lon="4.63549">
        <ele>317.85</ele>
        <time>2015-09-13T09:40:02Z</time>
      </trkpt>
      <trkpt lat="45.95488" lon="4.6355">
        <ele>317.85</ele>
        <time>2015-09-13T09:40:20Z</time>
      </trkpt>
      <trkpt lat="45.95488" lon="4.6355">
        <ele>317.85</ele>
        <time>2015-09-13T09:40:39Z</time>
      </trkpt>
      <trkpt lat="45.95488" lon="4.6355">
        <ele>317.85</ele>
        <time>2015-09-13T09:40:43Z</time>
      </trkpt>
      <trkpt lat="45.95462" lon="4.63577">
        <ele>316.89</ele>
        <time>2015-09-13T09:40:56Z</time>
      </trkpt>
      <trkpt lat="45.95431" lon="4.63622">
        <ele>316.41</ele>
        <time>2015-09-13T09:41:10Z</time>
      </trkpt>
      <trkpt lat="45.95411" lon="4.6369">
        <ele>314.97</ele>
        <time>2015-09-13T09:41:24Z</time>
      </trkpt>
      <trkpt lat="45.95405" lon="4.63689">
        <ele>314.49</ele>
        <time>2015-09-13T09:41:28Z</time>
      </trkpt>
      <trkpt lat="45.95399" lon="4.6367">
        <ele>314.97</ele>
        <time>2015-09-13T09:41:35Z</time>
      </trkpt>
      <trkpt lat="45.95383" lon="4.63649">
        <ele>314.97</ele>
        <time>2015-09-13T09:41:47Z</time>
      </trkpt>
      <trkpt lat="45.95355" lon="4.63626">
        <ele>318.81</ele>
        <time>2015-09-13T09:42:02Z</time>
      </trkpt>
      <trkpt lat="45.95331" lon="4.63596">
        <ele>321.7</ele>
        <time>2015-09-13T09:42:17Z</time>
      </trkpt>
      <trkpt lat="45.95311" lon="4.63563">
        <ele>324.1</ele>
        <time>2015-09-13T09:42:31Z</time>
      </trkpt>
      <trkpt lat="45.95286" lon="4.63536">
        <ele>326.5</ele>
        <time>2015-09-13T09:42:46Z</time>
      </trkpt>
      <trkpt lat="45.95247" lon="4.63538">
        <ele>326.99</ele>
        <time>2015-09-13T09:43:01Z</time>
      </trkpt>
      <trkpt lat="45.95193" lon="4.63533">
        <ele>328.43</ele>
        <time>2015-09-13T09:43:18Z</time>
      </trkpt>
      <trkpt lat="45.95137" lon="4.6353">
        <ele>327.95</ele>
        <time>2015-09-13T09:43:35Z</time>
      </trkpt>
      <trkpt lat="45.9508" lon="4.63518">
        <ele>328.91</ele>
        <time>2015-09-13T09:43:52Z</time>
      </trkpt>
      <trkpt lat="45.95041" lon="4.63513">
        <ele>329.87</ele>
        <time>2015-09-13T09:44:02Z</time>
      </trkpt>
      <trkpt lat="45.94999" lon="4.63508">
        <ele>329.87</ele>
        <time>2015-09-13T09:44:15Z</time>
      </trkpt>
      <trkpt lat="45.94947" lon="4.63517">
        <ele>328.43</ele>
        <time>2015-09-13T09:44:29Z</time>
      </trkpt>
      <trkpt lat="45.94932" lon="4.63527">
        <ele>327.95</ele>
        <time>2015-09-13T09:44:33Z</time>
      </trkpt>
      <trkpt lat="45.94876" lon="4.63554">
        <ele>326.02</ele>
        <time>2015-09-13T09:44:46Z</time>
      </trkpt>
      <trkpt lat="45.94802" lon="4.63598">
        <ele>321.22</ele>
        <time>2015-09-13T09:45:00Z</time>
      </trkpt>
      <trkpt lat="45.94792" lon="4.63607">
        <ele>320.26</ele>
        <time>2015-09-13T09:45:02Z</time>
      </trkpt>
      <trkpt lat="45.94766" lon="4.63638">
        <ele>315.93</ele>
        <time>2015-09-13T09:45:07Z</time>
      </trkpt>
      <trkpt lat="45.94694" lon="4.63742">
        <ele>310.16</ele>
        <time>2015-09-13T09:45:21Z</time>
      </trkpt>
      <trkpt lat="45.94665" lon="4.63796">
        <ele>309.68</ele>
        <time>2015-09-13T09:45:30Z</time>
      </trkpt>
      <trkpt lat="45.94635" lon="4.63842">
        <ele>310.64</ele>
        <time>2015-09-13T09:45:39Z</time>
      </trkpt>
      <trkpt lat="45.94606" lon="4.63894">
        <ele>312.09</ele>
        <time>2015-09-13T09:45:49Z</time>
      </trkpt>
      <trkpt lat="45.94593" lon="4.6391">
        <ele>312.09</ele>
        <time>2015-09-13T09:45:53Z</time>
      </trkpt>
      <trkpt lat="45.9458" lon="4.63926">
        <ele>311.6</ele>
        <time>2015-09-13T09:45:57Z</time>
      </trkpt>
      <trkpt lat="45.94574" lon="4.63936">
        <ele>311.6</ele>
        <time>2015-09-13T09:45:59Z</time>
      </trkpt>
      <trkpt lat="45.94547" lon="4.64005">
        <ele>309.68</ele>
        <time>2015-09-13T09:46:11Z</time>
      </trkpt>
      <trkpt lat="45.94529" lon="4.64063">
        <ele>308.24</ele>
        <time>2015-09-13T09:46:20Z</time>
      </trkpt>
      <trkpt lat="45.94521" lon="4.64101">
        <ele>307.76</ele>
        <time>2015-09-13T09:46:25Z</time>
      </trkpt>
      <trkpt lat="45.94504" lon="4.64198">
        <ele>303.43</ele>
        <time>2015-09-13T09:46:37Z</time>
      </trkpt>
      <trkpt lat="45.94495" lon="4.64224">
        <ele>302.95</ele>
        <time>2015-09-13T09:46:40Z</time>
      </trkpt>
      <trkpt lat="45.9446" lon="4.6429">
        <ele>301.99</ele>
        <time>2015-09-13T09:46:51Z</time>
      </trkpt>
      <trkpt lat="45.94417" lon="4.64331">
        <ele>305.36</ele>
        <time>2015-09-13T09:47:06Z</time>
      </trkpt>
      <trkpt lat="45.94414" lon="4.64335">
        <ele>305.36</ele>
        <time>2015-09-13T09:47:07Z</time>
      </trkpt>
      <trkpt lat="45.94371" lon="4.64423">
        <ele>300.07</ele>
        <time>2015-09-13T09:47:22Z</time>
      </trkpt>
      <trkpt lat="45.94332" lon="4.64491">
        <ele>297.18</ele>
        <time>2015-09-13T09:47:31Z</time>
      </trkpt>
      <trkpt lat="45.94319" lon="4.64549">
        <ele>294.3</ele>
        <time>2015-09-13T09:47:37Z</time>
      </trkpt>
      <trkpt lat="45.94294" lon="4.64659">
        <ele>288.53</ele>
        <time>2015-09-13T09:47:48Z</time>
      </trkpt>
      <trkpt lat="45.94247" lon="4.6477">
        <ele>280.84</ele>
        <time>2015-09-13T09:47:58Z</time>
      </trkpt>
      <trkpt lat="45.94225" lon="4.64852">
        <ele>276.04</ele>
        <time>2015-09-13T09:48:04Z</time>
      </trkpt>
      <trkpt lat="45.94189" lon="4.65017">
        <ele>266.9</ele>
        <time>2015-09-13T09:48:15Z</time>
      </trkpt>
      <trkpt lat="45.94185" lon="4.65032">
        <ele>265.94</ele>
        <time>2015-09-13T09:48:16Z</time>
      </trkpt>
      <trkpt lat="45.94168" lon="4.6509">
        <ele>262.58</ele>
        <time>2015-09-13T09:48:20Z</time>
      </trkpt>
      <trkpt lat="45.9414" lon="4.65172">
        <ele>258.25</ele>
        <time>2015-09-13T09:48:27Z</time>
      </trkpt>
      <trkpt lat="45.94123" lon="4.65178">
        <ele>257.77</ele>
        <time>2015-09-13T09:48:33Z</time>
      </trkpt>
      <trkpt lat="45.94111" lon="4.65153">
        <ele>258.25</ele>
        <time>2015-09-13T09:48:38Z</time>
      </trkpt>
      <trkpt lat="45.94103" lon="4.65138">
        <ele>258.25</ele>
        <time>2015-09-13T09:48:41Z</time>
      </trkpt>
      <trkpt lat="45.94093" lon="4.65127">
        <ele>258.25</ele>
        <time>2015-09-13T09:48:49Z</time>
      </trkpt>
      <trkpt lat="45.94081" lon="4.65114">
        <ele>257.77</ele>
        <time>2015-09-13T09:48:56Z</time>
      </trkpt>
      <trkpt lat="45.94082" lon="4.651">
        <ele>258.73</ele>
        <time>2015-09-13T09:49:03Z</time>
      </trkpt>
      <trkpt lat="45.94084" lon="4.65085">
        <ele>259.21</ele>
        <time>2015-09-13T09:49:10Z</time>
      </trkpt>
      <trkpt lat="45.94085" lon="4.65072">
        <ele>261.14</ele>
        <time>2015-09-13T09:49:24Z</time>
      </trkpt>
      <trkpt lat="45.94092" lon="4.65055">
        <ele>264.02</ele>
        <time>2015-09-13T09:49:38Z</time>
      </trkpt>
      <trkpt lat="45.94095" lon="4.65034">
        <ele>268.83</ele>
        <time>2015-09-13T09:49:50Z</time>
      </trkpt>
      <trkpt lat="45.94099" lon="4.65013">
        <ele>274.11</ele>
        <time>2015-09-13T09:50:03Z</time>
      </trkpt>
      <trkpt lat="45.94102" lon="4.64996">
        <ele>274.11</ele>
        <time>2015-09-13T09:50:15Z</time>
      </trkpt>
      <trkpt lat="45.94105" lon="4.64966">
        <ele>275.07</ele>
        <time>2015-09-13T09:50:29Z</time>
      </trkpt>
      <trkpt lat="45.94104" lon="4.64957">
        <ele>275.56</ele>
        <time>2015-09-13T09:50:32Z</time>
      </trkpt>
      <trkpt lat="45.94104" lon="4.64949">
        <ele>276.04</ele>
        <time>2015-09-13T09:50:35Z</time>
      </trkpt>
      <trkpt lat="45.94103" lon="4.6493">
        <ele>277.48</ele>
        <time>2015-09-13T09:50:43Z</time>
      </trkpt>
      <trkpt lat="45.94103" lon="4.64923">
        <ele>277.96</ele>
        <time>2015-09-13T09:50:46Z</time>
      </trkpt>
      <trkpt lat="45.94088" lon="4.64892">
        <ele>280.36</ele>
        <time>2015-09-13T09:51:02Z</time>
      </trkpt>
      <trkpt lat="45.94074" lon="4.64869">
        <ele>283.25</ele>
        <time>2015-09-13T09:51:17Z</time>
      </trkpt>
      <trkpt lat="45.94059" lon="4.64847">
        <ele>286.13</ele>
        <time>2015-09-13T09:51:32Z</time>
      </trkpt>
      <trkpt lat="45.94043" lon="4.64831">
        <ele>288.05</ele>
        <time>2015-09-13T09:51:46Z</time>
      </trkpt>
      <trkpt lat="45.94024" lon="4.64818">
        <ele>290.46</ele>
        <time>2015-09-13T09:52:02Z</time>
      </trkpt>
      <trkpt lat="45.94007" lon="4.64808">
        <ele>291.42</ele>
        <time>2015-09-13T09:52:16Z</time>
      </trkpt>
      <trkpt lat="45.93985" lon="4.64793">
        <ele>293.82</ele>
        <time>2015-09-13T09:52:31Z</time>
      </trkpt>
      <trkpt lat="45.93968" lon="4.64779">
        <ele>297.18</ele>
        <time>2015-09-13T09:52:45Z</time>
      </trkpt>
      <trkpt lat="45.93953" lon="4.64762">
        <ele>300.07</ele>
        <time>2015-09-13T09:52:58Z</time>
      </trkpt>
      <trkpt lat="45.93945" lon="4.64752">
        <ele>301.51</ele>
        <time>2015-09-13T09:53:06Z</time>
      </trkpt>
      <trkpt lat="45.93934" lon="4.6474">
        <ele>301.51</ele>
        <time>2015-09-13T09:53:13Z</time>
      </trkpt>
      <trkpt lat="45.93927" lon="4.64732">
        <ele>301.51</ele>
        <time>2015-09-13T09:53:17Z</time>
      </trkpt>
      <trkpt lat="45.93919" lon="4.64722">
        <ele>300.55</ele>
        <time>2015-09-13T09:53:23Z</time>
      </trkpt>
      <trkpt lat="45.93912" lon="4.64712">
        <ele>299.59</ele>
        <time>2015-09-13T09:53:29Z</time>
      </trkpt>
      <trkpt lat="45.93893" lon="4.64685">
        <ele>300.07</ele>
        <time>2015-09-13T09:53:45Z</time>
      </trkpt>
      <trkpt lat="45.93878" lon="4.64663">
        <ele>302.47</ele>
        <time>2015-09-13T09:53:59Z</time>
      </trkpt>
      <trkpt lat="45.93867" lon="4.64631">
        <ele>304.39</ele>
        <time>2015-09-13T09:54:15Z</time>
      </trkpt>
      <trkpt lat="45.93861" lon="4.64599">
        <ele>306.32</ele>
        <time>2015-09-13T09:54:32Z</time>
      </trkpt>
      <trkpt lat="45.93854" lon="4.64566">
        <ele>306.8</ele>
        <time>2015-09-13T09:54:49Z</time>
      </trkpt>
      <trkpt lat="45.93852" lon="4.64546">
        <ele>306.8</ele>
        <time>2015-09-13T09:55:03Z</time>
      </trkpt>
      <trkpt lat="45.93852" lon="4.64545">
        <ele>307.28</ele>
        <time>2015-09-13T09:55:24Z</time>
      </trkpt>
      <trkpt lat="45.93849" lon="4.64536">
        <ele>307.28</ele>
        <time>2015-09-13T09:55:43Z</time>
      </trkpt>
      <trkpt lat="45.93842" lon="4.64497">
        <ele>309.2</ele>
        <time>2015-09-13T09:55:58Z</time>
      </trkpt>
      <trkpt lat="45.93831" lon="4.64458">
        <ele>309.2</ele>
        <time>2015-09-13T09:56:10Z</time>
      </trkpt>
      <trkpt lat="45.93815" lon="4.64395">
        <ele>309.68</ele>
        <time>2015-09-13T09:56:26Z</time>
      </trkpt>
      <trkpt lat="45.93811" lon="4.64354">
        <ele>310.16</ele>
        <time>2015-09-13T09:56:37Z</time>
      </trkpt>
      <trkpt lat="45.93807" lon="4.64313">
        <ele>310.64</ele>
        <time>2015-09-13T09:56:47Z</time>
      </trkpt>
      <trkpt lat="45.93792" lon="4.64261">
        <ele>310.16</ele>
        <time>2015-09-13T09:57:00Z</time>
      </trkpt>
      <trkpt lat="45.93777" lon="4.64207">
        <ele>311.12</ele>
        <time>2015-09-13T09:57:14Z</time>
      </trkpt>
      <trkpt lat="45.93765" lon="4.64147">
        <ele>312.57</ele>
        <time>2015-09-13T09:57:30Z</time>
      </trkpt>
      <trkpt lat="45.93753" lon="4.64098">
        <ele>314.01</ele>
        <time>2015-09-13T09:57:44Z</time>
      </trkpt>
      <trkpt lat="45.9374" lon="4.6404">
        <ele>314.97</ele>
        <time>2015-09-13T09:58:00Z</time>
      </trkpt>
      <trkpt lat="45.93731" lon="4.63996">
        <ele>317.37</ele>
        <time>2015-09-13T09:58:14Z</time>
      </trkpt>
      <trkpt lat="45.93729" lon="4.63953">
        <ele>318.81</ele>
        <time>2015-09-13T09:58:30Z</time>
      </trkpt>
      <trkpt lat="45.93727" lon="4.63929">
        <ele>320.26</ele>
        <time>2015-09-13T09:58:40Z</time>
      </trkpt>
      <trkpt lat="45.93726" lon="4.63918">
        <ele>319.78</ele>
        <time>2015-09-13T09:58:45Z</time>
      </trkpt>
      <trkpt lat="45.93705" lon="4.63898">
        <ele>323.14</ele>
        <time>2015-09-13T09:59:00Z</time>
      </trkpt>
      <trkpt lat="45.93697" lon="4.6387">
        <ele>325.06</ele>
        <time>2015-09-13T09:59:14Z</time>
      </trkpt>
      <trkpt lat="45.937" lon="4.63837">
        <ele>327.47</ele>
        <time>2015-09-13T09:59:28Z</time>
      </trkpt>
      <trkpt lat="45.93705" lon="4.63793">
        <ele>328.91</ele>
        <time>2015-09-13T09:59:45Z</time>
      </trkpt>
      <trkpt lat="45.93711" lon="4.63752">
        <ele>328.91</ele>
        <time>2015-09-13T10:00:01Z</time>
      </trkpt>
      <trkpt lat="45.93714" lon="4.63708">
        <ele>331.31</ele>
        <time>2015-09-13T10:00:17Z</time>
      </trkpt>
      <trkpt lat="45.93719" lon="4.63658">
        <ele>333.23</ele>
        <time>2015-09-13T10:00:35Z</time>
      </trkpt>
      <trkpt lat="45.93723" lon="4.63625">
        <ele>334.2</ele>
        <time>2015-09-13T10:00:46Z</time>
      </trkpt>
      <trkpt lat="45.93725" lon="4.63599">
        <ele>334.68</ele>
        <time>2015-09-13T10:00:53Z</time>
      </trkpt>
      <trkpt lat="45.93711" lon="4.63587">
        <ele>334.68</ele>
        <time>2015-09-13T10:01:02Z</time>
      </trkpt>
      <trkpt lat="45.93709" lon="4.63587">
        <ele>335.16</ele>
        <time>2015-09-13T10:01:03Z</time>
      </trkpt>
      <trkpt lat="45.93665" lon="4.6358">
        <ele>335.16</ele>
        <time>2015-09-13T10:01:22Z</time>
      </trkpt>
      <trkpt lat="45.93623" lon="4.63579">
        <ele>335.16</ele>
        <time>2015-09-13T10:01:38Z</time>
      </trkpt>
      <trkpt lat="45.93592" lon="4.63566">
        <ele>334.68</ele>
        <time>2015-09-13T10:01:49Z</time>
      </trkpt>
      <trkpt lat="45.93581" lon="4.63582">
        <ele>333.71</ele>
        <time>2015-09-13T10:01:56Z</time>
      </trkpt>
      <trkpt lat="45.93558" lon="4.63646">
        <ele>330.83</ele>
        <time>2015-09-13T10:02:10Z</time>
      </trkpt>
      <trkpt lat="45.9354" lon="4.63671">
        <ele>329.39</ele>
        <time>2015-09-13T10:02:16Z</time>
      </trkpt>
      <trkpt lat="45.93538" lon="4.63684">
        <ele>328.43</ele>
        <time>2015-09-13T10:02:18Z</time>
      </trkpt>
      <trkpt lat="45.93518" lon="4.63713">
        <ele>326.02</ele>
        <time>2015-09-13T10:02:25Z</time>
      </trkpt>
      <trkpt lat="45.93497" lon="4.63706">
        <ele>324.1</ele>
        <time>2015-09-13T10:02:29Z</time>
      </trkpt>
      <trkpt lat="45.93468" lon="4.63701">
        <ele>322.66</ele>
        <time>2015-09-13T10:02:34Z</time>
      </trkpt>
      <trkpt lat="45.93449" lon="4.63704">
        <ele>322.18</ele>
        <time>2015-09-13T10:02:39Z</time>
      </trkpt>
      <trkpt lat="45.93413" lon="4.63718">
        <ele>325.06</ele>
        <time>2015-09-13T10:02:56Z</time>
      </trkpt>
      <trkpt lat="45.93389" lon="4.63722">
        <ele>326.5</ele>
        <time>2015-09-13T10:03:07Z</time>
      </trkpt>
      <trkpt lat="45.9336" lon="4.63732">
        <ele>326.02</ele>
        <time>2015-09-13T10:03:19Z</time>
      </trkpt>
      <trkpt lat="45.93358" lon="4.63766">
        <ele>326.02</ele>
        <time>2015-09-13T10:03:28Z</time>
      </trkpt>
      <trkpt lat="45.9336" lon="4.63806">
        <ele>325.54</ele>
        <time>2015-09-13T10:03:36Z</time>
      </trkpt>
      <trkpt lat="45.93352" lon="4.63896">
        <ele>323.62</ele>
        <time>2015-09-13T10:03:48Z</time>
      </trkpt>
      <trkpt lat="45.93354" lon="4.63924">
        <ele>322.66</ele>
        <time>2015-09-13T10:03:51Z</time>
      </trkpt>
      <trkpt lat="45.9338" lon="4.64012">
        <ele>321.22</ele>
        <time>2015-09-13T10:04:02Z</time>
      </trkpt>
      <trkpt lat="45.93385" lon="4.64026">
        <ele>321.22</ele>
        <time>2015-09-13T10:04:04Z</time>
      </trkpt>
      <trkpt lat="45.93397" lon="4.6408">
        <ele>319.3</ele>
        <time>2015-09-13T10:04:11Z</time>
      </trkpt>
      <trkpt lat="45.93415" lon="4.64156">
        <ele>314.97</ele>
        <time>2015-09-13T10:04:19Z</time>
      </trkpt>
      <trkpt lat="45.93406" lon="4.64188">
        <ele>312.57</ele>
        <time>2015-09-13T10:04:23Z</time>
      </trkpt>
      <trkpt lat="45.93369" lon="4.64218">
        <ele>306.8</ele>
        <time>2015-09-13T10:04:30Z</time>
      </trkpt>
      <trkpt lat="45.93315" lon="4.64258">
        <ele>295.26</ele>
        <time>2015-09-13T10:04:41Z</time>
      </trkpt>
      <trkpt lat="45.93306" lon="4.64267">
        <ele>293.34</ele>
        <time>2015-09-13T10:04:43Z</time>
      </trkpt>
      <trkpt lat="45.93284" lon="4.64256">
        <ele>287.57</ele>
        <time>2015-09-13T10:04:49Z</time>
      </trkpt>
      <trkpt lat="45.93263" lon="4.64234">
        <ele>282.77</ele>
        <time>2015-09-13T10:04:54Z</time>
      </trkpt>
      <trkpt lat="45.93251" lon="4.64216">
        <ele>279.88</ele>
        <time>2015-09-13T10:04:57Z</time>
      </trkpt>
      <trkpt lat="45.93231" lon="4.64197">
        <ele>275.07</ele>
        <time>2015-09-13T10:05:06Z</time>
      </trkpt>
      <trkpt lat="45.93208" lon="4.64184">
        <ele>275.07</ele>
        <time>2015-09-13T10:05:18Z</time>
      </trkpt>
      <trkpt lat="45.93196" lon="4.64181">
        <ele>277.96</ele>
        <time>2015-09-13T10:05:27Z</time>
      </trkpt>
      <trkpt lat="45.93189" lon="4.64182">
        <ele>282.28</ele>
        <time>2015-09-13T10:05:41Z</time>
      </trkpt>
      <trkpt lat="45.93185" lon="4.64182">
        <ele>285.17</ele>
        <time>2015-09-13T10:05:58Z</time>
      </trkpt>
      <trkpt lat="45.93184" lon="4.64192">
        <ele>286.13</ele>
        <time>2015-09-13T10:06:25Z</time>
      </trkpt>
      <trkpt lat="45.93184" lon="4.64212">
        <ele>285.65</ele>
        <time>2015-09-13T10:06:33Z</time>
      </trkpt>
      <trkpt lat="45.93177" lon="4.64227">
        <ele>283.73</ele>
        <time>2015-09-13T10:06:39Z</time>
      </trkpt>
      <trkpt lat="45.93184" lon="4.64282">
        <ele>279.4</ele>
        <time>2015-09-13T10:06:53Z</time>
      </trkpt>
      <trkpt lat="45.93192" lon="4.64327">
        <ele>280.84</ele>
        <time>2015-09-13T10:07:02Z</time>
      </trkpt>
      <trkpt lat="45.93193" lon="4.64331">
        <ele>280.84</ele>
        <time>2015-09-13T10:07:03Z</time>
      </trkpt>
      <trkpt lat="45.93197" lon="4.64352">
        <ele>281.32</ele>
        <time>2015-09-13T10:07:07Z</time>
      </trkpt>
      <trkpt lat="45.93209" lon="4.644">
        <ele>281.32</ele>
        <time>2015-09-13T10:07:17Z</time>
      </trkpt>
      <trkpt lat="45.9322" lon="4.64443">
        <ele>283.73</ele>
        <time>2015-09-13T10:07:28Z</time>
      </trkpt>
      <trkpt lat="45.93233" lon="4.64471">
        <ele>285.17</ele>
        <time>2015-09-13T10:07:35Z</time>
      </trkpt>
      <trkpt lat="45.93254" lon="4.64496">
        <ele>285.65</ele>
        <time>2015-09-13T10:07:46Z</time>
      </trkpt>
      <trkpt lat="45.93286" lon="4.64516">
        <ele>286.13</ele>
        <time>2015-09-13T10:07:57Z</time>
      </trkpt>
      <trkpt lat="45.93304" lon="4.64529">
        <ele>288.05</ele>
        <time>2015-09-13T10:08:05Z</time>
      </trkpt>
      <trkpt lat="45.93326" lon="4.6455">
        <ele>289.49</ele>
        <time>2015-09-13T10:08:14Z</time>
      </trkpt>
      <trkpt lat="45.93331" lon="4.64566">
        <ele>288.53</ele>
        <time>2015-09-13T10:08:19Z</time>
      </trkpt>
      <trkpt lat="45.93334" lon="4.64578">
        <ele>288.05</ele>
        <time>2015-09-13T10:08:24Z</time>
      </trkpt>
      <trkpt lat="45.93339" lon="4.64601">
        <ele>287.57</ele>
        <time>2015-09-13T10:08:32Z</time>
      </trkpt>
      <trkpt lat="45.93341" lon="4.64606">
        <ele>287.57</ele>
        <time>2015-09-13T10:08:34Z</time>
      </trkpt>
      <trkpt lat="45.93344" lon="4.64617">
        <ele>287.57</ele>
        <time>2015-09-13T10:08:39Z</time>
      </trkpt>
      <trkpt lat="45.93349" lon="4.64636">
        <ele>287.57</ele>
        <time>2015-09-13T10:08:47Z</time>
      </trkpt>
      <trkpt lat="45.93354" lon="4.64654">
        <ele>287.09</ele>
        <time>2015-09-13T10:08:55Z</time>
      </trkpt>
      <trkpt lat="45.93355" lon="4.64682">
        <ele>287.09</ele>
        <time>2015-09-13T10:09:07Z</time>
      </trkpt>
      <trkpt lat="45.93353" lon="4.64712">
        <ele>287.09</ele>
        <time>2015-09-13T10:09:20Z</time>
      </trkpt>
      <trkpt lat="45.93356" lon="4.64721">
        <ele>286.61</ele>
        <time>2015-09-13T10:09:26Z</time>
      </trkpt>
      <trkpt lat="45.93362" lon="4.64747">
        <ele>286.61</ele>
        <time>2015-09-13T10:09:39Z</time>
      </trkpt>
      <trkpt lat="45.93365" lon="4.64757">
        <ele>286.61</ele>
        <time>2015-09-13T10:09:42Z</time>
      </trkpt>
      <trkpt lat="45.93369" lon="4.64772">
        <ele>286.61</ele>
        <time>2015-09-13T10:09:50Z</time>
      </trkpt>
      <trkpt lat="45.93368" lon="4.64782">
        <ele>286.61</ele>
        <time>2015-09-13T10:09:55Z</time>
      </trkpt>
      <trkpt lat="45.93367" lon="4.64792">
        <ele>286.61</ele>
        <time>2015-09-13T10:09:59Z</time>
      </trkpt>
      <trkpt lat="45.93371" lon="4.64818">
        <ele>287.09</ele>
        <time>2015-09-13T10:10:11Z</time>
      </trkpt>
      <trkpt lat="45.93388" lon="4.64848">
        <ele>307.76</ele>
        <time>2015-09-13T10:10:21Z</time>
      </trkpt>
      <trkpt lat="45.9339" lon="4.64855">
        <ele>309.2</ele>
        <time>2015-09-13T10:10:25Z</time>
      </trkpt>
      <trkpt lat="45.93391" lon="4.64869">
        <ele>311.12</ele>
        <time>2015-09-13T10:10:32Z</time>
      </trkpt>
      <trkpt lat="45.93395" lon="4.64879">
        <ele>311.12</ele>
        <time>2015-09-13T10:10:37Z</time>
      </trkpt>
      <trkpt lat="45.934" lon="4.64901">
        <ele>312.09</ele>
        <time>2015-09-13T10:10:48Z</time>
      </trkpt>
      <trkpt lat="45.93401" lon="4.64906">
        <ele>312.57</ele>
        <time>2015-09-13T10:10:50Z</time>
      </trkpt>
      <trkpt lat="45.93408" lon="4.64943">
        <ele>307.76</ele>
        <time>2015-09-13T10:11:04Z</time>
      </trkpt>
      <trkpt lat="45.93416" lon="4.64985">
        <ele>306.8</ele>
        <time>2015-09-13T10:11:16Z</time>
      </trkpt>
      <trkpt lat="45.93428" lon="4.65032">
        <ele>307.28</ele>
        <time>2015-09-13T10:11:27Z</time>
      </trkpt>
      <trkpt lat="45.93441" lon="4.65077">
        <ele>306.8</ele>
        <time>2015-09-13T10:11:40Z</time>
      </trkpt>
      <trkpt lat="45.9345" lon="4.65112">
        <ele>306.8</ele>
        <time>2015-09-13T10:11:50Z</time>
      </trkpt>
      <trkpt lat="45.9346" lon="4.65155">
        <ele>307.28</ele>
        <time>2015-09-13T10:12:03Z</time>
      </trkpt>
      <trkpt lat="45.93474" lon="4.65208">
        <ele>307.28</ele>
        <time>2015-09-13T10:12:15Z</time>
      </trkpt>
      <trkpt lat="45.93475" lon="4.65274">
        <ele>308.24</ele>
        <time>2015-09-13T10:12:30Z</time>
      </trkpt>
      <trkpt lat="45.93477" lon="4.65333">
        <ele>309.68</ele>
        <time>2015-09-13T10:12:44Z</time>
      </trkpt>
      <trkpt lat="45.9348" lon="4.65383">
        <ele>308.72</ele>
        <time>2015-09-13T10:12:56Z</time>
      </trkpt>
      <trkpt lat="45.9348" lon="4.65447">
        <ele>308.72</ele>
        <time>2015-09-13T10:13:10Z</time>
      </trkpt>
      <trkpt lat="45.9348" lon="4.65505">
        <ele>309.2</ele>
        <time>2015-09-13T10:13:23Z</time>
      </trkpt>
      <trkpt lat="45.93483" lon="4.65561">
        <ele>309.2</ele>
        <time>2015-09-13T10:13:36Z</time>
      </trkpt>
      <trkpt lat="45.93486" lon="4.65587">
        <ele>309.68</ele>
        <time>2015-09-13T10:13:42Z</time>
      </trkpt>
      <trkpt lat="45.93486" lon="4.65606">
        <ele>309.68</ele>
        <time>2015-09-13T10:13:47Z</time>
      </trkpt>
      <trkpt lat="45.93476" lon="4.6566">
        <ele>308.72</ele>
        <time>2015-09-13T10:13:58Z</time>
      </trkpt>
      <trkpt lat="45.93466" lon="4.65736">
        <ele>306.8</ele>
        <time>2015-09-13T10:14:12Z</time>
      </trkpt>
      <trkpt lat="45.93458" lon="4.65851">
        <ele>300.07</ele>
        <time>2015-09-13T10:14:29Z</time>
      </trkpt>
      <trkpt lat="45.93454" lon="4.65888">
        <ele>297.67</ele>
        <time>2015-09-13T10:14:33Z</time>
      </trkpt>
      <trkpt lat="45.93454" lon="4.65897">
        <ele>297.18</ele>
        <time>2015-09-13T10:14:34Z</time>
      </trkpt>
      <trkpt lat="45.93456" lon="4.65906">
        <ele>297.18</ele>
        <time>2015-09-13T10:14:35Z</time>
      </trkpt>
      <trkpt lat="45.93459" lon="4.65925">
        <ele>296.22</ele>
        <time>2015-09-13T10:14:37Z</time>
      </trkpt>
      <trkpt lat="45.93462" lon="4.65951">
        <ele>294.78</ele>
        <time>2015-09-13T10:14:40Z</time>
      </trkpt>
      <trkpt lat="45.93463" lon="4.65958">
        <ele>294.3</ele>
        <time>2015-09-13T10:14:41Z</time>
      </trkpt>
      <trkpt lat="45.93472" lon="4.65984">
        <ele>291.42</ele>
        <time>2015-09-13T10:14:49Z</time>
      </trkpt>
      <trkpt lat="45.93472" lon="4.65986">
        <ele>290.94</ele>
        <time>2015-09-13T10:14:50Z</time>
      </trkpt>
      <trkpt lat="45.93472" lon="4.65989">
        <ele>290.46</ele>
        <time>2015-09-13T10:14:51Z</time>
      </trkpt>
      <trkpt lat="45.93472" lon="4.65992">
        <ele>289.97</ele>
        <time>2015-09-13T10:14:52Z</time>
      </trkpt>
      <trkpt lat="45.93472" lon="4.65995">
        <ele>289.49</ele>
        <time>2015-09-13T10:14:53Z</time>
      </trkpt>
      <trkpt lat="45.93472" lon="4.65998">
        <ele>289.01</ele>
        <time>2015-09-13T10:14:54Z</time>
      </trkpt>
      <trkpt lat="45.93473" lon="4.66001">
        <ele>288.53</ele>
        <time>2015-09-13T10:14:55Z</time>
      </trkpt>
      <trkpt lat="45.93473" lon="4.66004">
        <ele>288.05</ele>
        <time>2015-09-13T10:14:56Z</time>
      </trkpt>
      <trkpt lat="45.93474" lon="4.66006">
        <ele>287.57</ele>
        <time>2015-09-13T10:14:57Z</time>
      </trkpt>
      <trkpt lat="45.93478" lon="4.66031">
        <ele>284.69</ele>
        <time>2015-09-13T10:15:07Z</time>
      </trkpt>
      <trkpt lat="45.93484" lon="4.6605">
        <ele>285.65</ele>
        <time>2015-09-13T10:15:18Z</time>
      </trkpt>
      <trkpt lat="45.93493" lon="4.66079">
        <ele>288.05</ele>
        <time>2015-09-13T10:15:33Z</time>
      </trkpt>
      <trkpt lat="45.93496" lon="4.66099">
        <ele>289.01</ele>
        <time>2015-09-13T10:15:43Z</time>
      </trkpt>
      <trkpt lat="45.93496" lon="4.66105">
        <ele>289.01</ele>
        <time>2015-09-13T10:15:46Z</time>
      </trkpt>
      <trkpt lat="45.93501" lon="4.66122">
        <ele>289.01</ele>
        <time>2015-09-13T10:15:54Z</time>
      </trkpt>
      <trkpt lat="45.93503" lon="4.66126">
        <ele>289.01</ele>
        <time>2015-09-13T10:15:57Z</time>
      </trkpt>
      <trkpt lat="45.93505" lon="4.66132">
        <ele>289.01</ele>
        <time>2015-09-13T10:16:00Z</time>
      </trkpt>
      <trkpt lat="45.93508" lon="4.66141">
        <ele>289.01</ele>
        <time>2015-09-13T10:16:03Z</time>
      </trkpt>
      <trkpt lat="45.93516" lon="4.66153">
        <ele>288.53</ele>
        <time>2015-09-13T10:16:13Z</time>
      </trkpt>
      <trkpt lat="45.93517" lon="4.66153">
        <ele>288.53</ele>
        <time>2015-09-13T10:16:14Z</time>
      </trkpt>
      <trkpt lat="45.93518" lon="4.66154">
        <ele>289.01</ele>
        <time>2015-09-13T10:16:15Z</time>
      </trkpt>
      <trkpt lat="45.9352" lon="4.66155">
        <ele>289.01</ele>
        <time>2015-09-13T10:16:16Z</time>
      </trkpt>
      <trkpt lat="45.93521" lon="4.66157">
        <ele>289.01</ele>
        <time>2015-09-13T10:16:17Z</time>
      </trkpt>
      <trkpt lat="45.93523" lon="4.66163">
        <ele>289.01</ele>
        <time>2015-09-13T10:16:20Z</time>
      </trkpt>
      <trkpt lat="45.93525" lon="4.66164">
        <ele>289.01</ele>
        <time>2015-09-13T10:16:21Z</time>
      </trkpt>
      <trkpt lat="45.93527" lon="4.66165">
        <ele>289.01</ele>
        <time>2015-09-13T10:16:22Z</time>
      </trkpt>
      <trkpt lat="45.9353" lon="4.66167">
        <ele>289.01</ele>
        <time>2015-09-13T10:16:23Z</time>
      </trkpt>
      <trkpt lat="45.93532" lon="4.66169">
        <ele>289.01</ele>
        <time>2015-09-13T10:16:24Z</time>
      </trkpt>
      <trkpt lat="45.93534" lon="4.6617">
        <ele>289.01</ele>
        <time>2015-09-13T10:16:25Z</time>
      </trkpt>
      <trkpt lat="45.93536" lon="4.66171">
        <ele>289.01</ele>
        <time>2015-09-13T10:16:26Z</time>
      </trkpt>
      <trkpt lat="45.93537" lon="4.66172">
        <ele>289.01</ele>
        <time>2015-09-13T10:16:27Z</time>
      </trkpt>
      <trkpt lat="45.93554" lon="4.6618">
        <ele>289.01</ele>
        <time>2015-09-13T10:16:36Z</time>
      </trkpt>
      <trkpt lat="45.93572" lon="4.66192">
        <ele>288.53</ele>
        <time>2015-09-13T10:16:44Z</time>
      </trkpt>
      <trkpt lat="45.93576" lon="4.66192">
        <ele>289.01</ele>
        <time>2015-09-13T10:16:45Z</time>
      </trkpt>
      <trkpt lat="45.93583" lon="4.66192">
        <ele>289.01</ele>
        <time>2015-09-13T10:16:47Z</time>
      </trkpt>
      <trkpt lat="45.93627" lon="4.66197">
        <ele>288.53</ele>
        <time>2015-09-13T10:16:57Z</time>
      </trkpt>
      <trkpt lat="45.93668" lon="4.6622">
        <ele>288.53</ele>
        <time>2015-09-13T10:17:09Z</time>
      </trkpt>
      <trkpt lat="45.93714" lon="4.66228">
        <ele>297.18</ele>
        <time>2015-09-13T10:17:17Z</time>
      </trkpt>
      <trkpt lat="45.93761" lon="4.66231">
        <ele>306.32</ele>
        <time>2015-09-13T10:17:26Z</time>
      </trkpt>
      <trkpt lat="45.93791" lon="4.66234">
        <ele>305.84</ele>
        <time>2015-09-13T10:17:32Z</time>
      </trkpt>
      <trkpt lat="45.93827" lon="4.66229">
        <ele>301.03</ele>
        <time>2015-09-13T10:17:39Z</time>
      </trkpt>
      <trkpt lat="45.93866" lon="4.66223">
        <ele>296.7</ele>
        <time>2015-09-13T10:17:46Z</time>
      </trkpt>
      <trkpt lat="45.93891" lon="4.66251">
        <ele>293.82</ele>
        <time>2015-09-13T10:17:54Z</time>
      </trkpt>
      <trkpt lat="45.93908" lon="4.66283">
        <ele>291.9</ele>
        <time>2015-09-13T10:18:00Z</time>
      </trkpt>
      <trkpt lat="45.93918" lon="4.66309">
        <ele>289.97</ele>
        <time>2015-09-13T10:18:04Z</time>
      </trkpt>
      <trkpt lat="45.93954" lon="4.66325">
        <ele>287.57</ele>
        <time>2015-09-13T10:18:10Z</time>
      </trkpt>
      <trkpt lat="45.9399" lon="4.66346">
        <ele>288.05</ele>
        <time>2015-09-13T10:18:16Z</time>
      </trkpt>
      <trkpt lat="45.94007" lon="4.66365">
        <ele>287.57</ele>
        <time>2015-09-13T10:18:19Z</time>
      </trkpt>
      <trkpt lat="45.94028" lon="4.664">
        <ele>286.13</ele>
        <time>2015-09-13T10:18:24Z</time>
      </trkpt>
      <trkpt lat="45.94057" lon="4.66444">
        <ele>286.13</ele>
        <time>2015-09-13T10:18:30Z</time>
      </trkpt>
      <trkpt lat="45.94081" lon="4.6648">
        <ele>285.65</ele>
        <time>2015-09-13T10:18:38Z</time>
      </trkpt>
      <trkpt lat="45.94077" lon="4.66496">
        <ele>286.61</ele>
        <time>2015-09-13T10:18:44Z</time>
      </trkpt>
      <trkpt lat="45.94076" lon="4.66528">
        <ele>289.01</ele>
        <time>2015-09-13T10:18:58Z</time>
      </trkpt>
      <trkpt lat="45.94077" lon="4.66532">
        <ele>289.97</ele>
        <time>2015-09-13T10:19:00Z</time>
      </trkpt>
      <trkpt lat="45.94079" lon="4.66539">
        <ele>290.46</ele>
        <time>2015-09-13T10:19:03Z</time>
      </trkpt>
      <trkpt lat="45.94078" lon="4.66544">
        <ele>290.94</ele>
        <time>2015-09-13T10:19:05Z</time>
      </trkpt>
      <trkpt lat="45.94084" lon="4.66579">
        <ele>292.86</ele>
        <time>2015-09-13T10:19:20Z</time>
      </trkpt>
      <trkpt lat="45.94094" lon="4.66606">
        <ele>294.3</ele>
        <time>2015-09-13T10:19:32Z</time>
      </trkpt>
      <trkpt lat="45.94095" lon="4.6661">
        <ele>294.78</ele>
        <time>2015-09-13T10:19:34Z</time>
      </trkpt>
      <trkpt lat="45.94104" lon="4.66634">
        <ele>294.78</ele>
        <time>2015-09-13T10:19:44Z</time>
      </trkpt>
      <trkpt lat="45.9412" lon="4.66664">
        <ele>299.11</ele>
        <time>2015-09-13T10:19:56Z</time>
      </trkpt>
      <trkpt lat="45.94128" lon="4.66676">
        <ele>298.15</ele>
        <time>2015-09-13T10:20:01Z</time>
      </trkpt>
      <trkpt lat="45.94134" lon="4.66713">
        <ele>301.03</ele>
        <time>2015-09-13T10:20:15Z</time>
      </trkpt>
      <trkpt lat="45.94136" lon="4.66716">
        <ele>301.51</ele>
        <time>2015-09-13T10:20:17Z</time>
      </trkpt>
      <trkpt lat="45.94141" lon="4.66743">
        <ele>300.55</ele>
        <time>2015-09-13T10:20:29Z</time>
      </trkpt>
      <trkpt lat="45.94142" lon="4.66751">
        <ele>300.07</ele>
        <time>2015-09-13T10:20:32Z</time>
      </trkpt>
      <trkpt lat="45.94153" lon="4.66784">
        <ele>302.47</ele>
        <time>2015-09-13T10:20:44Z</time>
      </trkpt>
      <trkpt lat="45.94151" lon="4.66786">
        <ele>302.95</ele>
        <time>2015-09-13T10:20:45Z</time>
      </trkpt>
      <trkpt lat="45.94147" lon="4.66798">
        <ele>303.91</ele>
        <time>2015-09-13T10:20:50Z</time>
      </trkpt>
      <trkpt lat="45.94146" lon="4.66829">
        <ele>307.28</ele>
        <time>2015-09-13T10:21:02Z</time>
      </trkpt>
      <trkpt lat="45.94147" lon="4.66838">
        <ele>307.76</ele>
        <time>2015-09-13T10:21:05Z</time>
      </trkpt>
      <trkpt lat="45.94147" lon="4.66864">
        <ele>309.2</ele>
        <time>2015-09-13T10:21:17Z</time>
      </trkpt>
      <trkpt lat="45.94143" lon="4.6688">
        <ele>308.72</ele>
        <time>2015-09-13T10:21:22Z</time>
      </trkpt>
      <trkpt lat="45.94135" lon="4.66902">
        <ele>309.2</ele>
        <time>2015-09-13T10:21:32Z</time>
      </trkpt>
      <trkpt lat="45.94153" lon="4.66926">
        <ele>308.24</ele>
        <time>2015-09-13T10:21:45Z</time>
      </trkpt>
      <trkpt lat="45.94191" lon="4.6695">
        <ele>307.76</ele>
        <time>2015-09-13T10:21:56Z</time>
      </trkpt>
      <trkpt lat="45.94195" lon="4.66953">
        <ele>307.76</ele>
        <time>2015-09-13T10:21:57Z</time>
      </trkpt>
      <trkpt lat="45.94229" lon="4.66979">
        <ele>305.36</ele>
        <time>2015-09-13T10:22:06Z</time>
      </trkpt>
      <trkpt lat="45.94233" lon="4.66982">
        <ele>304.88</ele>
        <time>2015-09-13T10:22:07Z</time>
      </trkpt>
      <trkpt lat="45.94275" lon="4.66995">
        <ele>304.39</ele>
        <time>2015-09-13T10:22:18Z</time>
      </trkpt>
      <trkpt lat="45.94285" lon="4.67">
        <ele>303.91</ele>
        <time>2015-09-13T10:22:21Z</time>
      </trkpt>
      <trkpt lat="45.94292" lon="4.67006">
        <ele>303.91</ele>
        <time>2015-09-13T10:22:25Z</time>
      </trkpt>
      <trkpt lat="45.94295" lon="4.67006">
        <ele>303.91</ele>
        <time>2015-09-13T10:22:26Z</time>
      </trkpt>
      <trkpt lat="45.94298" lon="4.67005">
        <ele>303.91</ele>
        <time>2015-09-13T10:22:27Z</time>
      </trkpt>
      <trkpt lat="45.94344" lon="4.67018">
        <ele>303.43</ele>
        <time>2015-09-13T10:22:37Z</time>
      </trkpt>
      <trkpt lat="45.94379" lon="4.67042">
        <ele>303.43</ele>
        <time>2015-09-13T10:22:47Z</time>
      </trkpt>
      <trkpt lat="45.94411" lon="4.67049">
        <ele>303.43</ele>
        <time>2015-09-13T10:22:56Z</time>
      </trkpt>
      <trkpt lat="45.94421" lon="4.67052">
        <ele>302.95</ele>
        <time>2015-09-13T10:23:01Z</time>
      </trkpt>
      <trkpt lat="45.94422" lon="4.67054">
        <ele>302.95</ele>
        <time>2015-09-13T10:23:02Z</time>
      </trkpt>
      <trkpt lat="45.94423" lon="4.67056">
        <ele>302.95</ele>
        <time>2015-09-13T10:23:03Z</time>
      </trkpt>
      <trkpt lat="45.94425" lon="4.67057">
        <ele>302.95</ele>
        <time>2015-09-13T10:23:04Z</time>
      </trkpt>
      <trkpt lat="45.94426" lon="4.67056">
        <ele>302.95</ele>
        <time>2015-09-13T10:23:05Z</time>
      </trkpt>
      <trkpt lat="45.94428" lon="4.67054">
        <ele>302.95</ele>
        <time>2015-09-13T10:23:08Z</time>
      </trkpt>
      <trkpt lat="45.94427" lon="4.67053">
        <ele>302.95</ele>
        <time>2015-09-13T10:23:10Z</time>
      </trkpt>
      <trkpt lat="45.94425" lon="4.67053">
        <ele>303.43</ele>
        <time>2015-09-13T10:23:11Z</time>
      </trkpt>
      <trkpt lat="45.94424" lon="4.67052">
        <ele>302.95</ele>
        <time>2015-09-13T10:23:12Z</time>
      </trkpt>
      <trkpt lat="45.94423" lon="4.67051">
        <ele>302.95</ele>
        <time>2015-09-13T10:23:13Z</time>
      </trkpt>
      <trkpt lat="45.94421" lon="4.6705">
        <ele>302.95</ele>
        <time>2015-09-13T10:23:14Z</time>
      </trkpt>
      <trkpt lat="45.94419" lon="4.6705">
        <ele>303.43</ele>
        <time>2015-09-13T10:23:15Z</time>
      </trkpt>
      <trkpt lat="45.94413" lon="4.67052">
        <ele>303.91</ele>
        <time>2015-09-13T10:23:28Z</time>
      </trkpt>
      <trkpt lat="45.94409" lon="4.67053">
        <ele>305.36</ele>
        <time>2015-09-13T10:23:58Z</time>
      </trkpt>
      <trkpt lat="45.94407" lon="4.67057">
        <ele>305.36</ele>
        <time>2015-09-13T10:24:02Z</time>
      </trkpt>
      <trkpt lat="45.94384" lon="4.67086">
        <ele>303.43</ele>
        <time>2015-09-13T10:24:13Z</time>
      </trkpt>
      <trkpt lat="45.94357" lon="4.67119">
        <ele>299.11</ele>
        <time>2015-09-13T10:24:25Z</time>
      </trkpt>
      <trkpt lat="45.94324" lon="4.67179">
        <ele>296.22</ele>
        <time>2015-09-13T10:24:38Z</time>
      </trkpt>
      <trkpt lat="45.94321" lon="4.67186">
        <ele>296.7</ele>
        <time>2015-09-13T10:24:39Z</time>
      </trkpt>
      <trkpt lat="45.94313" lon="4.672">
        <ele>296.22</ele>
        <time>2015-09-13T10:24:41Z</time>
      </trkpt>
      <trkpt lat="45.94286" lon="4.67231">
        <ele>294.78</ele>
        <time>2015-09-13T10:24:47Z</time>
      </trkpt>
      <trkpt lat="45.94282" lon="4.67237">
        <ele>294.78</ele>
        <time>2015-09-13T10:24:48Z</time>
      </trkpt>
      <trkpt lat="45.94278" lon="4.67244">
        <ele>294.3</ele>
        <time>2015-09-13T10:24:49Z</time>
      </trkpt>
      <trkpt lat="45.94274" lon="4.67252">
        <ele>294.3</ele>
        <time>2015-09-13T10:24:50Z</time>
      </trkpt>
      <trkpt lat="45.9427" lon="4.6726">
        <ele>293.34</ele>
        <time>2015-09-13T10:24:51Z</time>
      </trkpt>
      <trkpt lat="45.94266" lon="4.67268">
        <ele>292.86</ele>
        <time>2015-09-13T10:24:52Z</time>
      </trkpt>
      <trkpt lat="45.94228" lon="4.67346">
        <ele>288.05</ele>
        <time>2015-09-13T10:25:01Z</time>
      </trkpt>
      <trkpt lat="45.94226" lon="4.67353">
        <ele>287.57</ele>
        <time>2015-09-13T10:25:02Z</time>
      </trkpt>
      <trkpt lat="45.94225" lon="4.67358">
        <ele>287.57</ele>
        <time>2015-09-13T10:25:03Z</time>
      </trkpt>
      <trkpt lat="45.94232" lon="4.67364">
        <ele>286.61</ele>
        <time>2015-09-13T10:25:07Z</time>
      </trkpt>
      <trkpt lat="45.9426" lon="4.67354">
        <ele>288.05</ele>
        <time>2015-09-13T10:25:19Z</time>
      </trkpt>
      <trkpt lat="45.94308" lon="4.67335">
        <ele>289.49</ele>
        <time>2015-09-13T10:25:36Z</time>
      </trkpt>
      <trkpt lat="45.94354" lon="4.67338">
        <ele>289.49</ele>
        <time>2015-09-13T10:25:51Z</time>
      </trkpt>
      <trkpt lat="45.94394" lon="4.67335">
        <ele>288.05</ele>
        <time>2015-09-13T10:26:04Z</time>
      </trkpt>
      <trkpt lat="45.9442" lon="4.67328">
        <ele>288.53</ele>
        <time>2015-09-13T10:26:14Z</time>
      </trkpt>
      <trkpt lat="45.94454" lon="4.67329">
        <ele>290.46</ele>
        <time>2015-09-13T10:26:25Z</time>
      </trkpt>
      <trkpt lat="45.94505" lon="4.67326">
        <ele>292.38</ele>
        <time>2015-09-13T10:26:38Z</time>
      </trkpt>
      <trkpt lat="45.9455" lon="4.6733">
        <ele>292.38</ele>
        <time>2015-09-13T10:26:51Z</time>
      </trkpt>
      <trkpt lat="45.94606" lon="4.67331">
        <ele>290.94</ele>
        <time>2015-09-13T10:27:05Z</time>
      </trkpt>
      <trkpt lat="45.94658" lon="4.67327">
        <ele>291.42</ele>
        <time>2015-09-13T10:27:18Z</time>
      </trkpt>
      <trkpt lat="45.94708" lon="4.67312">
        <ele>290.94</ele>
        <time>2015-09-13T10:27:32Z</time>
      </trkpt>
      <trkpt lat="45.94733" lon="4.67313">
        <ele>290.46</ele>
        <time>2015-09-13T10:27:40Z</time>
      </trkpt>
      <trkpt lat="45.94734" lon="4.67317">
        <ele>290.46</ele>
        <time>2015-09-13T10:27:41Z</time>
      </trkpt>
      <trkpt lat="45.94734" lon="4.67321">
        <ele>290.46</ele>
        <time>2015-09-13T10:27:42Z</time>
      </trkpt>
      <trkpt lat="45.94733" lon="4.67326">
        <ele>290.46</ele>
        <time>2015-09-13T10:27:43Z</time>
      </trkpt>
      <trkpt lat="45.94732" lon="4.67331">
        <ele>290.46</ele>
        <time>2015-09-13T10:27:44Z</time>
      </trkpt>
      <trkpt lat="45.94717" lon="4.67418">
        <ele>287.09</ele>
        <time>2015-09-13T10:27:56Z</time>
      </trkpt>
      <trkpt lat="45.94705" lon="4.67485">
        <ele>282.77</ele>
        <time>2015-09-13T10:28:06Z</time>
      </trkpt>
      <trkpt lat="45.94701" lon="4.67503">
        <ele>282.28</ele>
        <time>2015-09-13T10:28:10Z</time>
      </trkpt>
      <trkpt lat="45.94695" lon="4.67518">
        <ele>281.32</ele>
        <time>2015-09-13T10:28:14Z</time>
      </trkpt>
      <trkpt lat="45.94695" lon="4.67522">
        <ele>281.32</ele>
        <time>2015-09-13T10:28:15Z</time>
      </trkpt>
      <trkpt lat="45.94697" lon="4.67525">
        <ele>280.84</ele>
        <time>2015-09-13T10:28:16Z</time>
      </trkpt>
      <trkpt lat="45.94734" lon="4.67549">
        <ele>279.88</ele>
        <time>2015-09-13T10:28:28Z</time>
      </trkpt>
      <trkpt lat="45.94761" lon="4.67552">
        <ele>279.88</ele>
        <time>2015-09-13T10:28:35Z</time>
      </trkpt>
      <trkpt lat="45.94763" lon="4.67555">
        <ele>279.4</ele>
        <time>2015-09-13T10:28:36Z</time>
      </trkpt>
      <trkpt lat="45.94765" lon="4.6756">
        <ele>279.4</ele>
        <time>2015-09-13T10:28:37Z</time>
      </trkpt>
      <trkpt lat="45.94765" lon="4.67571">
        <ele>278.92</ele>
        <time>2015-09-13T10:28:39Z</time>
      </trkpt>
      <trkpt lat="45.94765" lon="4.67589">
        <ele>277.96</ele>
        <time>2015-09-13T10:28:42Z</time>
      </trkpt>
      <trkpt lat="45.94766" lon="4.67607">
        <ele>277</ele>
        <time>2015-09-13T10:28:45Z</time>
      </trkpt>
      <trkpt lat="45.94764" lon="4.67626">
        <ele>276.04</ele>
        <time>2015-09-13T10:28:48Z</time>
      </trkpt>
      <trkpt lat="45.94757" lon="4.67656">
        <ele>275.07</ele>
        <time>2015-09-13T10:28:53Z</time>
      </trkpt>
      <trkpt lat="45.94756" lon="4.67665">
        <ele>274.11</ele>
        <time>2015-09-13T10:28:55Z</time>
      </trkpt>
      <trkpt lat="45.94743" lon="4.67689">
        <ele>271.71</ele>
        <time>2015-09-13T10:29:04Z</time>
      </trkpt>
      <trkpt lat="45.94749" lon="4.67709">
        <ele>268.35</ele>
        <time>2015-09-13T10:29:11Z</time>
      </trkpt>
      <trkpt lat="45.94738" lon="4.67729">
        <ele>266.42</ele>
        <time>2015-09-13T10:29:17Z</time>
      </trkpt>
      <trkpt lat="45.94731" lon="4.67777">
        <ele>261.14</ele>
        <time>2015-09-13T10:29:26Z</time>
      </trkpt>
      <trkpt lat="45.94732" lon="4.67794">
        <ele>259.21</ele>
        <time>2015-09-13T10:29:30Z</time>
      </trkpt>
      <trkpt lat="45.94735" lon="4.67796">
        <ele>258.73</ele>
        <time>2015-09-13T10:29:32Z</time>
      </trkpt>
      <trkpt lat="45.94741" lon="4.67797">
        <ele>257.77</ele>
        <time>2015-09-13T10:29:36Z</time>
      </trkpt>
      <trkpt lat="45.94745" lon="4.67799">
        <ele>257.29</ele>
        <time>2015-09-13T10:29:38Z</time>
      </trkpt>
      <trkpt lat="45.94776" lon="4.67797">
        <ele>254.89</ele>
        <time>2015-09-13T10:29:48Z</time>
      </trkpt>
      <trkpt lat="45.94781" lon="4.67799">
        <ele>255.37</ele>
        <time>2015-09-13T10:29:51Z</time>
      </trkpt>
      <trkpt lat="45.94785" lon="4.67814">
        <ele>254.89</ele>
        <time>2015-09-13T10:29:55Z</time>
      </trkpt>
      <trkpt lat="45.9479" lon="4.67827">
        <ele>254.41</ele>
        <time>2015-09-13T10:29:58Z</time>
      </trkpt>
      <trkpt lat="45.94831" lon="4.67832">
        <ele>251.52</ele>
        <time>2015-09-13T10:30:10Z</time>
      </trkpt>
      <trkpt lat="45.94869" lon="4.67825">
        <ele>249.12</ele>
        <time>2015-09-13T10:30:21Z</time>
      </trkpt>
      <trkpt lat="45.949" lon="4.67826">
        <ele>250.56</ele>
        <time>2015-09-13T10:30:30Z</time>
      </trkpt>
      <trkpt lat="45.94928" lon="4.67841">
        <ele>251.04</ele>
        <time>2015-09-13T10:30:39Z</time>
      </trkpt>
      <trkpt lat="45.94932" lon="4.67843">
        <ele>251.04</ele>
        <time>2015-09-13T10:30:40Z</time>
      </trkpt>
      <trkpt lat="45.94936" lon="4.67844">
        <ele>251.04</ele>
        <time>2015-09-13T10:30:41Z</time>
      </trkpt>
      <trkpt lat="45.9494" lon="4.67846">
        <ele>251.04</ele>
        <time>2015-09-13T10:30:42Z</time>
      </trkpt>
      <trkpt lat="45.94944" lon="4.67848">
        <ele>251.52</ele>
        <time>2015-09-13T10:30:43Z</time>
      </trkpt>
      <trkpt lat="45.94947" lon="4.67849">
        <ele>251.52</ele>
        <time>2015-09-13T10:30:44Z</time>
      </trkpt>
      <trkpt lat="45.94951" lon="4.67851">
        <ele>252</ele>
        <time>2015-09-13T10:30:45Z</time>
      </trkpt>
      <trkpt lat="45.94955" lon="4.67852">
        <ele>252</ele>
        <time>2015-09-13T10:30:46Z</time>
      </trkpt>
      <trkpt lat="45.94959" lon="4.67855">
        <ele>252</ele>
        <time>2015-09-13T10:30:47Z</time>
      </trkpt>
      <trkpt lat="45.94984" lon="4.67873">
        <ele>252.96</ele>
        <time>2015-09-13T10:30:55Z</time>
      </trkpt>
      <trkpt lat="45.94986" lon="4.67875">
        <ele>253.44</ele>
        <time>2015-09-13T10:30:56Z</time>
      </trkpt>
      <trkpt lat="45.95008" lon="4.67891">
        <ele>254.89</ele>
        <time>2015-09-13T10:31:06Z</time>
      </trkpt>
      <trkpt lat="45.95022" lon="4.67902">
        <ele>256.81</ele>
        <time>2015-09-13T10:31:16Z</time>
      </trkpt>
      <trkpt lat="45.95038" lon="4.6792">
        <ele>260.17</ele>
        <time>2015-09-13T10:31:29Z</time>
      </trkpt>
      <trkpt lat="45.95039" lon="4.67921">
        <ele>260.65</ele>
        <time>2015-09-13T10:31:30Z</time>
      </trkpt>
      <trkpt lat="45.95041" lon="4.67922">
        <ele>261.14</ele>
        <time>2015-09-13T10:31:31Z</time>
      </trkpt>
      <trkpt lat="45.95049" lon="4.67928">
        <ele>263.06</ele>
        <time>2015-09-13T10:31:36Z</time>
      </trkpt>
      <trkpt lat="45.95054" lon="4.67934">
        <ele>263.06</ele>
        <time>2015-09-13T10:31:40Z</time>
      </trkpt>
      <trkpt lat="45.95055" lon="4.67936">
        <ele>263.06</ele>
        <time>2015-09-13T10:31:41Z</time>
      </trkpt>
      <trkpt lat="45.95057" lon="4.67938">
        <ele>262.58</ele>
        <time>2015-09-13T10:31:42Z</time>
      </trkpt>
      <trkpt lat="45.95069" lon="4.67947">
        <ele>262.58</ele>
        <time>2015-09-13T10:31:51Z</time>
      </trkpt>
      <trkpt lat="45.95084" lon="4.6795">
        <ele>262.58</ele>
        <time>2015-09-13T10:32:00Z</time>
      </trkpt>
      <trkpt lat="45.95085" lon="4.6795">
        <ele>262.58</ele>
        <time>2015-09-13T10:32:01Z</time>
      </trkpt>
      <trkpt lat="45.95086" lon="4.6795">
        <ele>262.58</ele>
        <time>2015-09-13T10:32:02Z</time>
      </trkpt>
      <trkpt lat="45.95088" lon="4.6795">
        <ele>262.58</ele>
        <time>2015-09-13T10:32:03Z</time>
      </trkpt>
      <trkpt lat="45.9509" lon="4.67949">
        <ele>262.58</ele>
        <time>2015-09-13T10:32:04Z</time>
      </trkpt>
      <trkpt lat="45.95092" lon="4.6795">
        <ele>262.1</ele>
        <time>2015-09-13T10:32:05Z</time>
      </trkpt>
      <trkpt lat="45.95121" lon="4.67954">
        <ele>262.58</ele>
        <time>2015-09-13T10:32:21Z</time>
      </trkpt>
      <trkpt lat="45.95126" lon="4.67955">
        <ele>263.06</ele>
        <time>2015-09-13T10:32:24Z</time>
      </trkpt>
      <trkpt lat="45.95127" lon="4.67956">
        <ele>263.06</ele>
        <time>2015-09-13T10:32:25Z</time>
      </trkpt>
      <trkpt lat="45.95129" lon="4.67957">
        <ele>263.06</ele>
        <time>2015-09-13T10:32:26Z</time>
      </trkpt>
      <trkpt lat="45.9513" lon="4.67957">
        <ele>263.06</ele>
        <time>2015-09-13T10:32:27Z</time>
      </trkpt>
      <trkpt lat="45.95131" lon="4.67958">
        <ele>263.06</ele>
        <time>2015-09-13T10:32:28Z</time>
      </trkpt>
      <trkpt lat="45.95142" lon="4.67964">
        <ele>264.98</ele>
        <time>2015-09-13T10:32:35Z</time>
      </trkpt>
      <trkpt lat="45.95144" lon="4.67965">
        <ele>264.5</ele>
        <time>2015-09-13T10:32:36Z</time>
      </trkpt>
      <trkpt lat="45.9517" lon="4.67979">
        <ele>264.5</ele>
        <time>2015-09-13T10:32:52Z</time>
      </trkpt>
      <trkpt lat="45.95196" lon="4.67998">
        <ele>265.46</ele>
        <time>2015-09-13T10:33:09Z</time>
      </trkpt>
      <trkpt lat="45.95199" lon="4.68">
        <ele>265.94</ele>
        <time>2015-09-13T10:33:11Z</time>
      </trkpt>
      <trkpt lat="45.95201" lon="4.68">
        <ele>265.94</ele>
        <time>2015-09-13T10:33:12Z</time>
      </trkpt>
      <trkpt lat="45.95202" lon="4.68001">
        <ele>265.94</ele>
        <time>2015-09-13T10:33:13Z</time>
      </trkpt>
      <trkpt lat="45.95221" lon="4.68009">
        <ele>265.94</ele>
        <time>2015-09-13T10:33:24Z</time>
      </trkpt>
      <trkpt lat="45.95223" lon="4.68009">
        <ele>265.94</ele>
        <time>2015-09-13T10:33:25Z</time>
      </trkpt>
      <trkpt lat="45.95264" lon="4.68013">
        <ele>266.42</ele>
        <time>2015-09-13T10:33:40Z</time>
      </trkpt>
      <trkpt lat="45.95296" lon="4.6802">
        <ele>265.46</ele>
        <time>2015-09-13T10:33:50Z</time>
      </trkpt>
      <trkpt lat="45.95312" lon="4.68046">
        <ele>265.94</ele>
        <time>2015-09-13T10:33:59Z</time>
      </trkpt>
      <trkpt lat="45.95331" lon="4.68091">
        <ele>269.31</ele>
        <time>2015-09-13T10:34:16Z</time>
      </trkpt>
      <trkpt lat="45.95347" lon="4.68131">
        <ele>272.19</ele>
        <time>2015-09-13T10:34:31Z</time>
      </trkpt>
      <trkpt lat="45.95364" lon="4.68167">
        <ele>275.56</ele>
        <time>2015-09-13T10:34:47Z</time>
      </trkpt>
      <trkpt lat="45.95377" lon="4.68186">
        <ele>277.48</ele>
        <time>2015-09-13T10:34:59Z</time>
      </trkpt>
      <trkpt lat="45.95375" lon="4.68189">
        <ele>277.96</ele>
        <time>2015-09-13T10:35:01Z</time>
      </trkpt>
      <trkpt lat="45.95367" lon="4.68187">
        <ele>277.96</ele>
        <time>2015-09-13T10:35:08Z</time>
      </trkpt>
      <trkpt lat="45.95343" lon="4.68183">
        <ele>279.88</ele>
        <time>2015-09-13T10:35:26Z</time>
      </trkpt>
      <trkpt lat="45.95318" lon="4.6818">
        <ele>283.25</ele>
        <time>2015-09-13T10:35:43Z</time>
      </trkpt>
      <trkpt lat="45.95312" lon="4.68179">
        <ele>283.25</ele>
        <time>2015-09-13T10:35:47Z</time>
      </trkpt>
      <trkpt lat="45.95296" lon="4.68177">
        <ele>284.69</ele>
        <time>2015-09-13T10:36:00Z</time>
      </trkpt>
      <trkpt lat="45.95289" lon="4.68183">
        <ele>284.69</ele>
        <time>2015-09-13T10:36:08Z</time>
      </trkpt>
      <trkpt lat="45.95288" lon="4.68191">
        <ele>285.65</ele>
        <time>2015-09-13T10:36:13Z</time>
      </trkpt>
      <trkpt lat="45.9529" lon="4.68215">
        <ele>287.57</ele>
        <time>2015-09-13T10:36:29Z</time>
      </trkpt>
      <trkpt lat="45.9529" lon="4.68238">
        <ele>290.46</ele>
        <time>2015-09-13T10:36:44Z</time>
      </trkpt>
      <trkpt lat="45.9529" lon="4.68241">
        <ele>290.94</ele>
        <time>2015-09-13T10:36:46Z</time>
      </trkpt>
      <trkpt lat="45.95291" lon="4.68256">
        <ele>292.86</ele>
        <time>2015-09-13T10:36:56Z</time>
      </trkpt>
      <trkpt lat="45.95277" lon="4.68259">
        <ele>294.78</ele>
        <time>2015-09-13T10:37:10Z</time>
      </trkpt>
      <trkpt lat="45.95273" lon="4.68258">
        <ele>294.78</ele>
        <time>2015-09-13T10:37:13Z</time>
      </trkpt>
      <trkpt lat="45.95247" lon="4.68253">
        <ele>297.18</ele>
        <time>2015-09-13T10:37:31Z</time>
      </trkpt>
      <trkpt lat="45.95223" lon="4.68246">
        <ele>299.11</ele>
        <time>2015-09-13T10:37:47Z</time>
      </trkpt>
      <trkpt lat="45.95192" lon="4.68244">
        <ele>301.51</ele>
        <time>2015-09-13T10:38:07Z</time>
      </trkpt>
      <trkpt lat="45.95165" lon="4.68248">
        <ele>302.95</ele>
        <time>2015-09-13T10:38:25Z</time>
      </trkpt>
      <trkpt lat="45.95155" lon="4.68248">
        <ele>303.43</ele>
        <time>2015-09-13T10:38:37Z</time>
      </trkpt>
      <trkpt lat="45.95155" lon="4.68251">
        <ele>303.43</ele>
        <time>2015-09-13T10:38:39Z</time>
      </trkpt>
      <trkpt lat="45.95134" lon="4.68271">
        <ele>304.88</ele>
        <time>2015-09-13T10:38:56Z</time>
      </trkpt>
      <trkpt lat="45.95112" lon="4.683">
        <ele>308.24</ele>
        <time>2015-09-13T10:39:15Z</time>
      </trkpt>
      <trkpt lat="45.95108" lon="4.68321">
        <ele>310.64</ele>
        <time>2015-09-13T10:39:25Z</time>
      </trkpt>
      <trkpt lat="45.95102" lon="4.68317">
        <ele>310.64</ele>
        <time>2015-09-13T10:39:31Z</time>
      </trkpt>
      <trkpt lat="45.951" lon="4.68311">
        <ele>310.64</ele>
        <time>2015-09-13T10:39:34Z</time>
      </trkpt>
      <trkpt lat="45.95095" lon="4.68306">
        <ele>310.16</ele>
        <time>2015-09-13T10:39:37Z</time>
      </trkpt>
      <trkpt lat="45.95077" lon="4.6831">
        <ele>311.12</ele>
        <time>2015-09-13T10:39:51Z</time>
      </trkpt>
      <trkpt lat="45.95077" lon="4.6831">
        <ele>311.12</ele>
        <time>2015-09-13T10:40:06Z</time>
      </trkpt>
    </trkseg>
  </trk>
</gpx>